<?xml version="1.0" encoding="UTF-8" standalone="no" ?>
<gpx xmlns="http://www.topografix.com/GPX/1/1" xmlns:xsi="http://www.w3.org/2001/XMLSchema-instance" xsi:schemaLocation="http://www.topografix.com/GPX/1/1 http://www.topografix.com/GPX/1/1/gpx.xsd" version="1.1" creator="VisuGPX - https://www.visugpx.com">
  <metadata>
    <name>83 - L - Carcès</name>
    <desc><![CDATA[83 - L - Carcès - Montfort sur Argens , Carcès ]]></desc>
  </metadata>
  <trk>
    <name><![CDATA[Carcès - Montfort 2025-12-01-01]]></name>
    <trkseg>
      <trkpt lat="43.47732" lon="6.18351">
        <ele>132</ele>
        <time>2025-12-01T07:28:23Z</time>
      </trkpt>
      <trkpt lat="43.47748" lon="6.18348">
        <ele>131</ele>
        <time>2025-12-01T07:28:27Z</time>
      </trkpt>
      <trkpt lat="43.47757" lon="6.18346">
        <ele>132</ele>
        <time>2025-12-01T07:28:33Z</time>
      </trkpt>
      <trkpt lat="43.47748" lon="6.18346">
        <ele>131.9</ele>
        <time>2025-12-01T07:28:57Z</time>
      </trkpt>
      <trkpt lat="43.4776" lon="6.18347">
        <ele>132</ele>
        <time>2025-12-01T07:29:02Z</time>
      </trkpt>
      <trkpt lat="43.47768" lon="6.18352">
        <ele>131.2</ele>
        <time>2025-12-01T07:29:52Z</time>
      </trkpt>
      <trkpt lat="43.47777" lon="6.18354">
        <ele>131.1</ele>
        <time>2025-12-01T07:30:58Z</time>
      </trkpt>
      <trkpt lat="43.47768" lon="6.18351">
        <ele>130.5</ele>
        <time>2025-12-01T07:33:30Z</time>
      </trkpt>
      <trkpt lat="43.47773" lon="6.1834">
        <ele>129.3</ele>
        <time>2025-12-01T07:34:45Z</time>
      </trkpt>
      <trkpt lat="43.47765" lon="6.18333">
        <ele>129.7</ele>
        <time>2025-12-01T07:35:13Z</time>
      </trkpt>
      <trkpt lat="43.47755" lon="6.1833">
        <ele>130.1</ele>
        <time>2025-12-01T07:35:24Z</time>
      </trkpt>
      <trkpt lat="43.47752" lon="6.18318">
        <ele>130.4</ele>
        <time>2025-12-01T07:35:52Z</time>
      </trkpt>
      <trkpt lat="43.47753" lon="6.18305">
        <ele>130.4</ele>
        <time>2025-12-01T07:36:06Z</time>
      </trkpt>
      <trkpt lat="43.47755" lon="6.18292">
        <ele>130.6</ele>
        <time>2025-12-01T07:36:26Z</time>
      </trkpt>
      <trkpt lat="43.47755" lon="6.18279">
        <ele>130.5</ele>
        <time>2025-12-01T07:36:57Z</time>
      </trkpt>
      <trkpt lat="43.47755" lon="6.18266">
        <ele>130.7</ele>
        <time>2025-12-01T07:37:09Z</time>
      </trkpt>
      <trkpt lat="43.47754" lon="6.18252">
        <ele>130.6</ele>
        <time>2025-12-01T07:37:20Z</time>
      </trkpt>
      <trkpt lat="43.4775" lon="6.18241">
        <ele>131</ele>
        <time>2025-12-01T07:37:28Z</time>
      </trkpt>
      <trkpt lat="43.47748" lon="6.18228">
        <ele>130.9</ele>
        <time>2025-12-01T07:37:38Z</time>
      </trkpt>
      <trkpt lat="43.47746" lon="6.18216">
        <ele>131.2</ele>
        <time>2025-12-01T07:37:45Z</time>
      </trkpt>
      <trkpt lat="43.47744" lon="6.18203">
        <ele>131.5</ele>
        <time>2025-12-01T07:37:54Z</time>
      </trkpt>
      <trkpt lat="43.47741" lon="6.18191">
        <ele>132</ele>
        <time>2025-12-01T07:38:07Z</time>
      </trkpt>
      <trkpt lat="43.47737" lon="6.18179">
        <ele>132.4</ele>
        <time>2025-12-01T07:38:15Z</time>
      </trkpt>
      <trkpt lat="43.47735" lon="6.18167">
        <ele>133</ele>
        <time>2025-12-01T07:38:25Z</time>
      </trkpt>
      <trkpt lat="43.47729" lon="6.18157">
        <ele>133.2</ele>
        <time>2025-12-01T07:38:45Z</time>
      </trkpt>
      <trkpt lat="43.47729" lon="6.18144">
        <ele>133.7</ele>
        <time>2025-12-01T07:39:00Z</time>
      </trkpt>
      <trkpt lat="43.47724" lon="6.18132">
        <ele>134.3</ele>
        <time>2025-12-01T07:39:08Z</time>
      </trkpt>
      <trkpt lat="43.47715" lon="6.18127">
        <ele>135.4</ele>
        <time>2025-12-01T07:39:21Z</time>
      </trkpt>
      <trkpt lat="43.47708" lon="6.18117">
        <ele>137.3</ele>
        <time>2025-12-01T07:39:42Z</time>
      </trkpt>
      <trkpt lat="43.47697" lon="6.18116">
        <ele>138.3</ele>
        <time>2025-12-01T07:39:51Z</time>
      </trkpt>
      <trkpt lat="43.47681" lon="6.18119">
        <ele>140</ele>
        <time>2025-12-01T07:40:02Z</time>
      </trkpt>
      <trkpt lat="43.47677" lon="6.1813">
        <ele>141.8</ele>
        <time>2025-12-01T07:40:14Z</time>
      </trkpt>
      <trkpt lat="43.47669" lon="6.18137">
        <ele>142.6</ele>
        <time>2025-12-01T07:40:20Z</time>
      </trkpt>
      <trkpt lat="43.4766" lon="6.18143">
        <ele>143.6</ele>
        <time>2025-12-01T07:40:27Z</time>
      </trkpt>
      <trkpt lat="43.47651" lon="6.18142">
        <ele>146.9</ele>
        <time>2025-12-01T07:40:53Z</time>
      </trkpt>
      <trkpt lat="43.47643" lon="6.18136">
        <ele>147.3</ele>
        <time>2025-12-01T07:41:06Z</time>
      </trkpt>
      <trkpt lat="43.47638" lon="6.18124">
        <ele>147</ele>
        <time>2025-12-01T07:42:04Z</time>
      </trkpt>
      <trkpt lat="43.47628" lon="6.1812">
        <ele>148.6</ele>
        <time>2025-12-01T07:42:16Z</time>
      </trkpt>
      <trkpt lat="43.4762" lon="6.18126">
        <ele>149.6</ele>
        <time>2025-12-01T07:42:52Z</time>
      </trkpt>
      <trkpt lat="43.4761" lon="6.18126">
        <ele>150</ele>
        <time>2025-12-01T07:43:03Z</time>
      </trkpt>
      <trkpt lat="43.47601" lon="6.18125">
        <ele>150.2</ele>
        <time>2025-12-01T07:43:10Z</time>
      </trkpt>
      <trkpt lat="43.47592" lon="6.1812">
        <ele>150.6</ele>
        <time>2025-12-01T07:43:19Z</time>
      </trkpt>
      <trkpt lat="43.47583" lon="6.18114">
        <ele>151.1</ele>
        <time>2025-12-01T07:43:27Z</time>
      </trkpt>
      <trkpt lat="43.47577" lon="6.18104">
        <ele>151.3</ele>
        <time>2025-12-01T07:43:37Z</time>
      </trkpt>
      <trkpt lat="43.47569" lon="6.18096">
        <ele>151.1</ele>
        <time>2025-12-01T07:43:45Z</time>
      </trkpt>
      <trkpt lat="43.47559" lon="6.18093">
        <ele>151.6</ele>
        <time>2025-12-01T07:43:53Z</time>
      </trkpt>
      <trkpt lat="43.47549" lon="6.18091">
        <ele>151.8</ele>
        <time>2025-12-01T07:44:02Z</time>
      </trkpt>
      <trkpt lat="43.4754" lon="6.18086">
        <ele>151.6</ele>
        <time>2025-12-01T07:44:11Z</time>
      </trkpt>
      <trkpt lat="43.4753" lon="6.18084">
        <ele>152.1</ele>
        <time>2025-12-01T07:44:21Z</time>
      </trkpt>
      <trkpt lat="43.47521" lon="6.18085">
        <ele>152.5</ele>
        <time>2025-12-01T07:44:29Z</time>
      </trkpt>
      <trkpt lat="43.47512" lon="6.1808">
        <ele>152.9</ele>
        <time>2025-12-01T07:44:39Z</time>
      </trkpt>
      <trkpt lat="43.47503" lon="6.18079">
        <ele>153.1</ele>
        <time>2025-12-01T07:44:50Z</time>
      </trkpt>
      <trkpt lat="43.47493" lon="6.18075">
        <ele>153.1</ele>
        <time>2025-12-01T07:44:58Z</time>
      </trkpt>
      <trkpt lat="43.47485" lon="6.1807">
        <ele>153.5</ele>
        <time>2025-12-01T07:45:06Z</time>
      </trkpt>
      <trkpt lat="43.47476" lon="6.18068">
        <ele>153.8</ele>
        <time>2025-12-01T07:45:13Z</time>
      </trkpt>
      <trkpt lat="43.47465" lon="6.18067">
        <ele>154.1</ele>
        <time>2025-12-01T07:45:19Z</time>
      </trkpt>
      <trkpt lat="43.47456" lon="6.18066">
        <ele>154.4</ele>
        <time>2025-12-01T07:45:29Z</time>
      </trkpt>
      <trkpt lat="43.47448" lon="6.18059">
        <ele>154.7</ele>
        <time>2025-12-01T07:45:53Z</time>
      </trkpt>
      <trkpt lat="43.47439" lon="6.18056">
        <ele>154.6</ele>
        <time>2025-12-01T07:46:11Z</time>
      </trkpt>
      <trkpt lat="43.4743" lon="6.18052">
        <ele>154.8</ele>
        <time>2025-12-01T07:46:24Z</time>
      </trkpt>
      <trkpt lat="43.47421" lon="6.18051">
        <ele>154.8</ele>
        <time>2025-12-01T07:46:31Z</time>
      </trkpt>
      <trkpt lat="43.47412" lon="6.18047">
        <ele>155</ele>
        <time>2025-12-01T07:46:39Z</time>
      </trkpt>
      <trkpt lat="43.47404" lon="6.18042">
        <ele>155.7</ele>
        <time>2025-12-01T07:46:59Z</time>
      </trkpt>
      <trkpt lat="43.47397" lon="6.18032">
        <ele>156.4</ele>
        <time>2025-12-01T07:47:10Z</time>
      </trkpt>
      <trkpt lat="43.47397" lon="6.18019">
        <ele>156.4</ele>
        <time>2025-12-01T07:47:19Z</time>
      </trkpt>
      <trkpt lat="43.47394" lon="6.18031">
        <ele>157.6</ele>
        <time>2025-12-01T07:47:32Z</time>
      </trkpt>
      <trkpt lat="43.47392" lon="6.18044">
        <ele>158.7</ele>
        <time>2025-12-01T07:47:45Z</time>
      </trkpt>
      <trkpt lat="43.4739" lon="6.18056">
        <ele>159.6</ele>
        <time>2025-12-01T07:47:57Z</time>
      </trkpt>
      <trkpt lat="43.47388" lon="6.18069">
        <ele>160.8</ele>
        <time>2025-12-01T07:48:09Z</time>
      </trkpt>
      <trkpt lat="43.47386" lon="6.18081">
        <ele>161.7</ele>
        <time>2025-12-01T07:48:19Z</time>
      </trkpt>
      <trkpt lat="43.47384" lon="6.18095">
        <ele>163</ele>
        <time>2025-12-01T07:48:38Z</time>
      </trkpt>
      <trkpt lat="43.4738" lon="6.18107">
        <ele>163.8</ele>
        <time>2025-12-01T07:48:47Z</time>
      </trkpt>
      <trkpt lat="43.47376" lon="6.18119">
        <ele>164.2</ele>
        <time>2025-12-01T07:49:24Z</time>
      </trkpt>
      <trkpt lat="43.47373" lon="6.1813">
        <ele>164.6</ele>
        <time>2025-12-01T07:49:33Z</time>
      </trkpt>
      <trkpt lat="43.47364" lon="6.18137">
        <ele>165.2</ele>
        <time>2025-12-01T07:49:55Z</time>
      </trkpt>
      <trkpt lat="43.47355" lon="6.18137">
        <ele>167.3</ele>
        <time>2025-12-01T07:51:44Z</time>
      </trkpt>
      <trkpt lat="43.47345" lon="6.18133">
        <ele>169</ele>
        <time>2025-12-01T07:52:00Z</time>
      </trkpt>
      <trkpt lat="43.47335" lon="6.18135">
        <ele>171.1</ele>
        <time>2025-12-01T07:52:12Z</time>
      </trkpt>
      <trkpt lat="43.47326" lon="6.18135">
        <ele>172.3</ele>
        <time>2025-12-01T07:52:21Z</time>
      </trkpt>
      <trkpt lat="43.47317" lon="6.18134">
        <ele>172.6</ele>
        <time>2025-12-01T07:52:30Z</time>
      </trkpt>
      <trkpt lat="43.47307" lon="6.18133">
        <ele>171.9</ele>
        <time>2025-12-01T07:52:39Z</time>
      </trkpt>
      <trkpt lat="43.47297" lon="6.18132">
        <ele>171.1</ele>
        <time>2025-12-01T07:52:53Z</time>
      </trkpt>
      <trkpt lat="43.47288" lon="6.1813">
        <ele>170.4</ele>
        <time>2025-12-01T07:53:00Z</time>
      </trkpt>
      <trkpt lat="43.47278" lon="6.1813">
        <ele>170.3</ele>
        <time>2025-12-01T07:53:09Z</time>
      </trkpt>
      <trkpt lat="43.47268" lon="6.18129">
        <ele>170.2</ele>
        <time>2025-12-01T07:53:52Z</time>
      </trkpt>
      <trkpt lat="43.47259" lon="6.18127">
        <ele>170.4</ele>
        <time>2025-12-01T07:54:02Z</time>
      </trkpt>
      <trkpt lat="43.4725" lon="6.18124">
        <ele>171</ele>
        <time>2025-12-01T07:54:12Z</time>
      </trkpt>
      <trkpt lat="43.47241" lon="6.1812">
        <ele>172</ele>
        <time>2025-12-01T07:54:21Z</time>
      </trkpt>
      <trkpt lat="43.47233" lon="6.18112">
        <ele>173.5</ele>
        <time>2025-12-01T07:54:33Z</time>
      </trkpt>
      <trkpt lat="43.47225" lon="6.18107">
        <ele>174.6</ele>
        <time>2025-12-01T07:54:43Z</time>
      </trkpt>
      <trkpt lat="43.47215" lon="6.18102">
        <ele>176.2</ele>
        <time>2025-12-01T07:54:53Z</time>
      </trkpt>
      <trkpt lat="43.47206" lon="6.18096">
        <ele>177.8</ele>
        <time>2025-12-01T07:55:05Z</time>
      </trkpt>
      <trkpt lat="43.47198" lon="6.18092">
        <ele>179.8</ele>
        <time>2025-12-01T07:55:16Z</time>
      </trkpt>
      <trkpt lat="43.4719" lon="6.18085">
        <ele>181.3</ele>
        <time>2025-12-01T07:55:26Z</time>
      </trkpt>
      <trkpt lat="43.47184" lon="6.18075">
        <ele>183.4</ele>
        <time>2025-12-01T07:55:39Z</time>
      </trkpt>
      <trkpt lat="43.47176" lon="6.18071">
        <ele>185.7</ele>
        <time>2025-12-01T07:55:51Z</time>
      </trkpt>
      <trkpt lat="43.47166" lon="6.18068">
        <ele>187.1</ele>
        <time>2025-12-01T07:56:02Z</time>
      </trkpt>
      <trkpt lat="43.47157" lon="6.18069">
        <ele>188.2</ele>
        <time>2025-12-01T07:56:13Z</time>
      </trkpt>
      <trkpt lat="43.47148" lon="6.18072">
        <ele>187.9</ele>
        <time>2025-12-01T07:56:35Z</time>
      </trkpt>
      <trkpt lat="43.47139" lon="6.18074">
        <ele>187.3</ele>
        <time>2025-12-01T07:56:53Z</time>
      </trkpt>
      <trkpt lat="43.4713" lon="6.18081">
        <ele>185.9</ele>
        <time>2025-12-01T07:57:08Z</time>
      </trkpt>
      <trkpt lat="43.47124" lon="6.1809">
        <ele>185.4</ele>
        <time>2025-12-01T07:57:21Z</time>
      </trkpt>
      <trkpt lat="43.47115" lon="6.18097">
        <ele>183.3</ele>
        <time>2025-12-01T07:57:32Z</time>
      </trkpt>
      <trkpt lat="43.47106" lon="6.181">
        <ele>182</ele>
        <time>2025-12-01T07:57:43Z</time>
      </trkpt>
      <trkpt lat="43.47098" lon="6.18106">
        <ele>180.7</ele>
        <time>2025-12-01T07:57:55Z</time>
      </trkpt>
      <trkpt lat="43.47089" lon="6.1811">
        <ele>179.4</ele>
        <time>2025-12-01T07:58:06Z</time>
      </trkpt>
      <trkpt lat="43.47081" lon="6.18116">
        <ele>178.2</ele>
        <time>2025-12-01T07:58:16Z</time>
      </trkpt>
      <trkpt lat="43.47074" lon="6.18124">
        <ele>176.9</ele>
        <time>2025-12-01T07:58:26Z</time>
      </trkpt>
      <trkpt lat="43.47066" lon="6.1813">
        <ele>175</ele>
        <time>2025-12-01T07:58:38Z</time>
      </trkpt>
      <trkpt lat="43.47057" lon="6.18133">
        <ele>173.3</ele>
        <time>2025-12-01T07:58:48Z</time>
      </trkpt>
      <trkpt lat="43.47048" lon="6.18136">
        <ele>172.6</ele>
        <time>2025-12-01T07:59:37Z</time>
      </trkpt>
      <trkpt lat="43.47039" lon="6.18133">
        <ele>171.8</ele>
        <time>2025-12-01T07:59:47Z</time>
      </trkpt>
      <trkpt lat="43.47029" lon="6.18132">
        <ele>171</ele>
        <time>2025-12-01T07:59:59Z</time>
      </trkpt>
      <trkpt lat="43.4702" lon="6.18132">
        <ele>170.5</ele>
        <time>2025-12-01T08:00:07Z</time>
      </trkpt>
      <trkpt lat="43.47011" lon="6.18131">
        <ele>170</ele>
        <time>2025-12-01T08:00:18Z</time>
      </trkpt>
      <trkpt lat="43.47001" lon="6.18129">
        <ele>169.7</ele>
        <time>2025-12-01T08:00:26Z</time>
      </trkpt>
      <trkpt lat="43.46992" lon="6.18126">
        <ele>169.9</ele>
        <time>2025-12-01T08:00:35Z</time>
      </trkpt>
      <trkpt lat="43.46983" lon="6.18121">
        <ele>169.3</ele>
        <time>2025-12-01T08:00:44Z</time>
      </trkpt>
      <trkpt lat="43.46975" lon="6.18116">
        <ele>169.1</ele>
        <time>2025-12-01T08:00:53Z</time>
      </trkpt>
      <trkpt lat="43.46965" lon="6.18113">
        <ele>169.4</ele>
        <time>2025-12-01T08:01:02Z</time>
      </trkpt>
      <trkpt lat="43.46955" lon="6.18114">
        <ele>169.4</ele>
        <time>2025-12-01T08:01:11Z</time>
      </trkpt>
      <trkpt lat="43.46946" lon="6.18118">
        <ele>170</ele>
        <time>2025-12-01T08:01:20Z</time>
      </trkpt>
      <trkpt lat="43.46937" lon="6.18122">
        <ele>170.6</ele>
        <time>2025-12-01T08:01:29Z</time>
      </trkpt>
      <trkpt lat="43.46928" lon="6.18125">
        <ele>171.4</ele>
        <time>2025-12-01T08:01:38Z</time>
      </trkpt>
      <trkpt lat="43.46919" lon="6.18129">
        <ele>172.3</ele>
        <time>2025-12-01T08:01:47Z</time>
      </trkpt>
      <trkpt lat="43.4691" lon="6.18131">
        <ele>173.4</ele>
        <time>2025-12-01T08:01:58Z</time>
      </trkpt>
      <trkpt lat="43.469" lon="6.18133">
        <ele>173.8</ele>
        <time>2025-12-01T08:02:07Z</time>
      </trkpt>
      <trkpt lat="43.46891" lon="6.18133">
        <ele>174.5</ele>
        <time>2025-12-01T08:02:17Z</time>
      </trkpt>
      <trkpt lat="43.46882" lon="6.18137">
        <ele>175.3</ele>
        <time>2025-12-01T08:02:27Z</time>
      </trkpt>
      <trkpt lat="43.46873" lon="6.1814">
        <ele>175.8</ele>
        <time>2025-12-01T08:02:37Z</time>
      </trkpt>
      <trkpt lat="43.46865" lon="6.18132">
        <ele>177</ele>
        <time>2025-12-01T08:03:01Z</time>
      </trkpt>
      <trkpt lat="43.46867" lon="6.18119">
        <ele>177.8</ele>
        <time>2025-12-01T08:03:11Z</time>
      </trkpt>
      <trkpt lat="43.46869" lon="6.18106">
        <ele>178.5</ele>
        <time>2025-12-01T08:03:20Z</time>
      </trkpt>
      <trkpt lat="43.46871" lon="6.18094">
        <ele>179.4</ele>
        <time>2025-12-01T08:03:29Z</time>
      </trkpt>
      <trkpt lat="43.46873" lon="6.18081">
        <ele>179.5</ele>
        <time>2025-12-01T08:03:38Z</time>
      </trkpt>
      <trkpt lat="43.46876" lon="6.18068">
        <ele>179.7</ele>
        <time>2025-12-01T08:03:48Z</time>
      </trkpt>
      <trkpt lat="43.46874" lon="6.18056">
        <ele>179.4</ele>
        <time>2025-12-01T08:03:57Z</time>
      </trkpt>
      <trkpt lat="43.46869" lon="6.18045">
        <ele>179.3</ele>
        <time>2025-12-01T08:04:07Z</time>
      </trkpt>
      <trkpt lat="43.46865" lon="6.18032">
        <ele>179.3</ele>
        <time>2025-12-01T08:04:19Z</time>
      </trkpt>
      <trkpt lat="43.46861" lon="6.18021">
        <ele>179.1</ele>
        <time>2025-12-01T08:04:29Z</time>
      </trkpt>
      <trkpt lat="43.46856" lon="6.1801">
        <ele>179.3</ele>
        <time>2025-12-01T08:04:39Z</time>
      </trkpt>
      <trkpt lat="43.46852" lon="6.17999">
        <ele>179.1</ele>
        <time>2025-12-01T08:04:51Z</time>
      </trkpt>
      <trkpt lat="43.46849" lon="6.17986">
        <ele>179</ele>
        <time>2025-12-01T08:05:02Z</time>
      </trkpt>
      <trkpt lat="43.46848" lon="6.17973">
        <ele>177.7</ele>
        <time>2025-12-01T08:05:15Z</time>
      </trkpt>
      <trkpt lat="43.46854" lon="6.17964">
        <ele>177.1</ele>
        <time>2025-12-01T08:05:25Z</time>
      </trkpt>
      <trkpt lat="43.46858" lon="6.17951">
        <ele>175.2</ele>
        <time>2025-12-01T08:05:35Z</time>
      </trkpt>
      <trkpt lat="43.46858" lon="6.17938">
        <ele>174.6</ele>
        <time>2025-12-01T08:05:43Z</time>
      </trkpt>
      <trkpt lat="43.46853" lon="6.17926">
        <ele>174.2</ele>
        <time>2025-12-01T08:05:53Z</time>
      </trkpt>
      <trkpt lat="43.46846" lon="6.17917">
        <ele>173.8</ele>
        <time>2025-12-01T08:06:02Z</time>
      </trkpt>
      <trkpt lat="43.46838" lon="6.17909">
        <ele>173.8</ele>
        <time>2025-12-01T08:06:11Z</time>
      </trkpt>
      <trkpt lat="43.46829" lon="6.17905">
        <ele>173.4</ele>
        <time>2025-12-01T08:06:20Z</time>
      </trkpt>
      <trkpt lat="43.4682" lon="6.17902">
        <ele>172.6</ele>
        <time>2025-12-01T08:06:31Z</time>
      </trkpt>
      <trkpt lat="43.46812" lon="6.17896">
        <ele>171.2</ele>
        <time>2025-12-01T08:07:02Z</time>
      </trkpt>
      <trkpt lat="43.46803" lon="6.17892">
        <ele>170.3</ele>
        <time>2025-12-01T08:07:12Z</time>
      </trkpt>
      <trkpt lat="43.46794" lon="6.17886">
        <ele>168.8</ele>
        <time>2025-12-01T08:07:22Z</time>
      </trkpt>
      <trkpt lat="43.46785" lon="6.17883">
        <ele>167.2</ele>
        <time>2025-12-01T08:07:31Z</time>
      </trkpt>
      <trkpt lat="43.46776" lon="6.17882">
        <ele>165.8</ele>
        <time>2025-12-01T08:07:40Z</time>
      </trkpt>
      <trkpt lat="43.46766" lon="6.1788">
        <ele>164.5</ele>
        <time>2025-12-01T08:07:50Z</time>
      </trkpt>
      <trkpt lat="43.46756" lon="6.17882">
        <ele>163.4</ele>
        <time>2025-12-01T08:07:59Z</time>
      </trkpt>
      <trkpt lat="43.46747" lon="6.1788">
        <ele>162.7</ele>
        <time>2025-12-01T08:08:06Z</time>
      </trkpt>
      <trkpt lat="43.46738" lon="6.17878">
        <ele>162.5</ele>
        <time>2025-12-01T08:08:15Z</time>
      </trkpt>
      <trkpt lat="43.46729" lon="6.17873">
        <ele>162.6</ele>
        <time>2025-12-01T08:08:25Z</time>
      </trkpt>
      <trkpt lat="43.46721" lon="6.17866">
        <ele>163.1</ele>
        <time>2025-12-01T08:08:36Z</time>
      </trkpt>
      <trkpt lat="43.46711" lon="6.17863">
        <ele>163.8</ele>
        <time>2025-12-01T08:08:46Z</time>
      </trkpt>
      <trkpt lat="43.46703" lon="6.17857">
        <ele>164.6</ele>
        <time>2025-12-01T08:08:56Z</time>
      </trkpt>
      <trkpt lat="43.46695" lon="6.17848">
        <ele>165.7</ele>
        <time>2025-12-01T08:09:10Z</time>
      </trkpt>
      <trkpt lat="43.46688" lon="6.17839">
        <ele>166.2</ele>
        <time>2025-12-01T08:09:20Z</time>
      </trkpt>
      <trkpt lat="43.46681" lon="6.17831">
        <ele>167.2</ele>
        <time>2025-12-01T08:09:34Z</time>
      </trkpt>
      <trkpt lat="43.46674" lon="6.17823">
        <ele>167.5</ele>
        <time>2025-12-01T08:09:44Z</time>
      </trkpt>
      <trkpt lat="43.46666" lon="6.17815">
        <ele>168.3</ele>
        <time>2025-12-01T08:09:56Z</time>
      </trkpt>
      <trkpt lat="43.46657" lon="6.17809">
        <ele>169.1</ele>
        <time>2025-12-01T08:10:08Z</time>
      </trkpt>
      <trkpt lat="43.46648" lon="6.17805">
        <ele>170.7</ele>
        <time>2025-12-01T08:10:22Z</time>
      </trkpt>
      <trkpt lat="43.46641" lon="6.17798">
        <ele>172.5</ele>
        <time>2025-12-01T08:10:35Z</time>
      </trkpt>
      <trkpt lat="43.46633" lon="6.17791">
        <ele>174.4</ele>
        <time>2025-12-01T08:10:48Z</time>
      </trkpt>
      <trkpt lat="43.46628" lon="6.1778">
        <ele>176.1</ele>
        <time>2025-12-01T08:11:00Z</time>
      </trkpt>
      <trkpt lat="43.46621" lon="6.1777">
        <ele>178.3</ele>
        <time>2025-12-01T08:11:13Z</time>
      </trkpt>
      <trkpt lat="43.46614" lon="6.17762">
        <ele>179.7</ele>
        <time>2025-12-01T08:11:25Z</time>
      </trkpt>
      <trkpt lat="43.46605" lon="6.17757">
        <ele>180.7</ele>
        <time>2025-12-01T08:11:36Z</time>
      </trkpt>
      <trkpt lat="43.46597" lon="6.17751">
        <ele>181.2</ele>
        <time>2025-12-01T08:11:50Z</time>
      </trkpt>
      <trkpt lat="43.46591" lon="6.17741">
        <ele>180.4</ele>
        <time>2025-12-01T08:14:53Z</time>
      </trkpt>
      <trkpt lat="43.46584" lon="6.17732">
        <ele>179.5</ele>
        <time>2025-12-01T08:15:10Z</time>
      </trkpt>
      <trkpt lat="43.46575" lon="6.17727">
        <ele>178.8</ele>
        <time>2025-12-01T08:15:21Z</time>
      </trkpt>
      <trkpt lat="43.46567" lon="6.1772">
        <ele>178.4</ele>
        <time>2025-12-01T08:15:33Z</time>
      </trkpt>
      <trkpt lat="43.46559" lon="6.17714">
        <ele>177.8</ele>
        <time>2025-12-01T08:15:43Z</time>
      </trkpt>
      <trkpt lat="43.46552" lon="6.17705">
        <ele>177.2</ele>
        <time>2025-12-01T08:15:52Z</time>
      </trkpt>
      <trkpt lat="43.46547" lon="6.17694">
        <ele>176.6</ele>
        <time>2025-12-01T08:16:04Z</time>
      </trkpt>
      <trkpt lat="43.46543" lon="6.17681">
        <ele>176</ele>
        <time>2025-12-01T08:16:27Z</time>
      </trkpt>
      <trkpt lat="43.46541" lon="6.17669">
        <ele>175.7</ele>
        <time>2025-12-01T08:16:35Z</time>
      </trkpt>
      <trkpt lat="43.46539" lon="6.17656">
        <ele>175.5</ele>
        <time>2025-12-01T08:16:44Z</time>
      </trkpt>
      <trkpt lat="43.46535" lon="6.17643">
        <ele>175</ele>
        <time>2025-12-01T08:16:53Z</time>
      </trkpt>
      <trkpt lat="43.46533" lon="6.1763">
        <ele>174</ele>
        <time>2025-12-01T08:17:09Z</time>
      </trkpt>
      <trkpt lat="43.46526" lon="6.17623">
        <ele>173.6</ele>
        <time>2025-12-01T08:17:18Z</time>
      </trkpt>
      <trkpt lat="43.46517" lon="6.17619">
        <ele>173.6</ele>
        <time>2025-12-01T08:17:27Z</time>
      </trkpt>
      <trkpt lat="43.4651" lon="6.1761">
        <ele>172.5</ele>
        <time>2025-12-01T08:17:39Z</time>
      </trkpt>
      <trkpt lat="43.46504" lon="6.17599">
        <ele>171.3</ele>
        <time>2025-12-01T08:17:48Z</time>
      </trkpt>
      <trkpt lat="43.465" lon="6.17588">
        <ele>170.2</ele>
        <time>2025-12-01T08:17:59Z</time>
      </trkpt>
      <trkpt lat="43.46495" lon="6.17576">
        <ele>169.4</ele>
        <time>2025-12-01T08:18:08Z</time>
      </trkpt>
      <trkpt lat="43.46491" lon="6.17564">
        <ele>168.8</ele>
        <time>2025-12-01T08:18:17Z</time>
      </trkpt>
      <trkpt lat="43.46488" lon="6.17552">
        <ele>168</ele>
        <time>2025-12-01T08:18:27Z</time>
      </trkpt>
      <trkpt lat="43.46486" lon="6.17539">
        <ele>167</ele>
        <time>2025-12-01T08:18:38Z</time>
      </trkpt>
      <trkpt lat="43.46483" lon="6.17527">
        <ele>166.5</ele>
        <time>2025-12-01T08:18:46Z</time>
      </trkpt>
      <trkpt lat="43.46483" lon="6.17514">
        <ele>166.1</ele>
        <time>2025-12-01T08:19:15Z</time>
      </trkpt>
      <trkpt lat="43.46486" lon="6.17502">
        <ele>165.3</ele>
        <time>2025-12-01T08:19:39Z</time>
      </trkpt>
      <trkpt lat="43.46489" lon="6.17489">
        <ele>164.5</ele>
        <time>2025-12-01T08:19:50Z</time>
      </trkpt>
      <trkpt lat="43.46491" lon="6.17477">
        <ele>163.9</ele>
        <time>2025-12-01T08:20:08Z</time>
      </trkpt>
      <trkpt lat="43.46494" lon="6.17464">
        <ele>163.6</ele>
        <time>2025-12-01T08:20:19Z</time>
      </trkpt>
      <trkpt lat="43.46496" lon="6.17451">
        <ele>162.9</ele>
        <time>2025-12-01T08:20:29Z</time>
      </trkpt>
      <trkpt lat="43.46498" lon="6.17438">
        <ele>161.4</ele>
        <time>2025-12-01T08:20:48Z</time>
      </trkpt>
      <trkpt lat="43.46493" lon="6.17426">
        <ele>160.8</ele>
        <time>2025-12-01T08:21:04Z</time>
      </trkpt>
      <trkpt lat="43.46486" lon="6.17416">
        <ele>159.7</ele>
        <time>2025-12-01T08:21:15Z</time>
      </trkpt>
      <trkpt lat="43.46479" lon="6.17408">
        <ele>159.1</ele>
        <time>2025-12-01T08:21:23Z</time>
      </trkpt>
      <trkpt lat="43.46472" lon="6.174">
        <ele>158.1</ele>
        <time>2025-12-01T08:21:31Z</time>
      </trkpt>
      <trkpt lat="43.46464" lon="6.17392">
        <ele>157.4</ele>
        <time>2025-12-01T08:21:41Z</time>
      </trkpt>
      <trkpt lat="43.46457" lon="6.17384">
        <ele>156.9</ele>
        <time>2025-12-01T08:21:50Z</time>
      </trkpt>
      <trkpt lat="43.4645" lon="6.17375">
        <ele>155.8</ele>
        <time>2025-12-01T08:22:00Z</time>
      </trkpt>
      <trkpt lat="43.46443" lon="6.17367">
        <ele>154.8</ele>
        <time>2025-12-01T08:22:10Z</time>
      </trkpt>
      <trkpt lat="43.46437" lon="6.17357">
        <ele>153.7</ele>
        <time>2025-12-01T08:22:26Z</time>
      </trkpt>
      <trkpt lat="43.4643" lon="6.17349">
        <ele>153.1</ele>
        <time>2025-12-01T08:22:37Z</time>
      </trkpt>
      <trkpt lat="43.46422" lon="6.17341">
        <ele>152.3</ele>
        <time>2025-12-01T08:22:47Z</time>
      </trkpt>
      <trkpt lat="43.46415" lon="6.17332">
        <ele>151.5</ele>
        <time>2025-12-01T08:22:57Z</time>
      </trkpt>
      <trkpt lat="43.4641" lon="6.17321">
        <ele>151.3</ele>
        <time>2025-12-01T08:23:06Z</time>
      </trkpt>
      <trkpt lat="43.46408" lon="6.17309">
        <ele>150.7</ele>
        <time>2025-12-01T08:23:15Z</time>
      </trkpt>
      <trkpt lat="43.46406" lon="6.17296">
        <ele>149.8</ele>
        <time>2025-12-01T08:23:25Z</time>
      </trkpt>
      <trkpt lat="43.46406" lon="6.17283">
        <ele>149</ele>
        <time>2025-12-01T08:23:34Z</time>
      </trkpt>
      <trkpt lat="43.46406" lon="6.1727">
        <ele>148.2</ele>
        <time>2025-12-01T08:23:45Z</time>
      </trkpt>
      <trkpt lat="43.46405" lon="6.17258">
        <ele>147.3</ele>
        <time>2025-12-01T08:23:53Z</time>
      </trkpt>
      <trkpt lat="43.46406" lon="6.17245">
        <ele>146.2</ele>
        <time>2025-12-01T08:24:03Z</time>
      </trkpt>
      <trkpt lat="43.46405" lon="6.17231">
        <ele>145.2</ele>
        <time>2025-12-01T08:24:13Z</time>
      </trkpt>
      <trkpt lat="43.46404" lon="6.17219">
        <ele>144.1</ele>
        <time>2025-12-01T08:24:45Z</time>
      </trkpt>
      <trkpt lat="43.46396" lon="6.17211">
        <ele>142.9</ele>
        <time>2025-12-01T08:24:57Z</time>
      </trkpt>
      <trkpt lat="43.46394" lon="6.17198">
        <ele>142</ele>
        <time>2025-12-01T08:25:03Z</time>
      </trkpt>
      <trkpt lat="43.46389" lon="6.17188">
        <ele>140.8</ele>
        <time>2025-12-01T08:25:11Z</time>
      </trkpt>
      <trkpt lat="43.46382" lon="6.17178">
        <ele>139.7</ele>
        <time>2025-12-01T08:25:20Z</time>
      </trkpt>
      <trkpt lat="43.46376" lon="6.17169">
        <ele>138.7</ele>
        <time>2025-12-01T08:25:29Z</time>
      </trkpt>
      <trkpt lat="43.4637" lon="6.17159">
        <ele>137.8</ele>
        <time>2025-12-01T08:25:38Z</time>
      </trkpt>
      <trkpt lat="43.46364" lon="6.17149">
        <ele>137.1</ele>
        <time>2025-12-01T08:25:47Z</time>
      </trkpt>
      <trkpt lat="43.46358" lon="6.17138">
        <ele>136</ele>
        <time>2025-12-01T08:25:57Z</time>
      </trkpt>
      <trkpt lat="43.46352" lon="6.17127">
        <ele>135.3</ele>
        <time>2025-12-01T08:26:06Z</time>
      </trkpt>
      <trkpt lat="43.46346" lon="6.17117">
        <ele>134.5</ele>
        <time>2025-12-01T08:26:16Z</time>
      </trkpt>
      <trkpt lat="43.4634" lon="6.17106">
        <ele>133.9</ele>
        <time>2025-12-01T08:26:26Z</time>
      </trkpt>
      <trkpt lat="43.46335" lon="6.17096">
        <ele>133.7</ele>
        <time>2025-12-01T08:26:37Z</time>
      </trkpt>
      <trkpt lat="43.46329" lon="6.17087">
        <ele>132.7</ele>
        <time>2025-12-01T08:26:56Z</time>
      </trkpt>
      <trkpt lat="43.46337" lon="6.17079">
        <ele>132.5</ele>
        <time>2025-12-01T08:27:25Z</time>
      </trkpt>
      <trkpt lat="43.46329" lon="6.17088">
        <ele>132.4</ele>
        <time>2025-12-01T08:28:09Z</time>
      </trkpt>
      <trkpt lat="43.46321" lon="6.17095">
        <ele>132.3</ele>
        <time>2025-12-01T08:28:43Z</time>
      </trkpt>
      <trkpt lat="43.46313" lon="6.17101">
        <ele>132.4</ele>
        <time>2025-12-01T08:28:56Z</time>
      </trkpt>
      <trkpt lat="43.46305" lon="6.17109">
        <ele>132.3</ele>
        <time>2025-12-01T08:29:06Z</time>
      </trkpt>
      <trkpt lat="43.46298" lon="6.17119">
        <ele>132.4</ele>
        <time>2025-12-01T08:29:15Z</time>
      </trkpt>
      <trkpt lat="43.46291" lon="6.17127">
        <ele>132.6</ele>
        <time>2025-12-01T08:29:24Z</time>
      </trkpt>
      <trkpt lat="43.46282" lon="6.17132">
        <ele>132.3</ele>
        <time>2025-12-01T08:29:35Z</time>
      </trkpt>
      <trkpt lat="43.46273" lon="6.1713">
        <ele>132.5</ele>
        <time>2025-12-01T08:30:02Z</time>
      </trkpt>
      <trkpt lat="43.46266" lon="6.17121">
        <ele>132.4</ele>
        <time>2025-12-01T08:30:18Z</time>
      </trkpt>
      <trkpt lat="43.4626" lon="6.17112">
        <ele>132.1</ele>
        <time>2025-12-01T08:30:27Z</time>
      </trkpt>
      <trkpt lat="43.46254" lon="6.17101">
        <ele>132.1</ele>
        <time>2025-12-01T08:30:49Z</time>
      </trkpt>
      <trkpt lat="43.46248" lon="6.17091">
        <ele>132</ele>
        <time>2025-12-01T08:30:58Z</time>
      </trkpt>
      <trkpt lat="43.46242" lon="6.17081">
        <ele>132</ele>
        <time>2025-12-01T08:31:07Z</time>
      </trkpt>
      <trkpt lat="43.46236" lon="6.17072">
        <ele>131.9</ele>
        <time>2025-12-01T08:31:15Z</time>
      </trkpt>
      <trkpt lat="43.4623" lon="6.17063">
        <ele>131.9</ele>
        <time>2025-12-01T08:31:23Z</time>
      </trkpt>
      <trkpt lat="43.46223" lon="6.17053">
        <ele>132</ele>
        <time>2025-12-01T08:31:33Z</time>
      </trkpt>
      <trkpt lat="43.46217" lon="6.17042">
        <ele>132.2</ele>
        <time>2025-12-01T08:31:54Z</time>
      </trkpt>
      <trkpt lat="43.46211" lon="6.17031">
        <ele>132</ele>
        <time>2025-12-01T08:32:02Z</time>
      </trkpt>
      <trkpt lat="43.46205" lon="6.17021">
        <ele>132.2</ele>
        <time>2025-12-01T08:32:14Z</time>
      </trkpt>
      <trkpt lat="43.46198" lon="6.17012">
        <ele>132.3</ele>
        <time>2025-12-01T08:32:22Z</time>
      </trkpt>
      <trkpt lat="43.46191" lon="6.17004">
        <ele>132.5</ele>
        <time>2025-12-01T08:32:30Z</time>
      </trkpt>
      <trkpt lat="43.46184" lon="6.16995">
        <ele>133.6</ele>
        <time>2025-12-01T08:32:50Z</time>
      </trkpt>
      <trkpt lat="43.46176" lon="6.16987">
        <ele>133.9</ele>
        <time>2025-12-01T08:32:59Z</time>
      </trkpt>
      <trkpt lat="43.46168" lon="6.16982">
        <ele>133.3</ele>
        <time>2025-12-01T08:33:07Z</time>
      </trkpt>
      <trkpt lat="43.46159" lon="6.16976">
        <ele>133</ele>
        <time>2025-12-01T08:33:15Z</time>
      </trkpt>
      <trkpt lat="43.4615" lon="6.1697">
        <ele>133.3</ele>
        <time>2025-12-01T08:33:23Z</time>
      </trkpt>
      <trkpt lat="43.46141" lon="6.16964">
        <ele>133.4</ele>
        <time>2025-12-01T08:33:32Z</time>
      </trkpt>
      <trkpt lat="43.46133" lon="6.16958">
        <ele>133.4</ele>
        <time>2025-12-01T08:33:41Z</time>
      </trkpt>
      <trkpt lat="43.46125" lon="6.16952">
        <ele>133.4</ele>
        <time>2025-12-01T08:33:51Z</time>
      </trkpt>
      <trkpt lat="43.46116" lon="6.16946">
        <ele>133.6</ele>
        <time>2025-12-01T08:34:00Z</time>
      </trkpt>
      <trkpt lat="43.46111" lon="6.16936">
        <ele>133.3</ele>
        <time>2025-12-01T08:34:12Z</time>
      </trkpt>
      <trkpt lat="43.46101" lon="6.16933">
        <ele>133.3</ele>
        <time>2025-12-01T08:34:20Z</time>
      </trkpt>
      <trkpt lat="43.46093" lon="6.16929">
        <ele>133.6</ele>
        <time>2025-12-01T08:34:28Z</time>
      </trkpt>
      <trkpt lat="43.46084" lon="6.16925">
        <ele>134</ele>
        <time>2025-12-01T08:34:36Z</time>
      </trkpt>
      <trkpt lat="43.46076" lon="6.16918">
        <ele>134.1</ele>
        <time>2025-12-01T08:34:44Z</time>
      </trkpt>
      <trkpt lat="43.46069" lon="6.1691">
        <ele>134.3</ele>
        <time>2025-12-01T08:34:53Z</time>
      </trkpt>
      <trkpt lat="43.46064" lon="6.16899">
        <ele>134.3</ele>
        <time>2025-12-01T08:35:04Z</time>
      </trkpt>
      <trkpt lat="43.46059" lon="6.16888">
        <ele>134.4</ele>
        <time>2025-12-01T08:35:13Z</time>
      </trkpt>
      <trkpt lat="43.46062" lon="6.169">
        <ele>134.1</ele>
        <time>2025-12-01T08:35:44Z</time>
      </trkpt>
      <trkpt lat="43.46057" lon="6.16911">
        <ele>134</ele>
        <time>2025-12-01T08:36:40Z</time>
      </trkpt>
      <trkpt lat="43.46057" lon="6.16923">
        <ele>134.6</ele>
        <time>2025-12-01T08:37:28Z</time>
      </trkpt>
      <trkpt lat="43.46061" lon="6.16911">
        <ele>134.3</ele>
        <time>2025-12-01T08:37:44Z</time>
      </trkpt>
      <trkpt lat="43.46063" lon="6.16898">
        <ele>133.8</ele>
        <time>2025-12-01T08:37:54Z</time>
      </trkpt>
      <trkpt lat="43.46057" lon="6.16888">
        <ele>133.9</ele>
        <time>2025-12-01T08:38:04Z</time>
      </trkpt>
      <trkpt lat="43.46052" lon="6.16876">
        <ele>134</ele>
        <time>2025-12-01T08:38:13Z</time>
      </trkpt>
      <trkpt lat="43.46047" lon="6.16866">
        <ele>134.2</ele>
        <time>2025-12-01T08:38:21Z</time>
      </trkpt>
      <trkpt lat="43.4604" lon="6.16857">
        <ele>134.3</ele>
        <time>2025-12-01T08:38:29Z</time>
      </trkpt>
      <trkpt lat="43.46034" lon="6.16846">
        <ele>134.5</ele>
        <time>2025-12-01T08:38:37Z</time>
      </trkpt>
      <trkpt lat="43.46027" lon="6.16838">
        <ele>134.9</ele>
        <time>2025-12-01T08:38:47Z</time>
      </trkpt>
      <trkpt lat="43.46021" lon="6.16827">
        <ele>135.9</ele>
        <time>2025-12-01T08:38:57Z</time>
      </trkpt>
      <trkpt lat="43.46016" lon="6.16817">
        <ele>136.8</ele>
        <time>2025-12-01T08:39:08Z</time>
      </trkpt>
      <trkpt lat="43.46009" lon="6.16807">
        <ele>137.8</ele>
        <time>2025-12-01T08:39:18Z</time>
      </trkpt>
      <trkpt lat="43.46005" lon="6.16795">
        <ele>139.2</ele>
        <time>2025-12-01T08:39:27Z</time>
      </trkpt>
      <trkpt lat="43.45999" lon="6.16785">
        <ele>140</ele>
        <time>2025-12-01T08:39:36Z</time>
      </trkpt>
      <trkpt lat="43.45992" lon="6.16777">
        <ele>140.7</ele>
        <time>2025-12-01T08:39:46Z</time>
      </trkpt>
      <trkpt lat="43.45983" lon="6.16773">
        <ele>141.3</ele>
        <time>2025-12-01T08:39:55Z</time>
      </trkpt>
      <trkpt lat="43.45974" lon="6.1677">
        <ele>141.7</ele>
        <time>2025-12-01T08:40:06Z</time>
      </trkpt>
      <trkpt lat="43.45965" lon="6.16766">
        <ele>142</ele>
        <time>2025-12-01T08:40:16Z</time>
      </trkpt>
      <trkpt lat="43.45955" lon="6.16764">
        <ele>142.1</ele>
        <time>2025-12-01T08:40:26Z</time>
      </trkpt>
      <trkpt lat="43.45946" lon="6.16761">
        <ele>142.3</ele>
        <time>2025-12-01T08:40:36Z</time>
      </trkpt>
      <trkpt lat="43.45937" lon="6.16759">
        <ele>142.3</ele>
        <time>2025-12-01T08:40:46Z</time>
      </trkpt>
      <trkpt lat="43.45928" lon="6.16756">
        <ele>142.4</ele>
        <time>2025-12-01T08:40:55Z</time>
      </trkpt>
      <trkpt lat="43.45918" lon="6.16753">
        <ele>142.5</ele>
        <time>2025-12-01T08:41:05Z</time>
      </trkpt>
      <trkpt lat="43.45909" lon="6.1675">
        <ele>142.8</ele>
        <time>2025-12-01T08:41:15Z</time>
      </trkpt>
      <trkpt lat="43.459" lon="6.16745">
        <ele>143.4</ele>
        <time>2025-12-01T08:41:26Z</time>
      </trkpt>
      <trkpt lat="43.45893" lon="6.16736">
        <ele>143.8</ele>
        <time>2025-12-01T08:41:35Z</time>
      </trkpt>
      <trkpt lat="43.45887" lon="6.16727">
        <ele>144.4</ele>
        <time>2025-12-01T08:41:45Z</time>
      </trkpt>
      <trkpt lat="43.4588" lon="6.16718">
        <ele>144.6</ele>
        <time>2025-12-01T08:41:53Z</time>
      </trkpt>
      <trkpt lat="43.45873" lon="6.16708">
        <ele>145.2</ele>
        <time>2025-12-01T08:42:02Z</time>
      </trkpt>
      <trkpt lat="43.45866" lon="6.16699">
        <ele>145.8</ele>
        <time>2025-12-01T08:42:12Z</time>
      </trkpt>
      <trkpt lat="43.4586" lon="6.1669">
        <ele>146.5</ele>
        <time>2025-12-01T08:42:22Z</time>
      </trkpt>
      <trkpt lat="43.45853" lon="6.16681">
        <ele>147.3</ele>
        <time>2025-12-01T08:42:33Z</time>
      </trkpt>
      <trkpt lat="43.45846" lon="6.16672">
        <ele>148.2</ele>
        <time>2025-12-01T08:42:43Z</time>
      </trkpt>
      <trkpt lat="43.45837" lon="6.16666">
        <ele>149.5</ele>
        <time>2025-12-01T08:42:55Z</time>
      </trkpt>
      <trkpt lat="43.45828" lon="6.16661">
        <ele>151</ele>
        <time>2025-12-01T08:43:07Z</time>
      </trkpt>
      <trkpt lat="43.4582" lon="6.16655">
        <ele>152.4</ele>
        <time>2025-12-01T08:43:18Z</time>
      </trkpt>
      <trkpt lat="43.45811" lon="6.16649">
        <ele>153.4</ele>
        <time>2025-12-01T08:43:30Z</time>
      </trkpt>
      <trkpt lat="43.45802" lon="6.16647">
        <ele>154.5</ele>
        <time>2025-12-01T08:43:42Z</time>
      </trkpt>
      <trkpt lat="43.45792" lon="6.16646">
        <ele>155.4</ele>
        <time>2025-12-01T08:43:52Z</time>
      </trkpt>
      <trkpt lat="43.45783" lon="6.16642">
        <ele>156.3</ele>
        <time>2025-12-01T08:44:04Z</time>
      </trkpt>
      <trkpt lat="43.45774" lon="6.16641">
        <ele>156.8</ele>
        <time>2025-12-01T08:44:12Z</time>
      </trkpt>
      <trkpt lat="43.45766" lon="6.16639">
        <ele>156.8</ele>
        <time>2025-12-01T08:44:22Z</time>
      </trkpt>
      <trkpt lat="43.45757" lon="6.16635">
        <ele>157.4</ele>
        <time>2025-12-01T08:44:34Z</time>
      </trkpt>
      <trkpt lat="43.45747" lon="6.16632">
        <ele>158</ele>
        <time>2025-12-01T08:44:44Z</time>
      </trkpt>
      <trkpt lat="43.45738" lon="6.16632">
        <ele>158.6</ele>
        <time>2025-12-01T08:44:55Z</time>
      </trkpt>
      <trkpt lat="43.4573" lon="6.16625">
        <ele>159.3</ele>
        <time>2025-12-01T08:45:09Z</time>
      </trkpt>
      <trkpt lat="43.45722" lon="6.16621">
        <ele>159.7</ele>
        <time>2025-12-01T08:45:39Z</time>
      </trkpt>
      <trkpt lat="43.45722" lon="6.16608">
        <ele>159.4</ele>
        <time>2025-12-01T08:47:51Z</time>
      </trkpt>
      <trkpt lat="43.45724" lon="6.16596">
        <ele>159.4</ele>
        <time>2025-12-01T08:48:03Z</time>
      </trkpt>
      <trkpt lat="43.45717" lon="6.16588">
        <ele>160.5</ele>
        <time>2025-12-01T08:48:16Z</time>
      </trkpt>
      <trkpt lat="43.45709" lon="6.16581">
        <ele>161.1</ele>
        <time>2025-12-01T08:49:48Z</time>
      </trkpt>
      <trkpt lat="43.45706" lon="6.16569">
        <ele>162.1</ele>
        <time>2025-12-01T08:51:10Z</time>
      </trkpt>
      <trkpt lat="43.45712" lon="6.16579">
        <ele>162</ele>
        <time>2025-12-01T08:52:40Z</time>
      </trkpt>
      <trkpt lat="43.45719" lon="6.16587">
        <ele>161.8</ele>
        <time>2025-12-01T08:52:51Z</time>
      </trkpt>
      <trkpt lat="43.45726" lon="6.16578">
        <ele>160</ele>
        <time>2025-12-01T08:53:36Z</time>
      </trkpt>
      <trkpt lat="43.45729" lon="6.16565">
        <ele>159.4</ele>
        <time>2025-12-01T08:53:49Z</time>
      </trkpt>
      <trkpt lat="43.4573" lon="6.16552">
        <ele>158.9</ele>
        <time>2025-12-01T08:53:59Z</time>
      </trkpt>
      <trkpt lat="43.45732" lon="6.16539">
        <ele>158.5</ele>
        <time>2025-12-01T08:54:09Z</time>
      </trkpt>
      <trkpt lat="43.45733" lon="6.16526">
        <ele>158.4</ele>
        <time>2025-12-01T08:54:29Z</time>
      </trkpt>
      <trkpt lat="43.45735" lon="6.16513">
        <ele>158.5</ele>
        <time>2025-12-01T08:54:38Z</time>
      </trkpt>
      <trkpt lat="43.45738" lon="6.165">
        <ele>158.6</ele>
        <time>2025-12-01T08:54:49Z</time>
      </trkpt>
      <trkpt lat="43.45742" lon="6.16489">
        <ele>158.1</ele>
        <time>2025-12-01T08:55:04Z</time>
      </trkpt>
      <trkpt lat="43.45743" lon="6.16476">
        <ele>156.7</ele>
        <time>2025-12-01T08:55:20Z</time>
      </trkpt>
      <trkpt lat="43.45739" lon="6.16465">
        <ele>155.1</ele>
        <time>2025-12-01T08:55:35Z</time>
      </trkpt>
      <trkpt lat="43.45731" lon="6.16459">
        <ele>153.8</ele>
        <time>2025-12-01T08:55:45Z</time>
      </trkpt>
      <trkpt lat="43.45725" lon="6.16448">
        <ele>153</ele>
        <time>2025-12-01T08:55:54Z</time>
      </trkpt>
      <trkpt lat="43.45723" lon="6.16436">
        <ele>152.7</ele>
        <time>2025-12-01T08:56:03Z</time>
      </trkpt>
      <trkpt lat="43.45722" lon="6.16423">
        <ele>153.4</ele>
        <time>2025-12-01T08:56:13Z</time>
      </trkpt>
      <trkpt lat="43.45722" lon="6.16411">
        <ele>155.6</ele>
        <time>2025-12-01T08:56:26Z</time>
      </trkpt>
      <trkpt lat="43.45727" lon="6.164">
        <ele>156.8</ele>
        <time>2025-12-01T08:56:36Z</time>
      </trkpt>
      <trkpt lat="43.45735" lon="6.16394">
        <ele>157.1</ele>
        <time>2025-12-01T08:56:46Z</time>
      </trkpt>
      <trkpt lat="43.45744" lon="6.16395">
        <ele>156.9</ele>
        <time>2025-12-01T08:57:04Z</time>
      </trkpt>
      <trkpt lat="43.45753" lon="6.16389">
        <ele>156.8</ele>
        <time>2025-12-01T08:57:43Z</time>
      </trkpt>
      <trkpt lat="43.45756" lon="6.16377">
        <ele>156.4</ele>
        <time>2025-12-01T08:58:12Z</time>
      </trkpt>
      <trkpt lat="43.45759" lon="6.16364">
        <ele>156.2</ele>
        <time>2025-12-01T08:58:23Z</time>
      </trkpt>
      <trkpt lat="43.45762" lon="6.16351">
        <ele>156.1</ele>
        <time>2025-12-01T08:58:32Z</time>
      </trkpt>
      <trkpt lat="43.45764" lon="6.16339">
        <ele>155.7</ele>
        <time>2025-12-01T08:58:40Z</time>
      </trkpt>
      <trkpt lat="43.45767" lon="6.16327">
        <ele>155.5</ele>
        <time>2025-12-01T08:58:48Z</time>
      </trkpt>
      <trkpt lat="43.45769" lon="6.16314">
        <ele>155.4</ele>
        <time>2025-12-01T08:58:56Z</time>
      </trkpt>
      <trkpt lat="43.45769" lon="6.16301">
        <ele>155.5</ele>
        <time>2025-12-01T08:59:04Z</time>
      </trkpt>
      <trkpt lat="43.45768" lon="6.16288">
        <ele>155.5</ele>
        <time>2025-12-01T08:59:12Z</time>
      </trkpt>
      <trkpt lat="43.45766" lon="6.16276">
        <ele>155.4</ele>
        <time>2025-12-01T08:59:20Z</time>
      </trkpt>
      <trkpt lat="43.45765" lon="6.16262">
        <ele>155.5</ele>
        <time>2025-12-01T08:59:30Z</time>
      </trkpt>
      <trkpt lat="43.45762" lon="6.1625">
        <ele>155.5</ele>
        <time>2025-12-01T08:59:39Z</time>
      </trkpt>
      <trkpt lat="43.4576" lon="6.16237">
        <ele>155.2</ele>
        <time>2025-12-01T08:59:48Z</time>
      </trkpt>
      <trkpt lat="43.45758" lon="6.16223">
        <ele>154.8</ele>
        <time>2025-12-01T08:59:57Z</time>
      </trkpt>
      <trkpt lat="43.45757" lon="6.1621">
        <ele>154.6</ele>
        <time>2025-12-01T09:00:05Z</time>
      </trkpt>
      <trkpt lat="43.45756" lon="6.16197">
        <ele>154.3</ele>
        <time>2025-12-01T09:00:14Z</time>
      </trkpt>
      <trkpt lat="43.45757" lon="6.16184">
        <ele>154.2</ele>
        <time>2025-12-01T09:00:23Z</time>
      </trkpt>
      <trkpt lat="43.45756" lon="6.16171">
        <ele>153.8</ele>
        <time>2025-12-01T09:00:32Z</time>
      </trkpt>
      <trkpt lat="43.45757" lon="6.16158">
        <ele>153.7</ele>
        <time>2025-12-01T09:00:43Z</time>
      </trkpt>
      <trkpt lat="43.45762" lon="6.16147">
        <ele>153.3</ele>
        <time>2025-12-01T09:01:27Z</time>
      </trkpt>
      <trkpt lat="43.45768" lon="6.16137">
        <ele>153.4</ele>
        <time>2025-12-01T09:01:36Z</time>
      </trkpt>
      <trkpt lat="43.45772" lon="6.16125">
        <ele>153.2</ele>
        <time>2025-12-01T09:01:46Z</time>
      </trkpt>
      <trkpt lat="43.45776" lon="6.16113">
        <ele>152.7</ele>
        <time>2025-12-01T09:01:55Z</time>
      </trkpt>
      <trkpt lat="43.45781" lon="6.16102">
        <ele>152</ele>
        <time>2025-12-01T09:02:04Z</time>
      </trkpt>
      <trkpt lat="43.45786" lon="6.1609">
        <ele>151.6</ele>
        <time>2025-12-01T09:02:12Z</time>
      </trkpt>
      <trkpt lat="43.45793" lon="6.1608">
        <ele>151.2</ele>
        <time>2025-12-01T09:02:20Z</time>
      </trkpt>
      <trkpt lat="43.458" lon="6.16071">
        <ele>151.3</ele>
        <time>2025-12-01T09:02:28Z</time>
      </trkpt>
      <trkpt lat="43.45807" lon="6.16062">
        <ele>151.4</ele>
        <time>2025-12-01T09:02:36Z</time>
      </trkpt>
      <trkpt lat="43.45812" lon="6.16051">
        <ele>150.6</ele>
        <time>2025-12-01T09:02:44Z</time>
      </trkpt>
      <trkpt lat="43.45817" lon="6.16041">
        <ele>150.5</ele>
        <time>2025-12-01T09:02:52Z</time>
      </trkpt>
      <trkpt lat="43.45823" lon="6.16032">
        <ele>150.5</ele>
        <time>2025-12-01T09:03:00Z</time>
      </trkpt>
      <trkpt lat="43.45829" lon="6.16021">
        <ele>150.5</ele>
        <time>2025-12-01T09:03:14Z</time>
      </trkpt>
      <trkpt lat="43.45835" lon="6.1601">
        <ele>150.4</ele>
        <time>2025-12-01T09:03:23Z</time>
      </trkpt>
      <trkpt lat="43.45842" lon="6.16">
        <ele>150.2</ele>
        <time>2025-12-01T09:03:33Z</time>
      </trkpt>
      <trkpt lat="43.45848" lon="6.15991">
        <ele>150.3</ele>
        <time>2025-12-01T09:03:41Z</time>
      </trkpt>
      <trkpt lat="43.45854" lon="6.1598">
        <ele>150</ele>
        <time>2025-12-01T09:03:50Z</time>
      </trkpt>
      <trkpt lat="43.45859" lon="6.1597">
        <ele>150.1</ele>
        <time>2025-12-01T09:03:58Z</time>
      </trkpt>
      <trkpt lat="43.45864" lon="6.15959">
        <ele>150</ele>
        <time>2025-12-01T09:04:07Z</time>
      </trkpt>
      <trkpt lat="43.45868" lon="6.15948">
        <ele>150</ele>
        <time>2025-12-01T09:04:18Z</time>
      </trkpt>
      <trkpt lat="43.45873" lon="6.15937">
        <ele>150</ele>
        <time>2025-12-01T09:04:27Z</time>
      </trkpt>
      <trkpt lat="43.45876" lon="6.15925">
        <ele>149.9</ele>
        <time>2025-12-01T09:04:40Z</time>
      </trkpt>
      <trkpt lat="43.4588" lon="6.15913">
        <ele>149.5</ele>
        <time>2025-12-01T09:04:55Z</time>
      </trkpt>
      <trkpt lat="43.45883" lon="6.159">
        <ele>149.5</ele>
        <time>2025-12-01T09:05:35Z</time>
      </trkpt>
      <trkpt lat="43.45889" lon="6.1589">
        <ele>149.2</ele>
        <time>2025-12-01T09:05:46Z</time>
      </trkpt>
      <trkpt lat="43.45894" lon="6.15879">
        <ele>148.9</ele>
        <time>2025-12-01T09:06:12Z</time>
      </trkpt>
      <trkpt lat="43.45896" lon="6.15866">
        <ele>148.5</ele>
        <time>2025-12-01T09:06:27Z</time>
      </trkpt>
      <trkpt lat="43.45897" lon="6.15853">
        <ele>148</ele>
        <time>2025-12-01T09:06:35Z</time>
      </trkpt>
      <trkpt lat="43.45898" lon="6.15839">
        <ele>147.6</ele>
        <time>2025-12-01T09:06:45Z</time>
      </trkpt>
      <trkpt lat="43.45897" lon="6.15825">
        <ele>146.9</ele>
        <time>2025-12-01T09:06:58Z</time>
      </trkpt>
      <trkpt lat="43.45894" lon="6.15813">
        <ele>146.7</ele>
        <time>2025-12-01T09:07:11Z</time>
      </trkpt>
      <trkpt lat="43.45894" lon="6.158">
        <ele>146.6</ele>
        <time>2025-12-01T09:07:21Z</time>
      </trkpt>
      <trkpt lat="43.45896" lon="6.15786">
        <ele>146.1</ele>
        <time>2025-12-01T09:07:31Z</time>
      </trkpt>
      <trkpt lat="43.45897" lon="6.15772">
        <ele>145.9</ele>
        <time>2025-12-01T09:07:40Z</time>
      </trkpt>
      <trkpt lat="43.459" lon="6.15759">
        <ele>145.4</ele>
        <time>2025-12-01T09:07:48Z</time>
      </trkpt>
      <trkpt lat="43.45902" lon="6.15747">
        <ele>145.1</ele>
        <time>2025-12-01T09:07:56Z</time>
      </trkpt>
      <trkpt lat="43.45904" lon="6.15733">
        <ele>144.8</ele>
        <time>2025-12-01T09:08:05Z</time>
      </trkpt>
      <trkpt lat="43.45906" lon="6.15721">
        <ele>144.4</ele>
        <time>2025-12-01T09:08:13Z</time>
      </trkpt>
      <trkpt lat="43.4591" lon="6.15709">
        <ele>143.8</ele>
        <time>2025-12-01T09:08:22Z</time>
      </trkpt>
      <trkpt lat="43.45913" lon="6.15697">
        <ele>143.5</ele>
        <time>2025-12-01T09:08:30Z</time>
      </trkpt>
      <trkpt lat="43.45914" lon="6.15684">
        <ele>142.8</ele>
        <time>2025-12-01T09:08:39Z</time>
      </trkpt>
      <trkpt lat="43.45917" lon="6.15671">
        <ele>142.3</ele>
        <time>2025-12-01T09:08:48Z</time>
      </trkpt>
      <trkpt lat="43.45919" lon="6.15658">
        <ele>141.4</ele>
        <time>2025-12-01T09:08:57Z</time>
      </trkpt>
      <trkpt lat="43.45924" lon="6.15647">
        <ele>140.4</ele>
        <time>2025-12-01T09:09:05Z</time>
      </trkpt>
      <trkpt lat="43.45931" lon="6.15638">
        <ele>139.8</ele>
        <time>2025-12-01T09:09:13Z</time>
      </trkpt>
      <trkpt lat="43.4594" lon="6.15632">
        <ele>139.4</ele>
        <time>2025-12-01T09:09:21Z</time>
      </trkpt>
      <trkpt lat="43.4595" lon="6.15632">
        <ele>139.2</ele>
        <time>2025-12-01T09:09:29Z</time>
      </trkpt>
      <trkpt lat="43.45957" lon="6.15625">
        <ele>138.8</ele>
        <time>2025-12-01T09:09:38Z</time>
      </trkpt>
      <trkpt lat="43.45965" lon="6.15618">
        <ele>138.3</ele>
        <time>2025-12-01T09:09:47Z</time>
      </trkpt>
      <trkpt lat="43.45973" lon="6.1561">
        <ele>138.1</ele>
        <time>2025-12-01T09:09:56Z</time>
      </trkpt>
      <trkpt lat="43.45979" lon="6.15601">
        <ele>138.3</ele>
        <time>2025-12-01T09:10:07Z</time>
      </trkpt>
      <trkpt lat="43.45988" lon="6.15596">
        <ele>138.3</ele>
        <time>2025-12-01T09:10:23Z</time>
      </trkpt>
      <trkpt lat="43.45995" lon="6.15589">
        <ele>138</ele>
        <time>2025-12-01T09:10:32Z</time>
      </trkpt>
      <trkpt lat="43.46003" lon="6.15581">
        <ele>137.9</ele>
        <time>2025-12-01T09:10:41Z</time>
      </trkpt>
      <trkpt lat="43.46011" lon="6.15574">
        <ele>137.9</ele>
        <time>2025-12-01T09:10:50Z</time>
      </trkpt>
      <trkpt lat="43.4602" lon="6.15567">
        <ele>138.4</ele>
        <time>2025-12-01T09:10:59Z</time>
      </trkpt>
      <trkpt lat="43.46024" lon="6.15555">
        <ele>138.6</ele>
        <time>2025-12-01T09:11:10Z</time>
      </trkpt>
      <trkpt lat="43.46025" lon="6.15542">
        <ele>138.5</ele>
        <time>2025-12-01T09:11:19Z</time>
      </trkpt>
      <trkpt lat="43.46027" lon="6.15529">
        <ele>138.6</ele>
        <time>2025-12-01T09:11:29Z</time>
      </trkpt>
      <trkpt lat="43.4603" lon="6.15517">
        <ele>138.4</ele>
        <time>2025-12-01T09:11:39Z</time>
      </trkpt>
      <trkpt lat="43.46037" lon="6.1551">
        <ele>138.3</ele>
        <time>2025-12-01T09:11:58Z</time>
      </trkpt>
      <trkpt lat="43.46034" lon="6.15497">
        <ele>138.4</ele>
        <time>2025-12-01T09:12:23Z</time>
      </trkpt>
      <trkpt lat="43.46031" lon="6.15485">
        <ele>137.8</ele>
        <time>2025-12-01T09:14:42Z</time>
      </trkpt>
      <trkpt lat="43.46034" lon="6.15473">
        <ele>137.1</ele>
        <time>2025-12-01T09:15:06Z</time>
      </trkpt>
      <trkpt lat="43.46039" lon="6.15462">
        <ele>136.4</ele>
        <time>2025-12-01T09:16:18Z</time>
      </trkpt>
      <trkpt lat="43.46041" lon="6.1545">
        <ele>136.4</ele>
        <time>2025-12-01T09:16:30Z</time>
      </trkpt>
      <trkpt lat="43.46044" lon="6.15438">
        <ele>136.1</ele>
        <time>2025-12-01T09:16:55Z</time>
      </trkpt>
      <trkpt lat="43.46047" lon="6.15425">
        <ele>135.9</ele>
        <time>2025-12-01T09:17:06Z</time>
      </trkpt>
      <trkpt lat="43.4605" lon="6.15413">
        <ele>135.7</ele>
        <time>2025-12-01T09:17:15Z</time>
      </trkpt>
      <trkpt lat="43.46053" lon="6.15401">
        <ele>135.4</ele>
        <time>2025-12-01T09:17:24Z</time>
      </trkpt>
      <trkpt lat="43.46058" lon="6.15389">
        <ele>135.2</ele>
        <time>2025-12-01T09:17:38Z</time>
      </trkpt>
      <trkpt lat="43.46059" lon="6.15376">
        <ele>134.5</ele>
        <time>2025-12-01T09:18:01Z</time>
      </trkpt>
      <trkpt lat="43.46063" lon="6.15364">
        <ele>133.7</ele>
        <time>2025-12-01T09:18:10Z</time>
      </trkpt>
      <trkpt lat="43.46067" lon="6.15352">
        <ele>133.9</ele>
        <time>2025-12-01T09:18:19Z</time>
      </trkpt>
      <trkpt lat="43.4607" lon="6.15339">
        <ele>133.1</ele>
        <time>2025-12-01T09:18:29Z</time>
      </trkpt>
      <trkpt lat="43.46073" lon="6.15327">
        <ele>133.3</ele>
        <time>2025-12-01T09:18:38Z</time>
      </trkpt>
      <trkpt lat="43.46077" lon="6.15314">
        <ele>133.2</ele>
        <time>2025-12-01T09:18:48Z</time>
      </trkpt>
      <trkpt lat="43.4608" lon="6.15301">
        <ele>132.3</ele>
        <time>2025-12-01T09:19:02Z</time>
      </trkpt>
      <trkpt lat="43.46085" lon="6.15291">
        <ele>132</ele>
        <time>2025-12-01T09:19:15Z</time>
      </trkpt>
      <trkpt lat="43.46088" lon="6.15279">
        <ele>132</ele>
        <time>2025-12-01T09:19:30Z</time>
      </trkpt>
      <trkpt lat="43.4609" lon="6.15267">
        <ele>131.5</ele>
        <time>2025-12-01T09:19:40Z</time>
      </trkpt>
      <trkpt lat="43.46093" lon="6.15254">
        <ele>131.1</ele>
        <time>2025-12-01T09:19:49Z</time>
      </trkpt>
      <trkpt lat="43.46096" lon="6.15242">
        <ele>130.6</ele>
        <time>2025-12-01T09:19:58Z</time>
      </trkpt>
      <trkpt lat="43.46098" lon="6.15229">
        <ele>130.7</ele>
        <time>2025-12-01T09:20:11Z</time>
      </trkpt>
      <trkpt lat="43.46102" lon="6.15217">
        <ele>130.3</ele>
        <time>2025-12-01T09:20:22Z</time>
      </trkpt>
      <trkpt lat="43.46105" lon="6.15205">
        <ele>130</ele>
        <time>2025-12-01T09:20:39Z</time>
      </trkpt>
      <trkpt lat="43.46108" lon="6.15192">
        <ele>129.7</ele>
        <time>2025-12-01T09:20:48Z</time>
      </trkpt>
      <trkpt lat="43.46111" lon="6.15179">
        <ele>129.5</ele>
        <time>2025-12-01T09:20:58Z</time>
      </trkpt>
      <trkpt lat="43.46114" lon="6.15167">
        <ele>128.9</ele>
        <time>2025-12-01T09:21:08Z</time>
      </trkpt>
      <trkpt lat="43.46117" lon="6.15155">
        <ele>128.8</ele>
        <time>2025-12-01T09:21:29Z</time>
      </trkpt>
      <trkpt lat="43.46121" lon="6.15143">
        <ele>128.4</ele>
        <time>2025-12-01T09:21:38Z</time>
      </trkpt>
      <trkpt lat="43.46124" lon="6.15132">
        <ele>127.8</ele>
        <time>2025-12-01T09:21:47Z</time>
      </trkpt>
      <trkpt lat="43.46127" lon="6.15119">
        <ele>127.4</ele>
        <time>2025-12-01T09:21:56Z</time>
      </trkpt>
      <trkpt lat="43.46131" lon="6.15106">
        <ele>127.4</ele>
        <time>2025-12-01T09:22:05Z</time>
      </trkpt>
      <trkpt lat="43.46134" lon="6.15093">
        <ele>127</ele>
        <time>2025-12-01T09:22:14Z</time>
      </trkpt>
      <trkpt lat="43.46137" lon="6.1508">
        <ele>126.7</ele>
        <time>2025-12-01T09:22:23Z</time>
      </trkpt>
      <trkpt lat="43.46141" lon="6.15068">
        <ele>126.7</ele>
        <time>2025-12-01T09:22:32Z</time>
      </trkpt>
      <trkpt lat="43.46144" lon="6.15055">
        <ele>126.5</ele>
        <time>2025-12-01T09:22:41Z</time>
      </trkpt>
      <trkpt lat="43.46147" lon="6.15043">
        <ele>126.4</ele>
        <time>2025-12-01T09:22:50Z</time>
      </trkpt>
      <trkpt lat="43.4615" lon="6.1503">
        <ele>126.5</ele>
        <time>2025-12-01T09:22:59Z</time>
      </trkpt>
      <trkpt lat="43.46154" lon="6.15017">
        <ele>126.2</ele>
        <time>2025-12-01T09:23:09Z</time>
      </trkpt>
      <trkpt lat="43.46157" lon="6.15004">
        <ele>126.4</ele>
        <time>2025-12-01T09:23:19Z</time>
      </trkpt>
      <trkpt lat="43.46159" lon="6.14991">
        <ele>126.6</ele>
        <time>2025-12-01T09:23:28Z</time>
      </trkpt>
      <trkpt lat="43.46159" lon="6.14978">
        <ele>126.1</ele>
        <time>2025-12-01T09:23:38Z</time>
      </trkpt>
      <trkpt lat="43.46161" lon="6.14966">
        <ele>126.2</ele>
        <time>2025-12-01T09:23:47Z</time>
      </trkpt>
      <trkpt lat="43.46162" lon="6.14952">
        <ele>126.3</ele>
        <time>2025-12-01T09:23:57Z</time>
      </trkpt>
      <trkpt lat="43.46164" lon="6.1494">
        <ele>126.3</ele>
        <time>2025-12-01T09:24:07Z</time>
      </trkpt>
      <trkpt lat="43.46165" lon="6.14927">
        <ele>126.5</ele>
        <time>2025-12-01T09:24:18Z</time>
      </trkpt>
      <trkpt lat="43.46166" lon="6.14914">
        <ele>126.6</ele>
        <time>2025-12-01T09:24:28Z</time>
      </trkpt>
      <trkpt lat="43.46168" lon="6.14901">
        <ele>126.7</ele>
        <time>2025-12-01T09:24:38Z</time>
      </trkpt>
      <trkpt lat="43.4617" lon="6.14888">
        <ele>127</ele>
        <time>2025-12-01T09:24:48Z</time>
      </trkpt>
      <trkpt lat="43.46172" lon="6.14876">
        <ele>126.9</ele>
        <time>2025-12-01T09:24:58Z</time>
      </trkpt>
      <trkpt lat="43.46173" lon="6.14863">
        <ele>126.9</ele>
        <time>2025-12-01T09:25:08Z</time>
      </trkpt>
      <trkpt lat="43.46175" lon="6.1485">
        <ele>127.2</ele>
        <time>2025-12-01T09:25:25Z</time>
      </trkpt>
      <trkpt lat="43.46175" lon="6.14837">
        <ele>127.1</ele>
        <time>2025-12-01T09:25:34Z</time>
      </trkpt>
      <trkpt lat="43.46176" lon="6.14824">
        <ele>127.3</ele>
        <time>2025-12-01T09:25:43Z</time>
      </trkpt>
      <trkpt lat="43.46178" lon="6.1481">
        <ele>127.2</ele>
        <time>2025-12-01T09:26:00Z</time>
      </trkpt>
      <trkpt lat="43.46179" lon="6.14798">
        <ele>127.1</ele>
        <time>2025-12-01T09:26:08Z</time>
      </trkpt>
      <trkpt lat="43.4618" lon="6.14785">
        <ele>127.2</ele>
        <time>2025-12-01T09:26:16Z</time>
      </trkpt>
      <trkpt lat="43.46181" lon="6.14773">
        <ele>127.3</ele>
        <time>2025-12-01T09:26:24Z</time>
      </trkpt>
      <trkpt lat="43.46182" lon="6.14759">
        <ele>127.4</ele>
        <time>2025-12-01T09:26:33Z</time>
      </trkpt>
      <trkpt lat="43.46183" lon="6.14745">
        <ele>127.5</ele>
        <time>2025-12-01T09:26:42Z</time>
      </trkpt>
      <trkpt lat="43.4618" lon="6.14733">
        <ele>127.8</ele>
        <time>2025-12-01T09:26:52Z</time>
      </trkpt>
      <trkpt lat="43.46178" lon="6.14721">
        <ele>127.8</ele>
        <time>2025-12-01T09:27:00Z</time>
      </trkpt>
      <trkpt lat="43.46178" lon="6.14708">
        <ele>128.2</ele>
        <time>2025-12-01T09:27:08Z</time>
      </trkpt>
      <trkpt lat="43.4618" lon="6.14695">
        <ele>128.1</ele>
        <time>2025-12-01T09:27:17Z</time>
      </trkpt>
      <trkpt lat="43.46184" lon="6.14683">
        <ele>128.2</ele>
        <time>2025-12-01T09:27:26Z</time>
      </trkpt>
      <trkpt lat="43.46189" lon="6.1467">
        <ele>128.2</ele>
        <time>2025-12-01T09:27:36Z</time>
      </trkpt>
      <trkpt lat="43.46193" lon="6.14659">
        <ele>128.5</ele>
        <time>2025-12-01T09:27:46Z</time>
      </trkpt>
      <trkpt lat="43.46197" lon="6.14647">
        <ele>128.4</ele>
        <time>2025-12-01T09:27:56Z</time>
      </trkpt>
      <trkpt lat="43.462" lon="6.14635">
        <ele>128.5</ele>
        <time>2025-12-01T09:28:06Z</time>
      </trkpt>
      <trkpt lat="43.46203" lon="6.14623">
        <ele>128.6</ele>
        <time>2025-12-01T09:28:19Z</time>
      </trkpt>
      <trkpt lat="43.46208" lon="6.14611">
        <ele>128.6</ele>
        <time>2025-12-01T09:28:30Z</time>
      </trkpt>
      <trkpt lat="43.46211" lon="6.14598">
        <ele>129</ele>
        <time>2025-12-01T09:28:47Z</time>
      </trkpt>
      <trkpt lat="43.46215" lon="6.14588">
        <ele>129.1</ele>
        <time>2025-12-01T09:28:56Z</time>
      </trkpt>
      <trkpt lat="43.46219" lon="6.14575">
        <ele>129.2</ele>
        <time>2025-12-01T09:29:06Z</time>
      </trkpt>
      <trkpt lat="43.46222" lon="6.14562">
        <ele>129.2</ele>
        <time>2025-12-01T09:29:16Z</time>
      </trkpt>
      <trkpt lat="43.46226" lon="6.1455">
        <ele>129.4</ele>
        <time>2025-12-01T09:29:26Z</time>
      </trkpt>
      <trkpt lat="43.4623" lon="6.14538">
        <ele>129.4</ele>
        <time>2025-12-01T09:29:36Z</time>
      </trkpt>
      <trkpt lat="43.46233" lon="6.14526">
        <ele>129.5</ele>
        <time>2025-12-01T09:29:45Z</time>
      </trkpt>
      <trkpt lat="43.46237" lon="6.14514">
        <ele>129.6</ele>
        <time>2025-12-01T09:29:55Z</time>
      </trkpt>
      <trkpt lat="43.4624" lon="6.14501">
        <ele>129.7</ele>
        <time>2025-12-01T09:30:05Z</time>
      </trkpt>
      <trkpt lat="43.46244" lon="6.14489">
        <ele>129.6</ele>
        <time>2025-12-01T09:30:15Z</time>
      </trkpt>
      <trkpt lat="43.46247" lon="6.14476">
        <ele>129.6</ele>
        <time>2025-12-01T09:30:25Z</time>
      </trkpt>
      <trkpt lat="43.4625" lon="6.14464">
        <ele>129.5</ele>
        <time>2025-12-01T09:30:37Z</time>
      </trkpt>
      <trkpt lat="43.46253" lon="6.14452">
        <ele>129.7</ele>
        <time>2025-12-01T09:30:46Z</time>
      </trkpt>
      <trkpt lat="43.46257" lon="6.14439">
        <ele>129.8</ele>
        <time>2025-12-01T09:30:56Z</time>
      </trkpt>
      <trkpt lat="43.4626" lon="6.14426">
        <ele>129.9</ele>
        <time>2025-12-01T09:31:06Z</time>
      </trkpt>
      <trkpt lat="43.46262" lon="6.14414">
        <ele>130.1</ele>
        <time>2025-12-01T09:31:15Z</time>
      </trkpt>
      <trkpt lat="43.46265" lon="6.14401">
        <ele>130.2</ele>
        <time>2025-12-01T09:31:25Z</time>
      </trkpt>
      <trkpt lat="43.46267" lon="6.14388">
        <ele>130.2</ele>
        <time>2025-12-01T09:31:35Z</time>
      </trkpt>
      <trkpt lat="43.46271" lon="6.14376">
        <ele>130.1</ele>
        <time>2025-12-01T09:31:44Z</time>
      </trkpt>
      <trkpt lat="43.46273" lon="6.14364">
        <ele>130.1</ele>
        <time>2025-12-01T09:31:53Z</time>
      </trkpt>
      <trkpt lat="43.46276" lon="6.14351">
        <ele>130.4</ele>
        <time>2025-12-01T09:32:02Z</time>
      </trkpt>
      <trkpt lat="43.46279" lon="6.1434">
        <ele>130.6</ele>
        <time>2025-12-01T09:32:11Z</time>
      </trkpt>
      <trkpt lat="43.46282" lon="6.14327">
        <ele>130.6</ele>
        <time>2025-12-01T09:32:21Z</time>
      </trkpt>
      <trkpt lat="43.46284" lon="6.14314">
        <ele>130.7</ele>
        <time>2025-12-01T09:32:31Z</time>
      </trkpt>
      <trkpt lat="43.46285" lon="6.14302">
        <ele>131</ele>
        <time>2025-12-01T09:32:40Z</time>
      </trkpt>
      <trkpt lat="43.46286" lon="6.14289">
        <ele>131</ele>
        <time>2025-12-01T09:32:49Z</time>
      </trkpt>
      <trkpt lat="43.46288" lon="6.14277">
        <ele>131</ele>
        <time>2025-12-01T09:32:58Z</time>
      </trkpt>
      <trkpt lat="43.46289" lon="6.14264">
        <ele>131.3</ele>
        <time>2025-12-01T09:33:08Z</time>
      </trkpt>
      <trkpt lat="43.46294" lon="6.14253">
        <ele>131.3</ele>
        <time>2025-12-01T09:33:17Z</time>
      </trkpt>
      <trkpt lat="43.46292" lon="6.14241">
        <ele>132.1</ele>
        <time>2025-12-01T09:34:30Z</time>
      </trkpt>
      <trkpt lat="43.46294" lon="6.14227">
        <ele>132</ele>
        <time>2025-12-01T09:34:46Z</time>
      </trkpt>
      <trkpt lat="43.46295" lon="6.14214">
        <ele>132.1</ele>
        <time>2025-12-01T09:34:57Z</time>
      </trkpt>
      <trkpt lat="43.46296" lon="6.14201">
        <ele>131.9</ele>
        <time>2025-12-01T09:35:06Z</time>
      </trkpt>
      <trkpt lat="43.46297" lon="6.14188">
        <ele>131.8</ele>
        <time>2025-12-01T09:35:15Z</time>
      </trkpt>
      <trkpt lat="43.46299" lon="6.14175">
        <ele>131.6</ele>
        <time>2025-12-01T09:35:24Z</time>
      </trkpt>
      <trkpt lat="43.463" lon="6.14162">
        <ele>131.9</ele>
        <time>2025-12-01T09:35:33Z</time>
      </trkpt>
      <trkpt lat="43.46301" lon="6.14149">
        <ele>131.6</ele>
        <time>2025-12-01T09:35:43Z</time>
      </trkpt>
      <trkpt lat="43.46301" lon="6.14135">
        <ele>131.9</ele>
        <time>2025-12-01T09:35:57Z</time>
      </trkpt>
      <trkpt lat="43.46303" lon="6.14122">
        <ele>131.7</ele>
        <time>2025-12-01T09:36:06Z</time>
      </trkpt>
      <trkpt lat="43.46304" lon="6.14109">
        <ele>131.8</ele>
        <time>2025-12-01T09:36:15Z</time>
      </trkpt>
      <trkpt lat="43.46306" lon="6.14097">
        <ele>132</ele>
        <time>2025-12-01T09:36:24Z</time>
      </trkpt>
      <trkpt lat="43.46307" lon="6.14083">
        <ele>132.3</ele>
        <time>2025-12-01T09:36:33Z</time>
      </trkpt>
      <trkpt lat="43.46308" lon="6.14071">
        <ele>132.3</ele>
        <time>2025-12-01T09:36:42Z</time>
      </trkpt>
      <trkpt lat="43.46309" lon="6.14057">
        <ele>132.3</ele>
        <time>2025-12-01T09:36:51Z</time>
      </trkpt>
      <trkpt lat="43.4631" lon="6.14044">
        <ele>132.6</ele>
        <time>2025-12-01T09:37:09Z</time>
      </trkpt>
      <trkpt lat="43.46311" lon="6.14032">
        <ele>132.4</ele>
        <time>2025-12-01T09:37:18Z</time>
      </trkpt>
      <trkpt lat="43.46312" lon="6.14019">
        <ele>132.7</ele>
        <time>2025-12-01T09:37:27Z</time>
      </trkpt>
      <trkpt lat="43.46313" lon="6.14007">
        <ele>132.7</ele>
        <time>2025-12-01T09:37:35Z</time>
      </trkpt>
      <trkpt lat="43.46315" lon="6.13994">
        <ele>132.6</ele>
        <time>2025-12-01T09:37:43Z</time>
      </trkpt>
      <trkpt lat="43.46316" lon="6.13982">
        <ele>132.7</ele>
        <time>2025-12-01T09:37:52Z</time>
      </trkpt>
      <trkpt lat="43.46317" lon="6.13969">
        <ele>132.9</ele>
        <time>2025-12-01T09:38:01Z</time>
      </trkpt>
      <trkpt lat="43.46318" lon="6.13956">
        <ele>133</ele>
        <time>2025-12-01T09:38:11Z</time>
      </trkpt>
      <trkpt lat="43.4632" lon="6.13943">
        <ele>133.4</ele>
        <time>2025-12-01T09:38:27Z</time>
      </trkpt>
      <trkpt lat="43.46321" lon="6.1393">
        <ele>133.7</ele>
        <time>2025-12-01T09:38:36Z</time>
      </trkpt>
      <trkpt lat="43.46323" lon="6.13916">
        <ele>133.4</ele>
        <time>2025-12-01T09:38:45Z</time>
      </trkpt>
      <trkpt lat="43.46324" lon="6.13903">
        <ele>133.3</ele>
        <time>2025-12-01T09:38:54Z</time>
      </trkpt>
      <trkpt lat="43.46326" lon="6.1389">
        <ele>133.3</ele>
        <time>2025-12-01T09:39:02Z</time>
      </trkpt>
      <trkpt lat="43.46329" lon="6.13877">
        <ele>133.5</ele>
        <time>2025-12-01T09:39:11Z</time>
      </trkpt>
      <trkpt lat="43.46332" lon="6.13864">
        <ele>134.2</ele>
        <time>2025-12-01T09:39:53Z</time>
      </trkpt>
      <trkpt lat="43.46334" lon="6.13851">
        <ele>134.1</ele>
        <time>2025-12-01T09:40:02Z</time>
      </trkpt>
      <trkpt lat="43.46334" lon="6.13837">
        <ele>134</ele>
        <time>2025-12-01T09:40:11Z</time>
      </trkpt>
      <trkpt lat="43.46337" lon="6.13824">
        <ele>134.3</ele>
        <time>2025-12-01T09:40:20Z</time>
      </trkpt>
      <trkpt lat="43.46339" lon="6.13811">
        <ele>134.2</ele>
        <time>2025-12-01T09:40:28Z</time>
      </trkpt>
      <trkpt lat="43.46341" lon="6.13799">
        <ele>134.3</ele>
        <time>2025-12-01T09:40:36Z</time>
      </trkpt>
      <trkpt lat="43.46343" lon="6.13786">
        <ele>134.5</ele>
        <time>2025-12-01T09:40:45Z</time>
      </trkpt>
      <trkpt lat="43.46345" lon="6.13773">
        <ele>134.4</ele>
        <time>2025-12-01T09:40:54Z</time>
      </trkpt>
      <trkpt lat="43.46346" lon="6.1376">
        <ele>134.4</ele>
        <time>2025-12-01T09:41:04Z</time>
      </trkpt>
      <trkpt lat="43.46347" lon="6.13748">
        <ele>135.2</ele>
        <time>2025-12-01T09:41:42Z</time>
      </trkpt>
      <trkpt lat="43.46353" lon="6.13737">
        <ele>135.3</ele>
        <time>2025-12-01T09:42:57Z</time>
      </trkpt>
      <trkpt lat="43.46355" lon="6.13725">
        <ele>135.3</ele>
        <time>2025-12-01T09:43:07Z</time>
      </trkpt>
      <trkpt lat="43.46356" lon="6.13712">
        <ele>135.5</ele>
        <time>2025-12-01T09:43:19Z</time>
      </trkpt>
      <trkpt lat="43.4636" lon="6.137">
        <ele>136</ele>
        <time>2025-12-01T09:44:38Z</time>
      </trkpt>
      <trkpt lat="43.46361" lon="6.13688">
        <ele>135.8</ele>
        <time>2025-12-01T09:44:55Z</time>
      </trkpt>
      <trkpt lat="43.46363" lon="6.13675">
        <ele>136.3</ele>
        <time>2025-12-01T09:45:08Z</time>
      </trkpt>
      <trkpt lat="43.46366" lon="6.13663">
        <ele>136.1</ele>
        <time>2025-12-01T09:45:21Z</time>
      </trkpt>
      <trkpt lat="43.4637" lon="6.13651">
        <ele>136.5</ele>
        <time>2025-12-01T09:45:33Z</time>
      </trkpt>
      <trkpt lat="43.46374" lon="6.13639">
        <ele>136.4</ele>
        <time>2025-12-01T09:45:42Z</time>
      </trkpt>
      <trkpt lat="43.46377" lon="6.13626">
        <ele>136.3</ele>
        <time>2025-12-01T09:45:51Z</time>
      </trkpt>
      <trkpt lat="43.46381" lon="6.13615">
        <ele>136.4</ele>
        <time>2025-12-01T09:46:00Z</time>
      </trkpt>
      <trkpt lat="43.46384" lon="6.13602">
        <ele>136.6</ele>
        <time>2025-12-01T09:46:10Z</time>
      </trkpt>
      <trkpt lat="43.46389" lon="6.13592">
        <ele>137.4</ele>
        <time>2025-12-01T09:47:12Z</time>
      </trkpt>
      <trkpt lat="43.46391" lon="6.13579">
        <ele>137.3</ele>
        <time>2025-12-01T09:47:21Z</time>
      </trkpt>
      <trkpt lat="43.46394" lon="6.13567">
        <ele>137.4</ele>
        <time>2025-12-01T09:47:30Z</time>
      </trkpt>
      <trkpt lat="43.46397" lon="6.13555">
        <ele>137.4</ele>
        <time>2025-12-01T09:47:39Z</time>
      </trkpt>
      <trkpt lat="43.46398" lon="6.13542">
        <ele>137.6</ele>
        <time>2025-12-01T09:47:48Z</time>
      </trkpt>
      <trkpt lat="43.464" lon="6.13529">
        <ele>138.1</ele>
        <time>2025-12-01T09:47:57Z</time>
      </trkpt>
      <trkpt lat="43.46402" lon="6.13517">
        <ele>138.3</ele>
        <time>2025-12-01T09:48:06Z</time>
      </trkpt>
      <trkpt lat="43.46405" lon="6.13504">
        <ele>138.6</ele>
        <time>2025-12-01T09:48:16Z</time>
      </trkpt>
      <trkpt lat="43.46407" lon="6.13491">
        <ele>139.1</ele>
        <time>2025-12-01T09:48:26Z</time>
      </trkpt>
      <trkpt lat="43.4641" lon="6.13479">
        <ele>139.3</ele>
        <time>2025-12-01T09:48:35Z</time>
      </trkpt>
      <trkpt lat="43.46413" lon="6.13467">
        <ele>139.4</ele>
        <time>2025-12-01T09:48:44Z</time>
      </trkpt>
      <trkpt lat="43.46416" lon="6.13454">
        <ele>139.5</ele>
        <time>2025-12-01T09:48:53Z</time>
      </trkpt>
      <trkpt lat="43.46419" lon="6.13443">
        <ele>139.5</ele>
        <time>2025-12-01T09:49:02Z</time>
      </trkpt>
      <trkpt lat="43.46422" lon="6.13431">
        <ele>139.6</ele>
        <time>2025-12-01T09:49:11Z</time>
      </trkpt>
      <trkpt lat="43.46426" lon="6.13419">
        <ele>139.6</ele>
        <time>2025-12-01T09:49:20Z</time>
      </trkpt>
      <trkpt lat="43.46429" lon="6.13407">
        <ele>139.7</ele>
        <time>2025-12-01T09:49:29Z</time>
      </trkpt>
      <trkpt lat="43.46432" lon="6.13395">
        <ele>139.6</ele>
        <time>2025-12-01T09:49:38Z</time>
      </trkpt>
      <trkpt lat="43.46436" lon="6.13382">
        <ele>139.5</ele>
        <time>2025-12-01T09:49:47Z</time>
      </trkpt>
      <trkpt lat="43.46438" lon="6.1337">
        <ele>139.5</ele>
        <time>2025-12-01T09:49:56Z</time>
      </trkpt>
      <trkpt lat="43.46441" lon="6.13358">
        <ele>139.7</ele>
        <time>2025-12-01T09:50:05Z</time>
      </trkpt>
      <trkpt lat="43.46445" lon="6.13346">
        <ele>139.5</ele>
        <time>2025-12-01T09:50:15Z</time>
      </trkpt>
      <trkpt lat="43.46448" lon="6.13334">
        <ele>139.5</ele>
        <time>2025-12-01T09:50:26Z</time>
      </trkpt>
      <trkpt lat="43.46453" lon="6.13322">
        <ele>139.3</ele>
        <time>2025-12-01T09:50:35Z</time>
      </trkpt>
      <trkpt lat="43.46457" lon="6.13311">
        <ele>139.1</ele>
        <time>2025-12-01T09:50:45Z</time>
      </trkpt>
      <trkpt lat="43.46462" lon="6.133">
        <ele>139.2</ele>
        <time>2025-12-01T09:50:56Z</time>
      </trkpt>
      <trkpt lat="43.46462" lon="6.13287">
        <ele>139.1</ele>
        <time>2025-12-01T09:51:11Z</time>
      </trkpt>
      <trkpt lat="43.46458" lon="6.13276">
        <ele>139.4</ele>
        <time>2025-12-01T09:51:25Z</time>
      </trkpt>
      <trkpt lat="43.46457" lon="6.13263">
        <ele>139.7</ele>
        <time>2025-12-01T09:51:57Z</time>
      </trkpt>
      <trkpt lat="43.46465" lon="6.13256">
        <ele>139.6</ele>
        <time>2025-12-01T09:53:47Z</time>
      </trkpt>
      <trkpt lat="43.46474" lon="6.13255">
        <ele>139.6</ele>
        <time>2025-12-01T09:54:06Z</time>
      </trkpt>
      <trkpt lat="43.46483" lon="6.13256">
        <ele>139.7</ele>
        <time>2025-12-01T09:55:06Z</time>
      </trkpt>
      <trkpt lat="43.46492" lon="6.13255">
        <ele>139.5</ele>
        <time>2025-12-01T09:55:47Z</time>
      </trkpt>
      <trkpt lat="43.46502" lon="6.13254">
        <ele>139.3</ele>
        <time>2025-12-01T09:56:32Z</time>
      </trkpt>
      <trkpt lat="43.46511" lon="6.13255">
        <ele>138.9</ele>
        <time>2025-12-01T09:56:42Z</time>
      </trkpt>
      <trkpt lat="43.4652" lon="6.13255">
        <ele>139.2</ele>
        <time>2025-12-01T09:56:52Z</time>
      </trkpt>
      <trkpt lat="43.46529" lon="6.13255">
        <ele>139.2</ele>
        <time>2025-12-01T09:57:03Z</time>
      </trkpt>
      <trkpt lat="43.46538" lon="6.13255">
        <ele>139.4</ele>
        <time>2025-12-01T09:57:16Z</time>
      </trkpt>
      <trkpt lat="43.46548" lon="6.13256">
        <ele>139.4</ele>
        <time>2025-12-01T09:57:26Z</time>
      </trkpt>
      <trkpt lat="43.46558" lon="6.13258">
        <ele>139.5</ele>
        <time>2025-12-01T09:57:38Z</time>
      </trkpt>
      <trkpt lat="43.46567" lon="6.13262">
        <ele>139.4</ele>
        <time>2025-12-01T09:57:47Z</time>
      </trkpt>
      <trkpt lat="43.46577" lon="6.13264">
        <ele>139.3</ele>
        <time>2025-12-01T09:57:56Z</time>
      </trkpt>
      <trkpt lat="43.46586" lon="6.13265">
        <ele>139</ele>
        <time>2025-12-01T09:58:11Z</time>
      </trkpt>
      <trkpt lat="43.46596" lon="6.13264">
        <ele>139.1</ele>
        <time>2025-12-01T09:58:28Z</time>
      </trkpt>
      <trkpt lat="43.46605" lon="6.13264">
        <ele>139</ele>
        <time>2025-12-01T09:58:44Z</time>
      </trkpt>
      <trkpt lat="43.46615" lon="6.13264">
        <ele>138.6</ele>
        <time>2025-12-01T09:58:54Z</time>
      </trkpt>
      <trkpt lat="43.46624" lon="6.13263">
        <ele>138.4</ele>
        <time>2025-12-01T09:59:02Z</time>
      </trkpt>
      <trkpt lat="43.46634" lon="6.13264">
        <ele>138.4</ele>
        <time>2025-12-01T09:59:11Z</time>
      </trkpt>
      <trkpt lat="43.46643" lon="6.13265">
        <ele>138.2</ele>
        <time>2025-12-01T09:59:21Z</time>
      </trkpt>
      <trkpt lat="43.46653" lon="6.13264">
        <ele>138</ele>
        <time>2025-12-01T09:59:30Z</time>
      </trkpt>
      <trkpt lat="43.46663" lon="6.13265">
        <ele>137.7</ele>
        <time>2025-12-01T09:59:39Z</time>
      </trkpt>
      <trkpt lat="43.46672" lon="6.13267">
        <ele>137.3</ele>
        <time>2025-12-01T09:59:48Z</time>
      </trkpt>
      <trkpt lat="43.46682" lon="6.13268">
        <ele>137</ele>
        <time>2025-12-01T09:59:57Z</time>
      </trkpt>
      <trkpt lat="43.46692" lon="6.13268">
        <ele>136.7</ele>
        <time>2025-12-01T10:00:06Z</time>
      </trkpt>
      <trkpt lat="43.46701" lon="6.13268">
        <ele>136.3</ele>
        <time>2025-12-01T10:00:16Z</time>
      </trkpt>
      <trkpt lat="43.4671" lon="6.13269">
        <ele>135.8</ele>
        <time>2025-12-01T10:00:25Z</time>
      </trkpt>
      <trkpt lat="43.4672" lon="6.1327">
        <ele>135.2</ele>
        <time>2025-12-01T10:00:34Z</time>
      </trkpt>
      <trkpt lat="43.46729" lon="6.1327">
        <ele>134.3</ele>
        <time>2025-12-01T10:00:43Z</time>
      </trkpt>
      <trkpt lat="43.46739" lon="6.1327">
        <ele>133.7</ele>
        <time>2025-12-01T10:00:52Z</time>
      </trkpt>
      <trkpt lat="43.46748" lon="6.13268">
        <ele>133</ele>
        <time>2025-12-01T10:01:01Z</time>
      </trkpt>
      <trkpt lat="43.46757" lon="6.13263">
        <ele>132.4</ele>
        <time>2025-12-01T10:01:10Z</time>
      </trkpt>
      <trkpt lat="43.46764" lon="6.13255">
        <ele>132.3</ele>
        <time>2025-12-01T10:01:18Z</time>
      </trkpt>
      <trkpt lat="43.46771" lon="6.13247">
        <ele>132.4</ele>
        <time>2025-12-01T10:01:27Z</time>
      </trkpt>
      <trkpt lat="43.4678" lon="6.1324">
        <ele>132.4</ele>
        <time>2025-12-01T10:01:37Z</time>
      </trkpt>
      <trkpt lat="43.46789" lon="6.13234">
        <ele>132.7</ele>
        <time>2025-12-01T10:01:48Z</time>
      </trkpt>
      <trkpt lat="43.46798" lon="6.13229">
        <ele>132.4</ele>
        <time>2025-12-01T10:01:57Z</time>
      </trkpt>
      <trkpt lat="43.46806" lon="6.13224">
        <ele>132.6</ele>
        <time>2025-12-01T10:02:06Z</time>
      </trkpt>
      <trkpt lat="43.46814" lon="6.13217">
        <ele>132.8</ele>
        <time>2025-12-01T10:02:15Z</time>
      </trkpt>
      <trkpt lat="43.46819" lon="6.13207">
        <ele>132.8</ele>
        <time>2025-12-01T10:02:24Z</time>
      </trkpt>
      <trkpt lat="43.46819" lon="6.13194">
        <ele>132.8</ele>
        <time>2025-12-01T10:02:33Z</time>
      </trkpt>
      <trkpt lat="43.46819" lon="6.13181">
        <ele>133.5</ele>
        <time>2025-12-01T10:02:42Z</time>
      </trkpt>
      <trkpt lat="43.4682" lon="6.13167">
        <ele>133.7</ele>
        <time>2025-12-01T10:02:52Z</time>
      </trkpt>
      <trkpt lat="43.46822" lon="6.13155">
        <ele>133.8</ele>
        <time>2025-12-01T10:03:01Z</time>
      </trkpt>
      <trkpt lat="43.46826" lon="6.13142">
        <ele>133.8</ele>
        <time>2025-12-01T10:03:11Z</time>
      </trkpt>
      <trkpt lat="43.46828" lon="6.13129">
        <ele>133.7</ele>
        <time>2025-12-01T10:03:21Z</time>
      </trkpt>
      <trkpt lat="43.46829" lon="6.13116">
        <ele>133.8</ele>
        <time>2025-12-01T10:04:20Z</time>
      </trkpt>
      <trkpt lat="43.46832" lon="6.13105">
        <ele>133.9</ele>
        <time>2025-12-01T10:04:30Z</time>
      </trkpt>
      <trkpt lat="43.46836" lon="6.13092">
        <ele>133.9</ele>
        <time>2025-12-01T10:04:40Z</time>
      </trkpt>
      <trkpt lat="43.46838" lon="6.13079">
        <ele>133.8</ele>
        <time>2025-12-01T10:04:50Z</time>
      </trkpt>
      <trkpt lat="43.46841" lon="6.13067">
        <ele>133.6</ele>
        <time>2025-12-01T10:04:59Z</time>
      </trkpt>
      <trkpt lat="43.46843" lon="6.13054">
        <ele>133.5</ele>
        <time>2025-12-01T10:05:09Z</time>
      </trkpt>
      <trkpt lat="43.46842" lon="6.13041">
        <ele>133.4</ele>
        <time>2025-12-01T10:05:19Z</time>
      </trkpt>
      <trkpt lat="43.46841" lon="6.13028">
        <ele>133.5</ele>
        <time>2025-12-01T10:05:28Z</time>
      </trkpt>
      <trkpt lat="43.46844" lon="6.13015">
        <ele>133.3</ele>
        <time>2025-12-01T10:05:38Z</time>
      </trkpt>
      <trkpt lat="43.46842" lon="6.13002">
        <ele>132.9</ele>
        <time>2025-12-01T10:05:48Z</time>
      </trkpt>
      <trkpt lat="43.46839" lon="6.12989">
        <ele>132.2</ele>
        <time>2025-12-01T10:06:00Z</time>
      </trkpt>
      <trkpt lat="43.46836" lon="6.12977">
        <ele>131.4</ele>
        <time>2025-12-01T10:06:09Z</time>
      </trkpt>
      <trkpt lat="43.46832" lon="6.12965">
        <ele>130.8</ele>
        <time>2025-12-01T10:06:20Z</time>
      </trkpt>
      <trkpt lat="43.46827" lon="6.12953">
        <ele>130.5</ele>
        <time>2025-12-01T10:06:30Z</time>
      </trkpt>
      <trkpt lat="43.46819" lon="6.12947">
        <ele>130.6</ele>
        <time>2025-12-01T10:06:39Z</time>
      </trkpt>
      <trkpt lat="43.46816" lon="6.12935">
        <ele>130.6</ele>
        <time>2025-12-01T10:07:29Z</time>
      </trkpt>
      <trkpt lat="43.4682" lon="6.12923">
        <ele>131.1</ele>
        <time>2025-12-01T10:10:13Z</time>
      </trkpt>
      <trkpt lat="43.46824" lon="6.12911">
        <ele>130.6</ele>
        <time>2025-12-01T10:10:27Z</time>
      </trkpt>
      <trkpt lat="43.46823" lon="6.12899">
        <ele>131.5</ele>
        <time>2025-12-01T10:11:33Z</time>
      </trkpt>
      <trkpt lat="43.46817" lon="6.12889">
        <ele>129.5</ele>
        <time>2025-12-01T10:11:52Z</time>
      </trkpt>
      <trkpt lat="43.46811" lon="6.12878">
        <ele>129.5</ele>
        <time>2025-12-01T10:12:03Z</time>
      </trkpt>
      <trkpt lat="43.46807" lon="6.12866">
        <ele>130.1</ele>
        <time>2025-12-01T10:12:12Z</time>
      </trkpt>
      <trkpt lat="43.46805" lon="6.12854">
        <ele>131.2</ele>
        <time>2025-12-01T10:12:23Z</time>
      </trkpt>
      <trkpt lat="43.46801" lon="6.12841">
        <ele>132.2</ele>
        <time>2025-12-01T10:12:34Z</time>
      </trkpt>
      <trkpt lat="43.46798" lon="6.1283">
        <ele>132.5</ele>
        <time>2025-12-01T10:12:49Z</time>
      </trkpt>
      <trkpt lat="43.46795" lon="6.12818">
        <ele>133.1</ele>
        <time>2025-12-01T10:13:01Z</time>
      </trkpt>
      <trkpt lat="43.46794" lon="6.12805">
        <ele>133.9</ele>
        <time>2025-12-01T10:13:22Z</time>
      </trkpt>
      <trkpt lat="43.46798" lon="6.12793">
        <ele>133.9</ele>
        <time>2025-12-01T10:13:34Z</time>
      </trkpt>
      <trkpt lat="43.46805" lon="6.12785">
        <ele>133.9</ele>
        <time>2025-12-01T10:13:43Z</time>
      </trkpt>
      <trkpt lat="43.46812" lon="6.12775">
        <ele>134.5</ele>
        <time>2025-12-01T10:13:56Z</time>
      </trkpt>
      <trkpt lat="43.46818" lon="6.12766">
        <ele>134.5</ele>
        <time>2025-12-01T10:14:04Z</time>
      </trkpt>
      <trkpt lat="43.46827" lon="6.12759">
        <ele>134.5</ele>
        <time>2025-12-01T10:14:13Z</time>
      </trkpt>
      <trkpt lat="43.46834" lon="6.12749">
        <ele>135</ele>
        <time>2025-12-01T10:14:23Z</time>
      </trkpt>
      <trkpt lat="43.46843" lon="6.12744">
        <ele>135.5</ele>
        <time>2025-12-01T10:14:32Z</time>
      </trkpt>
      <trkpt lat="43.4685" lon="6.12736">
        <ele>135.6</ele>
        <time>2025-12-01T10:14:41Z</time>
      </trkpt>
      <trkpt lat="43.46859" lon="6.12731">
        <ele>135.7</ele>
        <time>2025-12-01T10:14:50Z</time>
      </trkpt>
      <trkpt lat="43.46868" lon="6.12725">
        <ele>136</ele>
        <time>2025-12-01T10:15:05Z</time>
      </trkpt>
      <trkpt lat="43.46876" lon="6.12719">
        <ele>136</ele>
        <time>2025-12-01T10:15:15Z</time>
      </trkpt>
      <trkpt lat="43.46884" lon="6.12714">
        <ele>136.6</ele>
        <time>2025-12-01T10:15:24Z</time>
      </trkpt>
      <trkpt lat="43.46893" lon="6.12708">
        <ele>136.8</ele>
        <time>2025-12-01T10:15:34Z</time>
      </trkpt>
      <trkpt lat="43.46902" lon="6.12706">
        <ele>136.9</ele>
        <time>2025-12-01T10:15:45Z</time>
      </trkpt>
      <trkpt lat="43.46912" lon="6.12705">
        <ele>137.3</ele>
        <time>2025-12-01T10:16:00Z</time>
      </trkpt>
      <trkpt lat="43.46902" lon="6.12706">
        <ele>137.9</ele>
        <time>2025-12-01T10:18:47Z</time>
      </trkpt>
      <trkpt lat="43.46894" lon="6.12711">
        <ele>137.6</ele>
        <time>2025-12-01T10:18:57Z</time>
      </trkpt>
      <trkpt lat="43.46903" lon="6.12707">
        <ele>137.3</ele>
        <time>2025-12-01T10:20:10Z</time>
      </trkpt>
      <trkpt lat="43.46912" lon="6.12704">
        <ele>137.6</ele>
        <time>2025-12-01T10:20:21Z</time>
      </trkpt>
      <trkpt lat="43.46922" lon="6.12706">
        <ele>137.7</ele>
        <time>2025-12-01T10:20:29Z</time>
      </trkpt>
      <trkpt lat="43.46932" lon="6.12707">
        <ele>137.8</ele>
        <time>2025-12-01T10:20:37Z</time>
      </trkpt>
      <trkpt lat="43.46942" lon="6.12708">
        <ele>137.9</ele>
        <time>2025-12-01T10:20:45Z</time>
      </trkpt>
      <trkpt lat="43.46951" lon="6.12708">
        <ele>138</ele>
        <time>2025-12-01T10:20:53Z</time>
      </trkpt>
      <trkpt lat="43.4696" lon="6.12707">
        <ele>138</ele>
        <time>2025-12-01T10:21:01Z</time>
      </trkpt>
      <trkpt lat="43.4697" lon="6.12705">
        <ele>137.9</ele>
        <time>2025-12-01T10:21:10Z</time>
      </trkpt>
      <trkpt lat="43.46979" lon="6.12703">
        <ele>138</ele>
        <time>2025-12-01T10:21:24Z</time>
      </trkpt>
      <trkpt lat="43.46989" lon="6.12703">
        <ele>137.9</ele>
        <time>2025-12-01T10:21:32Z</time>
      </trkpt>
      <trkpt lat="43.46998" lon="6.12703">
        <ele>137.9</ele>
        <time>2025-12-01T10:21:40Z</time>
      </trkpt>
      <trkpt lat="43.47008" lon="6.12705">
        <ele>137.9</ele>
        <time>2025-12-01T10:21:49Z</time>
      </trkpt>
      <trkpt lat="43.47018" lon="6.12705">
        <ele>137.9</ele>
        <time>2025-12-01T10:21:58Z</time>
      </trkpt>
      <trkpt lat="43.47028" lon="6.12706">
        <ele>137.7</ele>
        <time>2025-12-01T10:22:08Z</time>
      </trkpt>
      <trkpt lat="43.47037" lon="6.12706">
        <ele>137.6</ele>
        <time>2025-12-01T10:22:17Z</time>
      </trkpt>
      <trkpt lat="43.47047" lon="6.12706">
        <ele>137.5</ele>
        <time>2025-12-01T10:22:26Z</time>
      </trkpt>
      <trkpt lat="43.47057" lon="6.12707">
        <ele>137.5</ele>
        <time>2025-12-01T10:22:35Z</time>
      </trkpt>
      <trkpt lat="43.47067" lon="6.12707">
        <ele>137.5</ele>
        <time>2025-12-01T10:22:45Z</time>
      </trkpt>
      <trkpt lat="43.47077" lon="6.12706">
        <ele>137.7</ele>
        <time>2025-12-01T10:22:54Z</time>
      </trkpt>
      <trkpt lat="43.47087" lon="6.12707">
        <ele>137.7</ele>
        <time>2025-12-01T10:23:03Z</time>
      </trkpt>
      <trkpt lat="43.47096" lon="6.12707">
        <ele>137.7</ele>
        <time>2025-12-01T10:23:12Z</time>
      </trkpt>
      <trkpt lat="43.47106" lon="6.12707">
        <ele>137.7</ele>
        <time>2025-12-01T10:23:21Z</time>
      </trkpt>
      <trkpt lat="43.47115" lon="6.12707">
        <ele>137.7</ele>
        <time>2025-12-01T10:23:29Z</time>
      </trkpt>
      <trkpt lat="43.47125" lon="6.12708">
        <ele>137.7</ele>
        <time>2025-12-01T10:23:38Z</time>
      </trkpt>
      <trkpt lat="43.47134" lon="6.12708">
        <ele>137.6</ele>
        <time>2025-12-01T10:23:47Z</time>
      </trkpt>
      <trkpt lat="43.47144" lon="6.12708">
        <ele>137.7</ele>
        <time>2025-12-01T10:23:56Z</time>
      </trkpt>
      <trkpt lat="43.47154" lon="6.12708">
        <ele>137.5</ele>
        <time>2025-12-01T10:24:05Z</time>
      </trkpt>
      <trkpt lat="43.47164" lon="6.12709">
        <ele>137.5</ele>
        <time>2025-12-01T10:24:14Z</time>
      </trkpt>
      <trkpt lat="43.47173" lon="6.12709">
        <ele>137.5</ele>
        <time>2025-12-01T10:24:23Z</time>
      </trkpt>
      <trkpt lat="43.47182" lon="6.12709">
        <ele>137.5</ele>
        <time>2025-12-01T10:24:32Z</time>
      </trkpt>
      <trkpt lat="43.47192" lon="6.12708">
        <ele>137.5</ele>
        <time>2025-12-01T10:24:42Z</time>
      </trkpt>
      <trkpt lat="43.47201" lon="6.12711">
        <ele>137.5</ele>
        <time>2025-12-01T10:24:54Z</time>
      </trkpt>
      <trkpt lat="43.47202" lon="6.12724">
        <ele>137.8</ele>
        <time>2025-12-01T10:25:32Z</time>
      </trkpt>
      <trkpt lat="43.472" lon="6.12737">
        <ele>137.6</ele>
        <time>2025-12-01T10:25:42Z</time>
      </trkpt>
      <trkpt lat="43.47199" lon="6.1275">
        <ele>137.3</ele>
        <time>2025-12-01T10:25:52Z</time>
      </trkpt>
      <trkpt lat="43.47195" lon="6.12762">
        <ele>137.7</ele>
        <time>2025-12-01T10:26:02Z</time>
      </trkpt>
      <trkpt lat="43.47193" lon="6.12775">
        <ele>137.4</ele>
        <time>2025-12-01T10:26:10Z</time>
      </trkpt>
      <trkpt lat="43.47191" lon="6.12788">
        <ele>137.3</ele>
        <time>2025-12-01T10:26:20Z</time>
      </trkpt>
      <trkpt lat="43.47189" lon="6.12801">
        <ele>137.3</ele>
        <time>2025-12-01T10:26:31Z</time>
      </trkpt>
      <trkpt lat="43.47185" lon="6.12813">
        <ele>137.1</ele>
        <time>2025-12-01T10:26:40Z</time>
      </trkpt>
      <trkpt lat="43.47179" lon="6.12823">
        <ele>137.3</ele>
        <time>2025-12-01T10:26:57Z</time>
      </trkpt>
      <trkpt lat="43.47177" lon="6.12835">
        <ele>137.2</ele>
        <time>2025-12-01T10:27:06Z</time>
      </trkpt>
      <trkpt lat="43.47172" lon="6.12846">
        <ele>137.3</ele>
        <time>2025-12-01T10:27:15Z</time>
      </trkpt>
      <trkpt lat="43.47166" lon="6.12858">
        <ele>137.2</ele>
        <time>2025-12-01T10:27:24Z</time>
      </trkpt>
      <trkpt lat="43.47161" lon="6.12869">
        <ele>137.3</ele>
        <time>2025-12-01T10:27:34Z</time>
      </trkpt>
      <trkpt lat="43.47156" lon="6.1288">
        <ele>137.2</ele>
        <time>2025-12-01T10:27:43Z</time>
      </trkpt>
      <trkpt lat="43.47154" lon="6.12892">
        <ele>136.9</ele>
        <time>2025-12-01T10:27:53Z</time>
      </trkpt>
      <trkpt lat="43.47148" lon="6.12903">
        <ele>137.3</ele>
        <time>2025-12-01T10:28:08Z</time>
      </trkpt>
      <trkpt lat="43.47144" lon="6.12914">
        <ele>137.5</ele>
        <time>2025-12-01T10:28:17Z</time>
      </trkpt>
      <trkpt lat="43.47139" lon="6.12926">
        <ele>137.5</ele>
        <time>2025-12-01T10:28:26Z</time>
      </trkpt>
      <trkpt lat="43.47136" lon="6.12938">
        <ele>137.5</ele>
        <time>2025-12-01T10:28:35Z</time>
      </trkpt>
      <trkpt lat="43.47133" lon="6.12951">
        <ele>137.7</ele>
        <time>2025-12-01T10:28:44Z</time>
      </trkpt>
      <trkpt lat="43.4713" lon="6.12964">
        <ele>137.4</ele>
        <time>2025-12-01T10:28:53Z</time>
      </trkpt>
      <trkpt lat="43.47128" lon="6.12976">
        <ele>137.5</ele>
        <time>2025-12-01T10:29:09Z</time>
      </trkpt>
      <trkpt lat="43.47125" lon="6.12989">
        <ele>137.5</ele>
        <time>2025-12-01T10:29:18Z</time>
      </trkpt>
      <trkpt lat="43.47122" lon="6.13001">
        <ele>137.5</ele>
        <time>2025-12-01T10:29:26Z</time>
      </trkpt>
      <trkpt lat="43.4712" lon="6.13014">
        <ele>137.4</ele>
        <time>2025-12-01T10:29:34Z</time>
      </trkpt>
      <trkpt lat="43.47117" lon="6.13026">
        <ele>137.4</ele>
        <time>2025-12-01T10:29:42Z</time>
      </trkpt>
      <trkpt lat="43.47115" lon="6.13039">
        <ele>137.1</ele>
        <time>2025-12-01T10:29:50Z</time>
      </trkpt>
      <trkpt lat="43.47112" lon="6.13052">
        <ele>137</ele>
        <time>2025-12-01T10:29:59Z</time>
      </trkpt>
      <trkpt lat="43.47109" lon="6.13064">
        <ele>137.4</ele>
        <time>2025-12-01T10:30:07Z</time>
      </trkpt>
      <trkpt lat="43.47106" lon="6.13077">
        <ele>137.6</ele>
        <time>2025-12-01T10:30:15Z</time>
      </trkpt>
      <trkpt lat="43.47102" lon="6.1309">
        <ele>137.5</ele>
        <time>2025-12-01T10:30:24Z</time>
      </trkpt>
      <trkpt lat="43.47099" lon="6.13101">
        <ele>137.6</ele>
        <time>2025-12-01T10:30:36Z</time>
      </trkpt>
      <trkpt lat="43.47095" lon="6.13114">
        <ele>137.4</ele>
        <time>2025-12-01T10:30:45Z</time>
      </trkpt>
      <trkpt lat="43.47091" lon="6.13127">
        <ele>137.4</ele>
        <time>2025-12-01T10:30:54Z</time>
      </trkpt>
      <trkpt lat="43.47088" lon="6.13139">
        <ele>137.6</ele>
        <time>2025-12-01T10:31:02Z</time>
      </trkpt>
      <trkpt lat="43.47085" lon="6.13151">
        <ele>137.6</ele>
        <time>2025-12-01T10:31:11Z</time>
      </trkpt>
      <trkpt lat="43.47084" lon="6.13164">
        <ele>137.6</ele>
        <time>2025-12-01T10:31:21Z</time>
      </trkpt>
      <trkpt lat="43.47093" lon="6.13168">
        <ele>137.6</ele>
        <time>2025-12-01T10:32:10Z</time>
      </trkpt>
      <trkpt lat="43.47102" lon="6.13171">
        <ele>137.5</ele>
        <time>2025-12-01T10:32:27Z</time>
      </trkpt>
      <trkpt lat="43.47111" lon="6.13173">
        <ele>137.5</ele>
        <time>2025-12-01T10:32:37Z</time>
      </trkpt>
      <trkpt lat="43.47121" lon="6.13175">
        <ele>137.7</ele>
        <time>2025-12-01T10:32:47Z</time>
      </trkpt>
      <trkpt lat="43.47131" lon="6.13176">
        <ele>137.8</ele>
        <time>2025-12-01T10:32:57Z</time>
      </trkpt>
      <trkpt lat="43.4714" lon="6.13179">
        <ele>138.1</ele>
        <time>2025-12-01T10:33:07Z</time>
      </trkpt>
      <trkpt lat="43.47149" lon="6.13181">
        <ele>138.6</ele>
        <time>2025-12-01T10:33:17Z</time>
      </trkpt>
      <trkpt lat="43.47159" lon="6.13183">
        <ele>139.2</ele>
        <time>2025-12-01T10:33:27Z</time>
      </trkpt>
      <trkpt lat="43.47168" lon="6.13185">
        <ele>139.7</ele>
        <time>2025-12-01T10:33:37Z</time>
      </trkpt>
      <trkpt lat="43.47178" lon="6.13185">
        <ele>140</ele>
        <time>2025-12-01T10:33:50Z</time>
      </trkpt>
      <trkpt lat="43.47187" lon="6.13188">
        <ele>140.9</ele>
        <time>2025-12-01T10:34:01Z</time>
      </trkpt>
      <trkpt lat="43.47195" lon="6.13196">
        <ele>141.7</ele>
        <time>2025-12-01T10:34:21Z</time>
      </trkpt>
      <trkpt lat="43.47202" lon="6.13204">
        <ele>142.3</ele>
        <time>2025-12-01T10:34:34Z</time>
      </trkpt>
      <trkpt lat="43.47211" lon="6.13203">
        <ele>142.8</ele>
        <time>2025-12-01T10:34:45Z</time>
      </trkpt>
      <trkpt lat="43.47221" lon="6.13201">
        <ele>143.5</ele>
        <time>2025-12-01T10:34:55Z</time>
      </trkpt>
      <trkpt lat="43.4723" lon="6.13201">
        <ele>144</ele>
        <time>2025-12-01T10:35:04Z</time>
      </trkpt>
      <trkpt lat="43.47239" lon="6.132">
        <ele>144.3</ele>
        <time>2025-12-01T10:35:17Z</time>
      </trkpt>
      <trkpt lat="43.47249" lon="6.13198">
        <ele>144.7</ele>
        <time>2025-12-01T10:35:37Z</time>
      </trkpt>
      <trkpt lat="43.47258" lon="6.13196">
        <ele>144.8</ele>
        <time>2025-12-01T10:35:51Z</time>
      </trkpt>
      <trkpt lat="43.47267" lon="6.13195">
        <ele>145.2</ele>
        <time>2025-12-01T10:36:02Z</time>
      </trkpt>
      <trkpt lat="43.47276" lon="6.13197">
        <ele>145.5</ele>
        <time>2025-12-01T10:36:25Z</time>
      </trkpt>
      <trkpt lat="43.47285" lon="6.13197">
        <ele>145.8</ele>
        <time>2025-12-01T10:36:35Z</time>
      </trkpt>
      <trkpt lat="43.47295" lon="6.13199">
        <ele>146.2</ele>
        <time>2025-12-01T10:36:55Z</time>
      </trkpt>
      <trkpt lat="43.47304" lon="6.13203">
        <ele>146.3</ele>
        <time>2025-12-01T10:37:04Z</time>
      </trkpt>
      <trkpt lat="43.47312" lon="6.13209">
        <ele>146.5</ele>
        <time>2025-12-01T10:37:14Z</time>
      </trkpt>
      <trkpt lat="43.47313" lon="6.13222">
        <ele>146.5</ele>
        <time>2025-12-01T10:37:29Z</time>
      </trkpt>
      <trkpt lat="43.47313" lon="6.13234">
        <ele>146.6</ele>
        <time>2025-12-01T10:37:43Z</time>
      </trkpt>
      <trkpt lat="43.47313" lon="6.13247">
        <ele>146.5</ele>
        <time>2025-12-01T10:37:58Z</time>
      </trkpt>
      <trkpt lat="43.47314" lon="6.1326">
        <ele>146.4</ele>
        <time>2025-12-01T10:38:18Z</time>
      </trkpt>
      <trkpt lat="43.47313" lon="6.13273">
        <ele>146.4</ele>
        <time>2025-12-01T10:38:29Z</time>
      </trkpt>
      <trkpt lat="43.47313" lon="6.13286">
        <ele>146.3</ele>
        <time>2025-12-01T10:38:39Z</time>
      </trkpt>
      <trkpt lat="43.47313" lon="6.13299">
        <ele>146.2</ele>
        <time>2025-12-01T10:38:49Z</time>
      </trkpt>
      <trkpt lat="43.47313" lon="6.13312">
        <ele>146.3</ele>
        <time>2025-12-01T10:38:59Z</time>
      </trkpt>
      <trkpt lat="43.47314" lon="6.13325">
        <ele>146.2</ele>
        <time>2025-12-01T10:39:09Z</time>
      </trkpt>
      <trkpt lat="43.47313" lon="6.13338">
        <ele>146.4</ele>
        <time>2025-12-01T10:39:29Z</time>
      </trkpt>
      <trkpt lat="43.47311" lon="6.13351">
        <ele>146.4</ele>
        <time>2025-12-01T10:39:39Z</time>
      </trkpt>
      <trkpt lat="43.47311" lon="6.13364">
        <ele>146.5</ele>
        <time>2025-12-01T10:39:48Z</time>
      </trkpt>
      <trkpt lat="43.4731" lon="6.13378">
        <ele>146.4</ele>
        <time>2025-12-01T10:39:58Z</time>
      </trkpt>
      <trkpt lat="43.47309" lon="6.13391">
        <ele>146.5</ele>
        <time>2025-12-01T10:40:07Z</time>
      </trkpt>
      <trkpt lat="43.47308" lon="6.13404">
        <ele>146.5</ele>
        <time>2025-12-01T10:40:16Z</time>
      </trkpt>
      <trkpt lat="43.47308" lon="6.13417">
        <ele>146.6</ele>
        <time>2025-12-01T10:40:25Z</time>
      </trkpt>
      <trkpt lat="43.47306" lon="6.13429">
        <ele>146.7</ele>
        <time>2025-12-01T10:40:34Z</time>
      </trkpt>
      <trkpt lat="43.47305" lon="6.13442">
        <ele>146.7</ele>
        <time>2025-12-01T10:40:43Z</time>
      </trkpt>
      <trkpt lat="43.47305" lon="6.13455">
        <ele>146.6</ele>
        <time>2025-12-01T10:40:53Z</time>
      </trkpt>
      <trkpt lat="43.47304" lon="6.13469">
        <ele>146.7</ele>
        <time>2025-12-01T10:41:02Z</time>
      </trkpt>
      <trkpt lat="43.47303" lon="6.13482">
        <ele>146.8</ele>
        <time>2025-12-01T10:41:18Z</time>
      </trkpt>
      <trkpt lat="43.47303" lon="6.13495">
        <ele>146.7</ele>
        <time>2025-12-01T10:41:28Z</time>
      </trkpt>
      <trkpt lat="43.47303" lon="6.13508">
        <ele>146.7</ele>
        <time>2025-12-01T10:41:38Z</time>
      </trkpt>
      <trkpt lat="43.47303" lon="6.13521">
        <ele>146.8</ele>
        <time>2025-12-01T10:41:46Z</time>
      </trkpt>
      <trkpt lat="43.47303" lon="6.13535">
        <ele>146.9</ele>
        <time>2025-12-01T10:41:55Z</time>
      </trkpt>
      <trkpt lat="43.47303" lon="6.13548">
        <ele>147</ele>
        <time>2025-12-01T10:42:04Z</time>
      </trkpt>
      <trkpt lat="43.47304" lon="6.13561">
        <ele>146.8</ele>
        <time>2025-12-01T10:42:16Z</time>
      </trkpt>
      <trkpt lat="43.47303" lon="6.13573">
        <ele>146.7</ele>
        <time>2025-12-01T10:42:24Z</time>
      </trkpt>
      <trkpt lat="43.47301" lon="6.13586">
        <ele>146.8</ele>
        <time>2025-12-01T10:43:42Z</time>
      </trkpt>
      <trkpt lat="43.47302" lon="6.13599">
        <ele>146.9</ele>
        <time>2025-12-01T10:43:51Z</time>
      </trkpt>
      <trkpt lat="43.47302" lon="6.13612">
        <ele>147</ele>
        <time>2025-12-01T10:43:59Z</time>
      </trkpt>
      <trkpt lat="43.47302" lon="6.13624">
        <ele>147</ele>
        <time>2025-12-01T10:44:07Z</time>
      </trkpt>
      <trkpt lat="43.47303" lon="6.13637">
        <ele>146.8</ele>
        <time>2025-12-01T10:44:15Z</time>
      </trkpt>
      <trkpt lat="43.47302" lon="6.13651">
        <ele>146.7</ele>
        <time>2025-12-01T10:44:24Z</time>
      </trkpt>
      <trkpt lat="43.473" lon="6.13664">
        <ele>146.9</ele>
        <time>2025-12-01T10:44:42Z</time>
      </trkpt>
      <trkpt lat="43.473" lon="6.13677">
        <ele>146.8</ele>
        <time>2025-12-01T10:44:50Z</time>
      </trkpt>
      <trkpt lat="43.47299" lon="6.1369">
        <ele>146.8</ele>
        <time>2025-12-01T10:44:58Z</time>
      </trkpt>
      <trkpt lat="43.47299" lon="6.13703">
        <ele>145.6</ele>
        <time>2025-12-01T10:45:16Z</time>
      </trkpt>
      <trkpt lat="43.473" lon="6.13716">
        <ele>146.1</ele>
        <time>2025-12-01T10:45:25Z</time>
      </trkpt>
      <trkpt lat="43.47302" lon="6.13728">
        <ele>147.3</ele>
        <time>2025-12-01T10:45:33Z</time>
      </trkpt>
      <trkpt lat="43.47303" lon="6.13741">
        <ele>146.8</ele>
        <time>2025-12-01T10:45:40Z</time>
      </trkpt>
      <trkpt lat="43.47304" lon="6.13754">
        <ele>146.7</ele>
        <time>2025-12-01T10:45:48Z</time>
      </trkpt>
      <trkpt lat="43.47303" lon="6.13767">
        <ele>146.6</ele>
        <time>2025-12-01T10:45:58Z</time>
      </trkpt>
      <trkpt lat="43.47304" lon="6.1378">
        <ele>146.5</ele>
        <time>2025-12-01T10:46:06Z</time>
      </trkpt>
      <trkpt lat="43.47305" lon="6.13793">
        <ele>146.5</ele>
        <time>2025-12-01T10:46:16Z</time>
      </trkpt>
      <trkpt lat="43.47305" lon="6.13806">
        <ele>146.4</ele>
        <time>2025-12-01T10:46:24Z</time>
      </trkpt>
      <trkpt lat="43.47305" lon="6.13819">
        <ele>146.4</ele>
        <time>2025-12-01T10:46:33Z</time>
      </trkpt>
      <trkpt lat="43.47305" lon="6.13832">
        <ele>146.5</ele>
        <time>2025-12-01T10:46:51Z</time>
      </trkpt>
      <trkpt lat="43.47306" lon="6.13845">
        <ele>146.5</ele>
        <time>2025-12-01T10:47:00Z</time>
      </trkpt>
      <trkpt lat="43.47306" lon="6.13859">
        <ele>146.8</ele>
        <time>2025-12-01T10:47:09Z</time>
      </trkpt>
      <trkpt lat="43.47305" lon="6.13871">
        <ele>146.9</ele>
        <time>2025-12-01T10:47:19Z</time>
      </trkpt>
      <trkpt lat="43.47304" lon="6.13884">
        <ele>146.6</ele>
        <time>2025-12-01T10:47:27Z</time>
      </trkpt>
      <trkpt lat="43.473" lon="6.13897">
        <ele>146.4</ele>
        <time>2025-12-01T10:47:36Z</time>
      </trkpt>
      <trkpt lat="43.47297" lon="6.13909">
        <ele>146.4</ele>
        <time>2025-12-01T10:47:43Z</time>
      </trkpt>
      <trkpt lat="43.47292" lon="6.13921">
        <ele>146.3</ele>
        <time>2025-12-01T10:47:51Z</time>
      </trkpt>
      <trkpt lat="43.47286" lon="6.13931">
        <ele>146.4</ele>
        <time>2025-12-01T10:47:59Z</time>
      </trkpt>
      <trkpt lat="43.47281" lon="6.13942">
        <ele>146.3</ele>
        <time>2025-12-01T10:48:06Z</time>
      </trkpt>
      <trkpt lat="43.47278" lon="6.13955">
        <ele>146.2</ele>
        <time>2025-12-01T10:48:14Z</time>
      </trkpt>
      <trkpt lat="43.47278" lon="6.13969">
        <ele>145.8</ele>
        <time>2025-12-01T10:48:51Z</time>
      </trkpt>
      <trkpt lat="43.47278" lon="6.13982">
        <ele>145.5</ele>
        <time>2025-12-01T10:49:32Z</time>
      </trkpt>
      <trkpt lat="43.47277" lon="6.13969">
        <ele>145.4</ele>
        <time>2025-12-01T10:49:51Z</time>
      </trkpt>
      <trkpt lat="43.47279" lon="6.13982">
        <ele>145.9</ele>
        <time>2025-12-01T10:50:07Z</time>
      </trkpt>
      <trkpt lat="43.47278" lon="6.13995">
        <ele>145.7</ele>
        <time>2025-12-01T10:50:15Z</time>
      </trkpt>
      <trkpt lat="43.4728" lon="6.14008">
        <ele>145.7</ele>
        <time>2025-12-01T10:50:23Z</time>
      </trkpt>
      <trkpt lat="43.4728" lon="6.14021">
        <ele>145.7</ele>
        <time>2025-12-01T10:50:33Z</time>
      </trkpt>
      <trkpt lat="43.4728" lon="6.14034">
        <ele>145.7</ele>
        <time>2025-12-01T10:50:41Z</time>
      </trkpt>
      <trkpt lat="43.47279" lon="6.14048">
        <ele>145.3</ele>
        <time>2025-12-01T10:50:51Z</time>
      </trkpt>
      <trkpt lat="43.47279" lon="6.14062">
        <ele>145.3</ele>
        <time>2025-12-01T10:51:04Z</time>
      </trkpt>
      <trkpt lat="43.4728" lon="6.14074">
        <ele>145.7</ele>
        <time>2025-12-01T10:51:13Z</time>
      </trkpt>
      <trkpt lat="43.4728" lon="6.14087">
        <ele>145.8</ele>
        <time>2025-12-01T10:51:25Z</time>
      </trkpt>
      <trkpt lat="43.47282" lon="6.141">
        <ele>145.9</ele>
        <time>2025-12-01T10:51:45Z</time>
      </trkpt>
      <trkpt lat="43.47274" lon="6.14107">
        <ele>146.8</ele>
        <time>2025-12-01T10:52:04Z</time>
      </trkpt>
      <trkpt lat="43.47265" lon="6.1411">
        <ele>147.1</ele>
        <time>2025-12-01T10:53:31Z</time>
      </trkpt>
      <trkpt lat="43.47262" lon="6.14122">
        <ele>146.8</ele>
        <time>2025-12-01T10:53:53Z</time>
      </trkpt>
      <trkpt lat="43.47261" lon="6.14135">
        <ele>147</ele>
        <time>2025-12-01T10:54:25Z</time>
      </trkpt>
      <trkpt lat="43.4726" lon="6.14147">
        <ele>147.2</ele>
        <time>2025-12-01T10:54:41Z</time>
      </trkpt>
      <trkpt lat="43.47259" lon="6.14161">
        <ele>147.3</ele>
        <time>2025-12-01T10:55:01Z</time>
      </trkpt>
      <trkpt lat="43.47258" lon="6.14174">
        <ele>147.5</ele>
        <time>2025-12-01T10:55:11Z</time>
      </trkpt>
      <trkpt lat="43.47256" lon="6.14188">
        <ele>147.7</ele>
        <time>2025-12-01T10:55:28Z</time>
      </trkpt>
      <trkpt lat="43.47254" lon="6.14201">
        <ele>147.4</ele>
        <time>2025-12-01T10:55:38Z</time>
      </trkpt>
      <trkpt lat="43.47252" lon="6.14214">
        <ele>147.5</ele>
        <time>2025-12-01T10:55:48Z</time>
      </trkpt>
      <trkpt lat="43.47249" lon="6.14226">
        <ele>147.7</ele>
        <time>2025-12-01T10:55:58Z</time>
      </trkpt>
      <trkpt lat="43.47247" lon="6.14239">
        <ele>147.7</ele>
        <time>2025-12-01T10:56:10Z</time>
      </trkpt>
      <trkpt lat="43.47245" lon="6.14252">
        <ele>147.5</ele>
        <time>2025-12-01T10:56:20Z</time>
      </trkpt>
      <trkpt lat="43.47244" lon="6.14265">
        <ele>147.8</ele>
        <time>2025-12-01T10:56:30Z</time>
      </trkpt>
      <trkpt lat="43.47243" lon="6.14278">
        <ele>147.5</ele>
        <time>2025-12-01T10:56:40Z</time>
      </trkpt>
      <trkpt lat="43.47241" lon="6.14291">
        <ele>147.2</ele>
        <time>2025-12-01T10:56:50Z</time>
      </trkpt>
      <trkpt lat="43.4724" lon="6.14304">
        <ele>147.2</ele>
        <time>2025-12-01T10:56:59Z</time>
      </trkpt>
      <trkpt lat="43.47241" lon="6.14316">
        <ele>147.5</ele>
        <time>2025-12-01T10:57:10Z</time>
      </trkpt>
      <trkpt lat="43.47241" lon="6.1433">
        <ele>147.4</ele>
        <time>2025-12-01T10:57:21Z</time>
      </trkpt>
      <trkpt lat="43.47241" lon="6.14343">
        <ele>147.1</ele>
        <time>2025-12-01T10:57:30Z</time>
      </trkpt>
      <trkpt lat="43.47241" lon="6.14356">
        <ele>147</ele>
        <time>2025-12-01T10:57:40Z</time>
      </trkpt>
      <trkpt lat="43.47242" lon="6.14369">
        <ele>147.1</ele>
        <time>2025-12-01T10:57:48Z</time>
      </trkpt>
      <trkpt lat="43.47242" lon="6.14382">
        <ele>147</ele>
        <time>2025-12-01T10:57:56Z</time>
      </trkpt>
      <trkpt lat="43.47242" lon="6.14396">
        <ele>147.3</ele>
        <time>2025-12-01T10:58:04Z</time>
      </trkpt>
      <trkpt lat="43.47243" lon="6.14409">
        <ele>147.1</ele>
        <time>2025-12-01T10:58:14Z</time>
      </trkpt>
      <trkpt lat="43.47243" lon="6.14422">
        <ele>146.9</ele>
        <time>2025-12-01T10:58:22Z</time>
      </trkpt>
      <trkpt lat="43.47243" lon="6.14435">
        <ele>146.8</ele>
        <time>2025-12-01T10:58:31Z</time>
      </trkpt>
      <trkpt lat="43.47236" lon="6.14446">
        <ele>147.3</ele>
        <time>2025-12-01T10:58:49Z</time>
      </trkpt>
      <trkpt lat="43.47228" lon="6.14452">
        <ele>147.2</ele>
        <time>2025-12-01T10:58:57Z</time>
      </trkpt>
      <trkpt lat="43.4722" lon="6.14459">
        <ele>147.1</ele>
        <time>2025-12-01T10:59:15Z</time>
      </trkpt>
      <trkpt lat="43.47211" lon="6.14463">
        <ele>147.2</ele>
        <time>2025-12-01T10:59:23Z</time>
      </trkpt>
      <trkpt lat="43.47202" lon="6.14468">
        <ele>147.4</ele>
        <time>2025-12-01T10:59:33Z</time>
      </trkpt>
      <trkpt lat="43.47194" lon="6.14474">
        <ele>147.5</ele>
        <time>2025-12-01T10:59:43Z</time>
      </trkpt>
      <trkpt lat="43.47185" lon="6.14479">
        <ele>147.6</ele>
        <time>2025-12-01T10:59:53Z</time>
      </trkpt>
      <trkpt lat="43.47176" lon="6.14485">
        <ele>147.6</ele>
        <time>2025-12-01T11:00:01Z</time>
      </trkpt>
      <trkpt lat="43.47166" lon="6.14491">
        <ele>147.7</ele>
        <time>2025-12-01T11:00:09Z</time>
      </trkpt>
      <trkpt lat="43.47158" lon="6.14498">
        <ele>147.5</ele>
        <time>2025-12-01T11:00:19Z</time>
      </trkpt>
      <trkpt lat="43.4715" lon="6.14504">
        <ele>147.4</ele>
        <time>2025-12-01T11:00:36Z</time>
      </trkpt>
      <trkpt lat="43.47141" lon="6.14509">
        <ele>147.5</ele>
        <time>2025-12-01T11:00:42Z</time>
      </trkpt>
      <trkpt lat="43.47133" lon="6.14514">
        <ele>147.3</ele>
        <time>2025-12-01T11:00:50Z</time>
      </trkpt>
      <trkpt lat="43.47128" lon="6.14524">
        <ele>147</ele>
        <time>2025-12-01T11:01:01Z</time>
      </trkpt>
      <trkpt lat="43.47129" lon="6.14537">
        <ele>146.9</ele>
        <time>2025-12-01T11:01:11Z</time>
      </trkpt>
      <trkpt lat="43.47131" lon="6.14549">
        <ele>146.8</ele>
        <time>2025-12-01T11:01:21Z</time>
      </trkpt>
      <trkpt lat="43.47133" lon="6.14561">
        <ele>146.7</ele>
        <time>2025-12-01T11:01:31Z</time>
      </trkpt>
      <trkpt lat="43.47135" lon="6.14574">
        <ele>146.4</ele>
        <time>2025-12-01T11:01:42Z</time>
      </trkpt>
      <trkpt lat="43.47138" lon="6.14587">
        <ele>146.3</ele>
        <time>2025-12-01T11:01:52Z</time>
      </trkpt>
      <trkpt lat="43.47139" lon="6.146">
        <ele>146.2</ele>
        <time>2025-12-01T11:02:02Z</time>
      </trkpt>
      <trkpt lat="43.47141" lon="6.14613">
        <ele>146.3</ele>
        <time>2025-12-01T11:02:12Z</time>
      </trkpt>
      <trkpt lat="43.4714" lon="6.14626">
        <ele>146.3</ele>
        <time>2025-12-01T11:02:22Z</time>
      </trkpt>
      <trkpt lat="43.47139" lon="6.14639">
        <ele>145.5</ele>
        <time>2025-12-01T11:02:31Z</time>
      </trkpt>
      <trkpt lat="43.47138" lon="6.14651">
        <ele>146.1</ele>
        <time>2025-12-01T11:02:41Z</time>
      </trkpt>
      <trkpt lat="43.47136" lon="6.14664">
        <ele>146.2</ele>
        <time>2025-12-01T11:02:50Z</time>
      </trkpt>
      <trkpt lat="43.47135" lon="6.14676">
        <ele>146</ele>
        <time>2025-12-01T11:02:59Z</time>
      </trkpt>
      <trkpt lat="43.47133" lon="6.14689">
        <ele>146.1</ele>
        <time>2025-12-01T11:03:08Z</time>
      </trkpt>
      <trkpt lat="43.47131" lon="6.14703">
        <ele>146.2</ele>
        <time>2025-12-01T11:03:18Z</time>
      </trkpt>
      <trkpt lat="43.47129" lon="6.14716">
        <ele>146.2</ele>
        <time>2025-12-01T11:03:28Z</time>
      </trkpt>
      <trkpt lat="43.47127" lon="6.14729">
        <ele>146.3</ele>
        <time>2025-12-01T11:03:38Z</time>
      </trkpt>
      <trkpt lat="43.47124" lon="6.14741">
        <ele>145.9</ele>
        <time>2025-12-01T11:03:55Z</time>
      </trkpt>
      <trkpt lat="43.47127" lon="6.14752">
        <ele>141.6</ele>
        <time>2025-12-01T11:41:27Z</time>
      </trkpt>
      <trkpt lat="43.47125" lon="6.14765">
        <ele>142.9</ele>
        <time>2025-12-01T11:44:22Z</time>
      </trkpt>
      <trkpt lat="43.47124" lon="6.14777">
        <ele>143.1</ele>
        <time>2025-12-01T11:44:41Z</time>
      </trkpt>
      <trkpt lat="43.47124" lon="6.1479">
        <ele>143.1</ele>
        <time>2025-12-01T11:44:51Z</time>
      </trkpt>
      <trkpt lat="43.47123" lon="6.14803">
        <ele>143.2</ele>
        <time>2025-12-01T11:45:01Z</time>
      </trkpt>
      <trkpt lat="43.47123" lon="6.14816">
        <ele>143.3</ele>
        <time>2025-12-01T11:45:14Z</time>
      </trkpt>
      <trkpt lat="43.47122" lon="6.14829">
        <ele>143.3</ele>
        <time>2025-12-01T11:45:24Z</time>
      </trkpt>
      <trkpt lat="43.47122" lon="6.14842">
        <ele>143.4</ele>
        <time>2025-12-01T11:45:34Z</time>
      </trkpt>
      <trkpt lat="43.47122" lon="6.14855">
        <ele>143.3</ele>
        <time>2025-12-01T11:45:43Z</time>
      </trkpt>
      <trkpt lat="43.47121" lon="6.14867">
        <ele>143.2</ele>
        <time>2025-12-01T11:45:52Z</time>
      </trkpt>
      <trkpt lat="43.47121" lon="6.1488">
        <ele>143.2</ele>
        <time>2025-12-01T11:46:01Z</time>
      </trkpt>
      <trkpt lat="43.47121" lon="6.14893">
        <ele>143.2</ele>
        <time>2025-12-01T11:46:10Z</time>
      </trkpt>
      <trkpt lat="43.47121" lon="6.14907">
        <ele>143.2</ele>
        <time>2025-12-01T11:46:20Z</time>
      </trkpt>
      <trkpt lat="43.4712" lon="6.1492">
        <ele>143.2</ele>
        <time>2025-12-01T11:46:30Z</time>
      </trkpt>
      <trkpt lat="43.47117" lon="6.14932">
        <ele>143.3</ele>
        <time>2025-12-01T11:47:16Z</time>
      </trkpt>
      <trkpt lat="43.47107" lon="6.14931">
        <ele>143</ele>
        <time>2025-12-01T11:47:29Z</time>
      </trkpt>
      <trkpt lat="43.47098" lon="6.14931">
        <ele>143.1</ele>
        <time>2025-12-01T11:47:42Z</time>
      </trkpt>
      <trkpt lat="43.47089" lon="6.1493">
        <ele>142.8</ele>
        <time>2025-12-01T11:47:50Z</time>
      </trkpt>
      <trkpt lat="43.47079" lon="6.1493">
        <ele>142.6</ele>
        <time>2025-12-01T11:47:58Z</time>
      </trkpt>
      <trkpt lat="43.47069" lon="6.1493">
        <ele>142.4</ele>
        <time>2025-12-01T11:48:07Z</time>
      </trkpt>
      <trkpt lat="43.47066" lon="6.14942">
        <ele>142.4</ele>
        <time>2025-12-01T11:48:28Z</time>
      </trkpt>
      <trkpt lat="43.47068" lon="6.14955">
        <ele>141.2</ele>
        <time>2025-12-01T11:48:42Z</time>
      </trkpt>
      <trkpt lat="43.4707" lon="6.14967">
        <ele>142.1</ele>
        <time>2025-12-01T11:48:53Z</time>
      </trkpt>
      <trkpt lat="43.47071" lon="6.14981">
        <ele>142.1</ele>
        <time>2025-12-01T11:49:03Z</time>
      </trkpt>
      <trkpt lat="43.47075" lon="6.14993">
        <ele>142.2</ele>
        <time>2025-12-01T11:49:29Z</time>
      </trkpt>
      <trkpt lat="43.47073" lon="6.15005">
        <ele>142</ele>
        <time>2025-12-01T11:49:38Z</time>
      </trkpt>
      <trkpt lat="43.47073" lon="6.15018">
        <ele>141.7</ele>
        <time>2025-12-01T11:49:51Z</time>
      </trkpt>
      <trkpt lat="43.47079" lon="6.15029">
        <ele>142.1</ele>
        <time>2025-12-01T11:50:32Z</time>
      </trkpt>
      <trkpt lat="43.47088" lon="6.15034">
        <ele>142</ele>
        <time>2025-12-01T11:50:40Z</time>
      </trkpt>
      <trkpt lat="43.47091" lon="6.15046">
        <ele>141.7</ele>
        <time>2025-12-01T11:50:48Z</time>
      </trkpt>
      <trkpt lat="43.47091" lon="6.15059">
        <ele>141.5</ele>
        <time>2025-12-01T11:50:56Z</time>
      </trkpt>
      <trkpt lat="43.47089" lon="6.15072">
        <ele>141.5</ele>
        <time>2025-12-01T11:51:08Z</time>
      </trkpt>
      <trkpt lat="43.47087" lon="6.15084">
        <ele>141.5</ele>
        <time>2025-12-01T11:51:18Z</time>
      </trkpt>
      <trkpt lat="43.47087" lon="6.15097">
        <ele>141.4</ele>
        <time>2025-12-01T11:51:29Z</time>
      </trkpt>
      <trkpt lat="43.47085" lon="6.15109">
        <ele>141.5</ele>
        <time>2025-12-01T11:51:37Z</time>
      </trkpt>
      <trkpt lat="43.47085" lon="6.15122">
        <ele>141.6</ele>
        <time>2025-12-01T11:51:45Z</time>
      </trkpt>
      <trkpt lat="43.47086" lon="6.15135">
        <ele>141.7</ele>
        <time>2025-12-01T11:52:03Z</time>
      </trkpt>
      <trkpt lat="43.47086" lon="6.15147">
        <ele>141.9</ele>
        <time>2025-12-01T11:52:10Z</time>
      </trkpt>
      <trkpt lat="43.47088" lon="6.15161">
        <ele>142.1</ele>
        <time>2025-12-01T11:52:18Z</time>
      </trkpt>
      <trkpt lat="43.47088" lon="6.15173">
        <ele>142.6</ele>
        <time>2025-12-01T11:52:26Z</time>
      </trkpt>
      <trkpt lat="43.47088" lon="6.15187">
        <ele>142.4</ele>
        <time>2025-12-01T11:52:34Z</time>
      </trkpt>
      <trkpt lat="43.47087" lon="6.152">
        <ele>142.7</ele>
        <time>2025-12-01T11:52:43Z</time>
      </trkpt>
      <trkpt lat="43.47088" lon="6.15214">
        <ele>142.6</ele>
        <time>2025-12-01T11:52:54Z</time>
      </trkpt>
      <trkpt lat="43.47088" lon="6.15228">
        <ele>142.7</ele>
        <time>2025-12-01T11:53:02Z</time>
      </trkpt>
      <trkpt lat="43.47088" lon="6.15241">
        <ele>142.9</ele>
        <time>2025-12-01T11:53:10Z</time>
      </trkpt>
      <trkpt lat="43.47088" lon="6.15255">
        <ele>143</ele>
        <time>2025-12-01T11:53:18Z</time>
      </trkpt>
      <trkpt lat="43.47088" lon="6.15268">
        <ele>143</ele>
        <time>2025-12-01T11:53:26Z</time>
      </trkpt>
      <trkpt lat="43.47088" lon="6.15281">
        <ele>142.9</ele>
        <time>2025-12-01T11:53:34Z</time>
      </trkpt>
      <trkpt lat="43.47086" lon="6.15294">
        <ele>142.8</ele>
        <time>2025-12-01T11:53:42Z</time>
      </trkpt>
      <trkpt lat="43.47084" lon="6.15308">
        <ele>142.7</ele>
        <time>2025-12-01T11:53:50Z</time>
      </trkpt>
      <trkpt lat="43.47085" lon="6.15321">
        <ele>142.6</ele>
        <time>2025-12-01T11:53:58Z</time>
      </trkpt>
      <trkpt lat="43.47085" lon="6.15333">
        <ele>142.4</ele>
        <time>2025-12-01T11:54:06Z</time>
      </trkpt>
      <trkpt lat="43.47085" lon="6.15347">
        <ele>142.2</ele>
        <time>2025-12-01T11:54:15Z</time>
      </trkpt>
      <trkpt lat="43.47085" lon="6.15361">
        <ele>141.8</ele>
        <time>2025-12-01T11:54:24Z</time>
      </trkpt>
      <trkpt lat="43.47093" lon="6.15368">
        <ele>140.7</ele>
        <time>2025-12-01T11:54:36Z</time>
      </trkpt>
      <trkpt lat="43.47103" lon="6.15369">
        <ele>140.3</ele>
        <time>2025-12-01T11:54:44Z</time>
      </trkpt>
      <trkpt lat="43.47112" lon="6.15368">
        <ele>140.1</ele>
        <time>2025-12-01T11:54:52Z</time>
      </trkpt>
      <trkpt lat="43.47122" lon="6.15366">
        <ele>139.8</ele>
        <time>2025-12-01T11:55:01Z</time>
      </trkpt>
      <trkpt lat="43.47131" lon="6.15361">
        <ele>139.9</ele>
        <time>2025-12-01T11:55:29Z</time>
      </trkpt>
      <trkpt lat="43.47141" lon="6.1536">
        <ele>139.6</ele>
        <time>2025-12-01T11:55:37Z</time>
      </trkpt>
      <trkpt lat="43.4715" lon="6.1536">
        <ele>139.4</ele>
        <time>2025-12-01T11:55:45Z</time>
      </trkpt>
      <trkpt lat="43.4716" lon="6.15359">
        <ele>139</ele>
        <time>2025-12-01T11:56:14Z</time>
      </trkpt>
      <trkpt lat="43.4717" lon="6.15357">
        <ele>139</ele>
        <time>2025-12-01T11:56:29Z</time>
      </trkpt>
      <trkpt lat="43.47179" lon="6.15358">
        <ele>138.9</ele>
        <time>2025-12-01T11:56:37Z</time>
      </trkpt>
      <trkpt lat="43.47188" lon="6.15357">
        <ele>138.9</ele>
        <time>2025-12-01T11:56:45Z</time>
      </trkpt>
      <trkpt lat="43.47197" lon="6.15355">
        <ele>139.4</ele>
        <time>2025-12-01T11:57:05Z</time>
      </trkpt>
      <trkpt lat="43.47206" lon="6.15355">
        <ele>139.5</ele>
        <time>2025-12-01T11:57:13Z</time>
      </trkpt>
      <trkpt lat="43.47216" lon="6.15355">
        <ele>139.6</ele>
        <time>2025-12-01T11:57:22Z</time>
      </trkpt>
      <trkpt lat="43.47226" lon="6.15358">
        <ele>139.9</ele>
        <time>2025-12-01T11:57:42Z</time>
      </trkpt>
      <trkpt lat="43.47235" lon="6.15359">
        <ele>140.3</ele>
        <time>2025-12-01T11:57:50Z</time>
      </trkpt>
      <trkpt lat="43.47243" lon="6.15366">
        <ele>140.7</ele>
        <time>2025-12-01T11:57:58Z</time>
      </trkpt>
      <trkpt lat="43.47248" lon="6.15376">
        <ele>140.4</ele>
        <time>2025-12-01T11:58:06Z</time>
      </trkpt>
      <trkpt lat="43.47254" lon="6.15387">
        <ele>139.9</ele>
        <time>2025-12-01T11:58:14Z</time>
      </trkpt>
      <trkpt lat="43.47259" lon="6.15398">
        <ele>139.5</ele>
        <time>2025-12-01T11:58:22Z</time>
      </trkpt>
      <trkpt lat="43.47265" lon="6.15409">
        <ele>139.3</ele>
        <time>2025-12-01T11:58:30Z</time>
      </trkpt>
      <trkpt lat="43.47271" lon="6.15419">
        <ele>139.3</ele>
        <time>2025-12-01T11:58:38Z</time>
      </trkpt>
      <trkpt lat="43.47276" lon="6.1543">
        <ele>139.1</ele>
        <time>2025-12-01T11:58:46Z</time>
      </trkpt>
      <trkpt lat="43.47282" lon="6.1544">
        <ele>138.9</ele>
        <time>2025-12-01T11:58:54Z</time>
      </trkpt>
      <trkpt lat="43.47289" lon="6.15448">
        <ele>138.4</ele>
        <time>2025-12-01T11:59:02Z</time>
      </trkpt>
      <trkpt lat="43.47295" lon="6.15459">
        <ele>138.1</ele>
        <time>2025-12-01T11:59:11Z</time>
      </trkpt>
      <trkpt lat="43.47299" lon="6.15471">
        <ele>138.7</ele>
        <time>2025-12-01T11:59:20Z</time>
      </trkpt>
      <trkpt lat="43.47305" lon="6.15482">
        <ele>139.3</ele>
        <time>2025-12-01T11:59:29Z</time>
      </trkpt>
      <trkpt lat="43.47309" lon="6.15495">
        <ele>140</ele>
        <time>2025-12-01T11:59:46Z</time>
      </trkpt>
      <trkpt lat="43.47314" lon="6.15507">
        <ele>140.1</ele>
        <time>2025-12-01T11:59:55Z</time>
      </trkpt>
      <trkpt lat="43.47319" lon="6.15518">
        <ele>140.2</ele>
        <time>2025-12-01T12:00:04Z</time>
      </trkpt>
      <trkpt lat="43.47323" lon="6.15529">
        <ele>140</ele>
        <time>2025-12-01T12:00:13Z</time>
      </trkpt>
      <trkpt lat="43.47328" lon="6.1554">
        <ele>140.1</ele>
        <time>2025-12-01T12:00:22Z</time>
      </trkpt>
      <trkpt lat="43.47333" lon="6.15551">
        <ele>140.2</ele>
        <time>2025-12-01T12:00:31Z</time>
      </trkpt>
      <trkpt lat="43.47338" lon="6.15562">
        <ele>140.2</ele>
        <time>2025-12-01T12:00:40Z</time>
      </trkpt>
      <trkpt lat="43.47343" lon="6.15573">
        <ele>140.1</ele>
        <time>2025-12-01T12:01:03Z</time>
      </trkpt>
      <trkpt lat="43.47348" lon="6.15585">
        <ele>140</ele>
        <time>2025-12-01T12:01:17Z</time>
      </trkpt>
      <trkpt lat="43.47343" lon="6.15575">
        <ele>139.6</ele>
        <time>2025-12-01T12:02:41Z</time>
      </trkpt>
      <trkpt lat="43.47338" lon="6.15563">
        <ele>139.3</ele>
        <time>2025-12-01T12:03:07Z</time>
      </trkpt>
      <trkpt lat="43.47333" lon="6.15551">
        <ele>139.2</ele>
        <time>2025-12-01T12:03:22Z</time>
      </trkpt>
      <trkpt lat="43.47328" lon="6.1554">
        <ele>139.1</ele>
        <time>2025-12-01T12:03:30Z</time>
      </trkpt>
      <trkpt lat="43.47323" lon="6.15529">
        <ele>139</ele>
        <time>2025-12-01T12:03:38Z</time>
      </trkpt>
      <trkpt lat="43.47319" lon="6.15518">
        <ele>139</ele>
        <time>2025-12-01T12:03:46Z</time>
      </trkpt>
      <trkpt lat="43.47324" lon="6.15528">
        <ele>138.9</ele>
        <time>2025-12-01T12:04:08Z</time>
      </trkpt>
      <trkpt lat="43.47329" lon="6.1554">
        <ele>138.9</ele>
        <time>2025-12-01T12:04:17Z</time>
      </trkpt>
      <trkpt lat="43.47334" lon="6.15551">
        <ele>139</ele>
        <time>2025-12-01T12:04:26Z</time>
      </trkpt>
      <trkpt lat="43.47338" lon="6.15561">
        <ele>139.1</ele>
        <time>2025-12-01T12:04:35Z</time>
      </trkpt>
      <trkpt lat="43.47343" lon="6.15573">
        <ele>139.3</ele>
        <time>2025-12-01T12:04:44Z</time>
      </trkpt>
      <trkpt lat="43.47347" lon="6.15585">
        <ele>139.4</ele>
        <time>2025-12-01T12:04:54Z</time>
      </trkpt>
      <trkpt lat="43.4734" lon="6.15593">
        <ele>139.6</ele>
        <time>2025-12-01T12:05:24Z</time>
      </trkpt>
      <trkpt lat="43.47331" lon="6.15598">
        <ele>139.5</ele>
        <time>2025-12-01T12:05:36Z</time>
      </trkpt>
      <trkpt lat="43.47322" lon="6.15601">
        <ele>139.6</ele>
        <time>2025-12-01T12:05:44Z</time>
      </trkpt>
      <trkpt lat="43.47312" lon="6.15605">
        <ele>139.6</ele>
        <time>2025-12-01T12:05:59Z</time>
      </trkpt>
      <trkpt lat="43.47304" lon="6.15608">
        <ele>139.5</ele>
        <time>2025-12-01T12:06:07Z</time>
      </trkpt>
      <trkpt lat="43.47294" lon="6.15612">
        <ele>139.5</ele>
        <time>2025-12-01T12:06:16Z</time>
      </trkpt>
      <trkpt lat="43.47285" lon="6.15615">
        <ele>139.6</ele>
        <time>2025-12-01T12:06:26Z</time>
      </trkpt>
      <trkpt lat="43.47276" lon="6.1562">
        <ele>139.7</ele>
        <time>2025-12-01T12:06:34Z</time>
      </trkpt>
      <trkpt lat="43.47267" lon="6.15624">
        <ele>140</ele>
        <time>2025-12-01T12:06:42Z</time>
      </trkpt>
      <trkpt lat="43.47258" lon="6.15628">
        <ele>140.1</ele>
        <time>2025-12-01T12:06:50Z</time>
      </trkpt>
      <trkpt lat="43.47249" lon="6.15632">
        <ele>140.4</ele>
        <time>2025-12-01T12:06:59Z</time>
      </trkpt>
      <trkpt lat="43.47242" lon="6.15641">
        <ele>140.8</ele>
        <time>2025-12-01T12:07:08Z</time>
      </trkpt>
      <trkpt lat="43.47236" lon="6.15651">
        <ele>141</ele>
        <time>2025-12-01T12:07:17Z</time>
      </trkpt>
      <trkpt lat="43.47229" lon="6.1566">
        <ele>141.6</ele>
        <time>2025-12-01T12:07:26Z</time>
      </trkpt>
      <trkpt lat="43.4722" lon="6.15665">
        <ele>142.4</ele>
        <time>2025-12-01T12:07:35Z</time>
      </trkpt>
      <trkpt lat="43.47211" lon="6.15669">
        <ele>143.3</ele>
        <time>2025-12-01T12:07:45Z</time>
      </trkpt>
      <trkpt lat="43.47208" lon="6.15681">
        <ele>144.6</ele>
        <time>2025-12-01T12:08:03Z</time>
      </trkpt>
      <trkpt lat="43.47213" lon="6.15693">
        <ele>144.6</ele>
        <time>2025-12-01T12:08:13Z</time>
      </trkpt>
      <trkpt lat="43.47216" lon="6.15705">
        <ele>144.8</ele>
        <time>2025-12-01T12:08:26Z</time>
      </trkpt>
      <trkpt lat="43.47218" lon="6.15718">
        <ele>144.8</ele>
        <time>2025-12-01T12:08:34Z</time>
      </trkpt>
      <trkpt lat="43.47219" lon="6.15731">
        <ele>144.8</ele>
        <time>2025-12-01T12:08:43Z</time>
      </trkpt>
      <trkpt lat="43.4722" lon="6.15745">
        <ele>144.8</ele>
        <time>2025-12-01T12:08:52Z</time>
      </trkpt>
      <trkpt lat="43.47221" lon="6.15757">
        <ele>144.8</ele>
        <time>2025-12-01T12:09:00Z</time>
      </trkpt>
      <trkpt lat="43.47222" lon="6.15771">
        <ele>144.8</ele>
        <time>2025-12-01T12:09:09Z</time>
      </trkpt>
      <trkpt lat="43.47223" lon="6.15784">
        <ele>144.9</ele>
        <time>2025-12-01T12:09:18Z</time>
      </trkpt>
      <trkpt lat="43.47225" lon="6.15797">
        <ele>145</ele>
        <time>2025-12-01T12:09:28Z</time>
      </trkpt>
      <trkpt lat="43.47226" lon="6.1581">
        <ele>144.9</ele>
        <time>2025-12-01T12:09:37Z</time>
      </trkpt>
      <trkpt lat="43.47228" lon="6.15823">
        <ele>145</ele>
        <time>2025-12-01T12:09:46Z</time>
      </trkpt>
      <trkpt lat="43.47228" lon="6.15836">
        <ele>145.1</ele>
        <time>2025-12-01T12:09:55Z</time>
      </trkpt>
      <trkpt lat="43.47229" lon="6.15849">
        <ele>145.2</ele>
        <time>2025-12-01T12:10:04Z</time>
      </trkpt>
      <trkpt lat="43.4723" lon="6.15862">
        <ele>145.3</ele>
        <time>2025-12-01T12:10:13Z</time>
      </trkpt>
      <trkpt lat="43.47231" lon="6.15874">
        <ele>145.4</ele>
        <time>2025-12-01T12:10:22Z</time>
      </trkpt>
      <trkpt lat="43.47232" lon="6.15886">
        <ele>145.6</ele>
        <time>2025-12-01T12:10:31Z</time>
      </trkpt>
      <trkpt lat="43.47233" lon="6.15899">
        <ele>145.8</ele>
        <time>2025-12-01T12:10:40Z</time>
      </trkpt>
      <trkpt lat="43.47232" lon="6.15913">
        <ele>146.4</ele>
        <time>2025-12-01T12:10:50Z</time>
      </trkpt>
      <trkpt lat="43.47234" lon="6.15925">
        <ele>146.9</ele>
        <time>2025-12-01T12:11:02Z</time>
      </trkpt>
      <trkpt lat="43.47227" lon="6.15933">
        <ele>147.5</ele>
        <time>2025-12-01T12:12:38Z</time>
      </trkpt>
      <trkpt lat="43.47221" lon="6.15943">
        <ele>147.4</ele>
        <time>2025-12-01T12:12:49Z</time>
      </trkpt>
      <trkpt lat="43.47219" lon="6.15956">
        <ele>147.3</ele>
        <time>2025-12-01T12:12:58Z</time>
      </trkpt>
      <trkpt lat="43.47218" lon="6.15969">
        <ele>147.4</ele>
        <time>2025-12-01T12:13:06Z</time>
      </trkpt>
      <trkpt lat="43.47219" lon="6.15983">
        <ele>147.7</ele>
        <time>2025-12-01T12:13:15Z</time>
      </trkpt>
      <trkpt lat="43.47219" lon="6.15996">
        <ele>147.9</ele>
        <time>2025-12-01T12:13:25Z</time>
      </trkpt>
      <trkpt lat="43.47216" lon="6.16008">
        <ele>147.8</ele>
        <time>2025-12-01T12:14:24Z</time>
      </trkpt>
      <trkpt lat="43.47216" lon="6.1602">
        <ele>148.1</ele>
        <time>2025-12-01T12:14:33Z</time>
      </trkpt>
      <trkpt lat="43.47214" lon="6.16033">
        <ele>148.5</ele>
        <time>2025-12-01T12:14:43Z</time>
      </trkpt>
      <trkpt lat="43.4721" lon="6.16046">
        <ele>148.8</ele>
        <time>2025-12-01T12:14:53Z</time>
      </trkpt>
      <trkpt lat="43.47208" lon="6.16059">
        <ele>148.8</ele>
        <time>2025-12-01T12:15:03Z</time>
      </trkpt>
      <trkpt lat="43.47201" lon="6.16068">
        <ele>148.9</ele>
        <time>2025-12-01T12:15:13Z</time>
      </trkpt>
      <trkpt lat="43.47194" lon="6.16075">
        <ele>148.9</ele>
        <time>2025-12-01T12:15:22Z</time>
      </trkpt>
      <trkpt lat="43.47187" lon="6.16084">
        <ele>149</ele>
        <time>2025-12-01T12:15:41Z</time>
      </trkpt>
      <trkpt lat="43.47188" lon="6.16098">
        <ele>149.5</ele>
        <time>2025-12-01T12:15:51Z</time>
      </trkpt>
      <trkpt lat="43.47188" lon="6.16111">
        <ele>149.7</ele>
        <time>2025-12-01T12:16:00Z</time>
      </trkpt>
      <trkpt lat="43.47183" lon="6.16122">
        <ele>149.9</ele>
        <time>2025-12-01T12:16:10Z</time>
      </trkpt>
      <trkpt lat="43.47178" lon="6.16133">
        <ele>150</ele>
        <time>2025-12-01T12:16:33Z</time>
      </trkpt>
      <trkpt lat="43.47176" lon="6.16147">
        <ele>150</ele>
        <time>2025-12-01T12:16:43Z</time>
      </trkpt>
      <trkpt lat="43.47177" lon="6.1616">
        <ele>150.1</ele>
        <time>2025-12-01T12:16:54Z</time>
      </trkpt>
      <trkpt lat="43.47176" lon="6.16174">
        <ele>150.2</ele>
        <time>2025-12-01T12:17:04Z</time>
      </trkpt>
      <trkpt lat="43.47173" lon="6.16186">
        <ele>150.1</ele>
        <time>2025-12-01T12:17:15Z</time>
      </trkpt>
      <trkpt lat="43.47176" lon="6.16199">
        <ele>150</ele>
        <time>2025-12-01T12:17:26Z</time>
      </trkpt>
      <trkpt lat="43.47172" lon="6.16211">
        <ele>150</ele>
        <time>2025-12-01T12:17:35Z</time>
      </trkpt>
      <trkpt lat="43.4717" lon="6.16223">
        <ele>149.9</ele>
        <time>2025-12-01T12:17:45Z</time>
      </trkpt>
      <trkpt lat="43.47171" lon="6.16236">
        <ele>149.8</ele>
        <time>2025-12-01T12:17:57Z</time>
      </trkpt>
      <trkpt lat="43.47171" lon="6.16249">
        <ele>149.8</ele>
        <time>2025-12-01T12:18:09Z</time>
      </trkpt>
      <trkpt lat="43.47175" lon="6.16261">
        <ele>149.6</ele>
        <time>2025-12-01T12:18:19Z</time>
      </trkpt>
      <trkpt lat="43.47173" lon="6.16274">
        <ele>149.4</ele>
        <time>2025-12-01T12:18:28Z</time>
      </trkpt>
      <trkpt lat="43.47172" lon="6.16287">
        <ele>149.3</ele>
        <time>2025-12-01T12:18:38Z</time>
      </trkpt>
      <trkpt lat="43.47171" lon="6.16299">
        <ele>149.5</ele>
        <time>2025-12-01T12:18:47Z</time>
      </trkpt>
      <trkpt lat="43.4717" lon="6.16312">
        <ele>149.7</ele>
        <time>2025-12-01T12:18:58Z</time>
      </trkpt>
      <trkpt lat="43.47174" lon="6.16325">
        <ele>149.6</ele>
        <time>2025-12-01T12:19:11Z</time>
      </trkpt>
      <trkpt lat="43.4718" lon="6.16335">
        <ele>149.6</ele>
        <time>2025-12-01T12:19:22Z</time>
      </trkpt>
      <trkpt lat="43.47187" lon="6.16327">
        <ele>149.9</ele>
        <time>2025-12-01T12:20:22Z</time>
      </trkpt>
      <trkpt lat="43.47193" lon="6.16317">
        <ele>150.5</ele>
        <time>2025-12-01T12:20:35Z</time>
      </trkpt>
      <trkpt lat="43.47202" lon="6.16314">
        <ele>151.3</ele>
        <time>2025-12-01T12:20:48Z</time>
      </trkpt>
      <trkpt lat="43.4721" lon="6.16308">
        <ele>151.6</ele>
        <time>2025-12-01T12:20:58Z</time>
      </trkpt>
      <trkpt lat="43.47219" lon="6.16307">
        <ele>152.7</ele>
        <time>2025-12-01T12:21:10Z</time>
      </trkpt>
      <trkpt lat="43.47229" lon="6.1631">
        <ele>152.9</ele>
        <time>2025-12-01T12:21:22Z</time>
      </trkpt>
      <trkpt lat="43.47238" lon="6.1631">
        <ele>153.4</ele>
        <time>2025-12-01T12:21:34Z</time>
      </trkpt>
      <trkpt lat="43.47248" lon="6.16311">
        <ele>153.5</ele>
        <time>2025-12-01T12:21:44Z</time>
      </trkpt>
      <trkpt lat="43.47257" lon="6.16314">
        <ele>153.9</ele>
        <time>2025-12-01T12:21:54Z</time>
      </trkpt>
      <trkpt lat="43.47265" lon="6.16319">
        <ele>154.4</ele>
        <time>2025-12-01T12:22:05Z</time>
      </trkpt>
      <trkpt lat="43.47275" lon="6.16321">
        <ele>155.1</ele>
        <time>2025-12-01T12:22:17Z</time>
      </trkpt>
      <trkpt lat="43.47284" lon="6.16324">
        <ele>155.6</ele>
        <time>2025-12-01T12:22:28Z</time>
      </trkpt>
      <trkpt lat="43.47293" lon="6.16326">
        <ele>155.9</ele>
        <time>2025-12-01T12:22:38Z</time>
      </trkpt>
      <trkpt lat="43.47302" lon="6.16329">
        <ele>156.3</ele>
        <time>2025-12-01T12:22:49Z</time>
      </trkpt>
      <trkpt lat="43.47311" lon="6.16332">
        <ele>157.3</ele>
        <time>2025-12-01T12:23:02Z</time>
      </trkpt>
      <trkpt lat="43.4732" lon="6.16333">
        <ele>158.6</ele>
        <time>2025-12-01T12:23:14Z</time>
      </trkpt>
      <trkpt lat="43.47329" lon="6.16333">
        <ele>159.5</ele>
        <time>2025-12-01T12:23:28Z</time>
      </trkpt>
      <trkpt lat="43.47338" lon="6.16336">
        <ele>160.1</ele>
        <time>2025-12-01T12:23:37Z</time>
      </trkpt>
      <trkpt lat="43.47348" lon="6.16339">
        <ele>160.7</ele>
        <time>2025-12-01T12:23:48Z</time>
      </trkpt>
      <trkpt lat="43.47357" lon="6.16341">
        <ele>161.4</ele>
        <time>2025-12-01T12:23:57Z</time>
      </trkpt>
      <trkpt lat="43.47366" lon="6.16346">
        <ele>162.3</ele>
        <time>2025-12-01T12:24:08Z</time>
      </trkpt>
      <trkpt lat="43.47376" lon="6.16349">
        <ele>163.1</ele>
        <time>2025-12-01T12:24:20Z</time>
      </trkpt>
      <trkpt lat="43.47385" lon="6.16351">
        <ele>164.2</ele>
        <time>2025-12-01T12:24:39Z</time>
      </trkpt>
      <trkpt lat="43.47392" lon="6.1636">
        <ele>164.8</ele>
        <time>2025-12-01T12:24:52Z</time>
      </trkpt>
      <trkpt lat="43.47401" lon="6.16366">
        <ele>165.4</ele>
        <time>2025-12-01T12:25:02Z</time>
      </trkpt>
      <trkpt lat="43.4741" lon="6.16367">
        <ele>165.6</ele>
        <time>2025-12-01T12:25:11Z</time>
      </trkpt>
      <trkpt lat="43.4742" lon="6.16369">
        <ele>166.2</ele>
        <time>2025-12-01T12:25:23Z</time>
      </trkpt>
      <trkpt lat="43.47429" lon="6.16371">
        <ele>166.9</ele>
        <time>2025-12-01T12:25:35Z</time>
      </trkpt>
      <trkpt lat="43.47438" lon="6.16373">
        <ele>167.3</ele>
        <time>2025-12-01T12:25:45Z</time>
      </trkpt>
      <trkpt lat="43.47445" lon="6.16383">
        <ele>167.5</ele>
        <time>2025-12-01T12:26:21Z</time>
      </trkpt>
      <trkpt lat="43.4745" lon="6.16393">
        <ele>167.4</ele>
        <time>2025-12-01T12:26:39Z</time>
      </trkpt>
      <trkpt lat="43.4745" lon="6.16405">
        <ele>167</ele>
        <time>2025-12-01T12:26:57Z</time>
      </trkpt>
      <trkpt lat="43.4745" lon="6.16418">
        <ele>166.7</ele>
        <time>2025-12-01T12:27:08Z</time>
      </trkpt>
      <trkpt lat="43.47447" lon="6.1643">
        <ele>166.8</ele>
        <time>2025-12-01T12:27:28Z</time>
      </trkpt>
      <trkpt lat="43.47442" lon="6.1644">
        <ele>166.7</ele>
        <time>2025-12-01T12:27:45Z</time>
      </trkpt>
      <trkpt lat="43.47443" lon="6.16454">
        <ele>165.9</ele>
        <time>2025-12-01T12:28:00Z</time>
      </trkpt>
      <trkpt lat="43.47443" lon="6.16467">
        <ele>165.2</ele>
        <time>2025-12-01T12:28:15Z</time>
      </trkpt>
      <trkpt lat="43.47442" lon="6.16479">
        <ele>164.4</ele>
        <time>2025-12-01T12:28:30Z</time>
      </trkpt>
      <trkpt lat="43.47441" lon="6.16492">
        <ele>163.8</ele>
        <time>2025-12-01T12:28:46Z</time>
      </trkpt>
      <trkpt lat="43.47439" lon="6.16504">
        <ele>163.1</ele>
        <time>2025-12-01T12:28:59Z</time>
      </trkpt>
      <trkpt lat="43.47435" lon="6.16516">
        <ele>162.2</ele>
        <time>2025-12-01T12:29:16Z</time>
      </trkpt>
      <trkpt lat="43.47432" lon="6.16528">
        <ele>161.5</ele>
        <time>2025-12-01T12:29:30Z</time>
      </trkpt>
      <trkpt lat="43.47432" lon="6.1654">
        <ele>161.3</ele>
        <time>2025-12-01T12:29:40Z</time>
      </trkpt>
      <trkpt lat="43.47431" lon="6.16553">
        <ele>159.8</ele>
        <time>2025-12-01T12:29:52Z</time>
      </trkpt>
      <trkpt lat="43.47435" lon="6.16563">
        <ele>159.2</ele>
        <time>2025-12-01T12:30:02Z</time>
      </trkpt>
      <trkpt lat="43.47432" lon="6.16575">
        <ele>158.4</ele>
        <time>2025-12-01T12:30:17Z</time>
      </trkpt>
      <trkpt lat="43.4743" lon="6.16588">
        <ele>157.6</ele>
        <time>2025-12-01T12:30:29Z</time>
      </trkpt>
      <trkpt lat="43.47426" lon="6.166">
        <ele>157.2</ele>
        <time>2025-12-01T12:30:38Z</time>
      </trkpt>
      <trkpt lat="43.47424" lon="6.16612">
        <ele>156.7</ele>
        <time>2025-12-01T12:30:49Z</time>
      </trkpt>
      <trkpt lat="43.47422" lon="6.16626">
        <ele>156.2</ele>
        <time>2025-12-01T12:30:58Z</time>
      </trkpt>
      <trkpt lat="43.47419" lon="6.16638">
        <ele>155.7</ele>
        <time>2025-12-01T12:31:08Z</time>
      </trkpt>
      <trkpt lat="43.47419" lon="6.16651">
        <ele>155</ele>
        <time>2025-12-01T12:31:21Z</time>
      </trkpt>
      <trkpt lat="43.47417" lon="6.16663">
        <ele>154.4</ele>
        <time>2025-12-01T12:31:30Z</time>
      </trkpt>
      <trkpt lat="43.47416" lon="6.16676">
        <ele>154</ele>
        <time>2025-12-01T12:31:42Z</time>
      </trkpt>
      <trkpt lat="43.47414" lon="6.16689">
        <ele>153.6</ele>
        <time>2025-12-01T12:31:53Z</time>
      </trkpt>
      <trkpt lat="43.47413" lon="6.16702">
        <ele>152.4</ele>
        <time>2025-12-01T12:32:04Z</time>
      </trkpt>
      <trkpt lat="43.47412" lon="6.16715">
        <ele>151.6</ele>
        <time>2025-12-01T12:32:16Z</time>
      </trkpt>
      <trkpt lat="43.4741" lon="6.16727">
        <ele>151.4</ele>
        <time>2025-12-01T12:32:26Z</time>
      </trkpt>
      <trkpt lat="43.47405" lon="6.16738">
        <ele>151.2</ele>
        <time>2025-12-01T12:32:39Z</time>
      </trkpt>
      <trkpt lat="43.47404" lon="6.16751">
        <ele>150.3</ele>
        <time>2025-12-01T12:32:51Z</time>
      </trkpt>
      <trkpt lat="43.47403" lon="6.16764">
        <ele>149</ele>
        <time>2025-12-01T12:33:51Z</time>
      </trkpt>
      <trkpt lat="43.47403" lon="6.16777">
        <ele>148.7</ele>
        <time>2025-12-01T12:34:02Z</time>
      </trkpt>
      <trkpt lat="43.47404" lon="6.16789">
        <ele>148.3</ele>
        <time>2025-12-01T12:34:12Z</time>
      </trkpt>
      <trkpt lat="43.47405" lon="6.16802">
        <ele>147.8</ele>
        <time>2025-12-01T12:34:22Z</time>
      </trkpt>
      <trkpt lat="43.47407" lon="6.16815">
        <ele>147.2</ele>
        <time>2025-12-01T12:34:32Z</time>
      </trkpt>
      <trkpt lat="43.47409" lon="6.16829">
        <ele>146.6</ele>
        <time>2025-12-01T12:34:41Z</time>
      </trkpt>
      <trkpt lat="43.47408" lon="6.16842">
        <ele>146.3</ele>
        <time>2025-12-01T12:34:50Z</time>
      </trkpt>
      <trkpt lat="43.47407" lon="6.16855">
        <ele>145.9</ele>
        <time>2025-12-01T12:34:59Z</time>
      </trkpt>
      <trkpt lat="43.47406" lon="6.16867">
        <ele>145.4</ele>
        <time>2025-12-01T12:35:09Z</time>
      </trkpt>
      <trkpt lat="43.47406" lon="6.1688">
        <ele>145.1</ele>
        <time>2025-12-01T12:35:20Z</time>
      </trkpt>
      <trkpt lat="43.47405" lon="6.16892">
        <ele>144.6</ele>
        <time>2025-12-01T12:35:34Z</time>
      </trkpt>
      <trkpt lat="43.47405" lon="6.16905">
        <ele>144</ele>
        <time>2025-12-01T12:35:43Z</time>
      </trkpt>
      <trkpt lat="43.47401" lon="6.16917">
        <ele>143.3</ele>
        <time>2025-12-01T12:36:00Z</time>
      </trkpt>
      <trkpt lat="43.47397" lon="6.16929">
        <ele>142.9</ele>
        <time>2025-12-01T12:36:10Z</time>
      </trkpt>
      <trkpt lat="43.47392" lon="6.16939">
        <ele>142.2</ele>
        <time>2025-12-01T12:36:22Z</time>
      </trkpt>
      <trkpt lat="43.47384" lon="6.16948">
        <ele>142.1</ele>
        <time>2025-12-01T12:36:32Z</time>
      </trkpt>
      <trkpt lat="43.47377" lon="6.16956">
        <ele>141.9</ele>
        <time>2025-12-01T12:36:41Z</time>
      </trkpt>
      <trkpt lat="43.4737" lon="6.16965">
        <ele>141.7</ele>
        <time>2025-12-01T12:36:50Z</time>
      </trkpt>
      <trkpt lat="43.47364" lon="6.16975">
        <ele>141.1</ele>
        <time>2025-12-01T12:37:00Z</time>
      </trkpt>
      <trkpt lat="43.47358" lon="6.16985">
        <ele>140.1</ele>
        <time>2025-12-01T12:37:10Z</time>
      </trkpt>
      <trkpt lat="43.47356" lon="6.16998">
        <ele>138.3</ele>
        <time>2025-12-01T12:37:22Z</time>
      </trkpt>
      <trkpt lat="43.47357" lon="6.17012">
        <ele>136.9</ele>
        <time>2025-12-01T12:37:34Z</time>
      </trkpt>
      <trkpt lat="43.47357" lon="6.17025">
        <ele>136.2</ele>
        <time>2025-12-01T12:37:42Z</time>
      </trkpt>
      <trkpt lat="43.47355" lon="6.17039">
        <ele>135.7</ele>
        <time>2025-12-01T12:37:50Z</time>
      </trkpt>
      <trkpt lat="43.47356" lon="6.17052">
        <ele>135.5</ele>
        <time>2025-12-01T12:38:00Z</time>
      </trkpt>
      <trkpt lat="43.47358" lon="6.17064">
        <ele>135.5</ele>
        <time>2025-12-01T12:38:12Z</time>
      </trkpt>
      <trkpt lat="43.47366" lon="6.17073">
        <ele>135.5</ele>
        <time>2025-12-01T12:38:22Z</time>
      </trkpt>
      <trkpt lat="43.47375" lon="6.17079">
        <ele>135.6</ele>
        <time>2025-12-01T12:38:33Z</time>
      </trkpt>
      <trkpt lat="43.47383" lon="6.17085">
        <ele>135.5</ele>
        <time>2025-12-01T12:38:43Z</time>
      </trkpt>
      <trkpt lat="43.47393" lon="6.17089">
        <ele>135.5</ele>
        <time>2025-12-01T12:38:52Z</time>
      </trkpt>
      <trkpt lat="43.47401" lon="6.17093">
        <ele>135.4</ele>
        <time>2025-12-01T12:39:01Z</time>
      </trkpt>
      <trkpt lat="43.4741" lon="6.17097">
        <ele>135.4</ele>
        <time>2025-12-01T12:39:11Z</time>
      </trkpt>
      <trkpt lat="43.47419" lon="6.17102">
        <ele>135.3</ele>
        <time>2025-12-01T12:39:22Z</time>
      </trkpt>
      <trkpt lat="43.47428" lon="6.17107">
        <ele>135.2</ele>
        <time>2025-12-01T12:39:32Z</time>
      </trkpt>
      <trkpt lat="43.47437" lon="6.1711">
        <ele>134.9</ele>
        <time>2025-12-01T12:39:42Z</time>
      </trkpt>
      <trkpt lat="43.47446" lon="6.17115">
        <ele>135.1</ele>
        <time>2025-12-01T12:39:53Z</time>
      </trkpt>
      <trkpt lat="43.47455" lon="6.1712">
        <ele>135</ele>
        <time>2025-12-01T12:40:04Z</time>
      </trkpt>
      <trkpt lat="43.47463" lon="6.17126">
        <ele>134.9</ele>
        <time>2025-12-01T12:40:14Z</time>
      </trkpt>
      <trkpt lat="43.47471" lon="6.17131">
        <ele>134.6</ele>
        <time>2025-12-01T12:40:25Z</time>
      </trkpt>
      <trkpt lat="43.4748" lon="6.17137">
        <ele>134.5</ele>
        <time>2025-12-01T12:40:37Z</time>
      </trkpt>
      <trkpt lat="43.47489" lon="6.17142">
        <ele>134.3</ele>
        <time>2025-12-01T12:40:48Z</time>
      </trkpt>
      <trkpt lat="43.47498" lon="6.17147">
        <ele>134.4</ele>
        <time>2025-12-01T12:40:59Z</time>
      </trkpt>
      <trkpt lat="43.47507" lon="6.17153">
        <ele>134.4</ele>
        <time>2025-12-01T12:41:10Z</time>
      </trkpt>
      <trkpt lat="43.47515" lon="6.17159">
        <ele>134</ele>
        <time>2025-12-01T12:41:32Z</time>
      </trkpt>
      <trkpt lat="43.47524" lon="6.17163">
        <ele>134.5</ele>
        <time>2025-12-01T12:41:44Z</time>
      </trkpt>
      <trkpt lat="43.47532" lon="6.1717">
        <ele>134.3</ele>
        <time>2025-12-01T12:41:54Z</time>
      </trkpt>
      <trkpt lat="43.4754" lon="6.17178">
        <ele>134.4</ele>
        <time>2025-12-01T12:42:05Z</time>
      </trkpt>
      <trkpt lat="43.47547" lon="6.17185">
        <ele>134.5</ele>
        <time>2025-12-01T12:42:16Z</time>
      </trkpt>
      <trkpt lat="43.47556" lon="6.1719">
        <ele>134.7</ele>
        <time>2025-12-01T12:42:25Z</time>
      </trkpt>
      <trkpt lat="43.47565" lon="6.17195">
        <ele>134.7</ele>
        <time>2025-12-01T12:42:34Z</time>
      </trkpt>
      <trkpt lat="43.47571" lon="6.17205">
        <ele>134.6</ele>
        <time>2025-12-01T12:42:45Z</time>
      </trkpt>
      <trkpt lat="43.47578" lon="6.17214">
        <ele>135</ele>
        <time>2025-12-01T12:42:55Z</time>
      </trkpt>
      <trkpt lat="43.47584" lon="6.17224">
        <ele>135</ele>
        <time>2025-12-01T12:43:05Z</time>
      </trkpt>
      <trkpt lat="43.4759" lon="6.17233">
        <ele>135.1</ele>
        <time>2025-12-01T12:43:15Z</time>
      </trkpt>
      <trkpt lat="43.47595" lon="6.17244">
        <ele>135</ele>
        <time>2025-12-01T12:43:25Z</time>
      </trkpt>
      <trkpt lat="43.476" lon="6.17256">
        <ele>135.1</ele>
        <time>2025-12-01T12:43:34Z</time>
      </trkpt>
      <trkpt lat="43.47604" lon="6.17268">
        <ele>135.1</ele>
        <time>2025-12-01T12:43:46Z</time>
      </trkpt>
      <trkpt lat="43.47609" lon="6.17279">
        <ele>134.8</ele>
        <time>2025-12-01T12:43:56Z</time>
      </trkpt>
      <trkpt lat="43.47614" lon="6.17289">
        <ele>134.9</ele>
        <time>2025-12-01T12:44:20Z</time>
      </trkpt>
      <trkpt lat="43.47616" lon="6.17301">
        <ele>134.8</ele>
        <time>2025-12-01T12:44:33Z</time>
      </trkpt>
      <trkpt lat="43.47618" lon="6.17314">
        <ele>134.7</ele>
        <time>2025-12-01T12:44:52Z</time>
      </trkpt>
      <trkpt lat="43.4762" lon="6.17327">
        <ele>134.7</ele>
        <time>2025-12-01T12:45:03Z</time>
      </trkpt>
      <trkpt lat="43.47622" lon="6.17339">
        <ele>134.6</ele>
        <time>2025-12-01T12:45:19Z</time>
      </trkpt>
      <trkpt lat="43.47623" lon="6.17352">
        <ele>134.6</ele>
        <time>2025-12-01T12:45:29Z</time>
      </trkpt>
      <trkpt lat="43.47624" lon="6.17365">
        <ele>134.5</ele>
        <time>2025-12-01T12:45:39Z</time>
      </trkpt>
      <trkpt lat="43.47624" lon="6.17379">
        <ele>134.5</ele>
        <time>2025-12-01T12:45:48Z</time>
      </trkpt>
      <trkpt lat="43.47621" lon="6.17391">
        <ele>134.5</ele>
        <time>2025-12-01T12:45:57Z</time>
      </trkpt>
      <trkpt lat="43.47622" lon="6.17404">
        <ele>134.4</ele>
        <time>2025-12-01T12:46:06Z</time>
      </trkpt>
      <trkpt lat="43.47626" lon="6.17415">
        <ele>134.3</ele>
        <time>2025-12-01T12:46:15Z</time>
      </trkpt>
      <trkpt lat="43.47633" lon="6.17424">
        <ele>134.4</ele>
        <time>2025-12-01T12:46:24Z</time>
      </trkpt>
      <trkpt lat="43.4764" lon="6.17433">
        <ele>134.7</ele>
        <time>2025-12-01T12:46:32Z</time>
      </trkpt>
      <trkpt lat="43.47647" lon="6.17442">
        <ele>134.5</ele>
        <time>2025-12-01T12:46:42Z</time>
      </trkpt>
      <trkpt lat="43.47653" lon="6.17452">
        <ele>134.7</ele>
        <time>2025-12-01T12:46:51Z</time>
      </trkpt>
      <trkpt lat="43.47659" lon="6.17461">
        <ele>134.9</ele>
        <time>2025-12-01T12:47:00Z</time>
      </trkpt>
      <trkpt lat="43.47666" lon="6.17471">
        <ele>135.2</ele>
        <time>2025-12-01T12:47:09Z</time>
      </trkpt>
      <trkpt lat="43.47673" lon="6.17481">
        <ele>135.2</ele>
        <time>2025-12-01T12:47:19Z</time>
      </trkpt>
      <trkpt lat="43.47677" lon="6.17492">
        <ele>135.3</ele>
        <time>2025-12-01T12:47:29Z</time>
      </trkpt>
      <trkpt lat="43.4768" lon="6.17504">
        <ele>135.1</ele>
        <time>2025-12-01T12:47:39Z</time>
      </trkpt>
      <trkpt lat="43.47681" lon="6.17516">
        <ele>134.9</ele>
        <time>2025-12-01T12:48:11Z</time>
      </trkpt>
      <trkpt lat="43.47684" lon="6.17528">
        <ele>134.9</ele>
        <time>2025-12-01T12:48:21Z</time>
      </trkpt>
      <trkpt lat="43.47687" lon="6.1754">
        <ele>134.8</ele>
        <time>2025-12-01T12:48:31Z</time>
      </trkpt>
      <trkpt lat="43.4769" lon="6.17553">
        <ele>134.8</ele>
        <time>2025-12-01T12:48:42Z</time>
      </trkpt>
      <trkpt lat="43.47684" lon="6.17563">
        <ele>133.7</ele>
        <time>2025-12-01T12:48:59Z</time>
      </trkpt>
      <trkpt lat="43.47676" lon="6.17568">
        <ele>133.8</ele>
        <time>2025-12-01T12:49:10Z</time>
      </trkpt>
      <trkpt lat="43.47667" lon="6.17573">
        <ele>133.8</ele>
        <time>2025-12-01T12:49:19Z</time>
      </trkpt>
      <trkpt lat="43.47658" lon="6.17577">
        <ele>133.7</ele>
        <time>2025-12-01T12:49:27Z</time>
      </trkpt>
      <trkpt lat="43.4765" lon="6.17583">
        <ele>133.7</ele>
        <time>2025-12-01T12:49:39Z</time>
      </trkpt>
      <trkpt lat="43.47641" lon="6.17586">
        <ele>133.2</ele>
        <time>2025-12-01T12:49:56Z</time>
      </trkpt>
      <trkpt lat="43.47632" lon="6.1759">
        <ele>133.3</ele>
        <time>2025-12-01T12:50:08Z</time>
      </trkpt>
      <trkpt lat="43.47625" lon="6.17598">
        <ele>133.8</ele>
        <time>2025-12-01T12:50:21Z</time>
      </trkpt>
      <trkpt lat="43.47616" lon="6.17602">
        <ele>134.5</ele>
        <time>2025-12-01T12:50:33Z</time>
      </trkpt>
      <trkpt lat="43.47608" lon="6.17607">
        <ele>134.8</ele>
        <time>2025-12-01T12:50:52Z</time>
      </trkpt>
      <trkpt lat="43.47599" lon="6.17611">
        <ele>134.8</ele>
        <time>2025-12-01T12:51:07Z</time>
      </trkpt>
      <trkpt lat="43.4759" lon="6.17613">
        <ele>134.8</ele>
        <time>2025-12-01T12:51:16Z</time>
      </trkpt>
      <trkpt lat="43.4758" lon="6.17616">
        <ele>135.1</ele>
        <time>2025-12-01T12:51:27Z</time>
      </trkpt>
      <trkpt lat="43.47571" lon="6.17619">
        <ele>135.2</ele>
        <time>2025-12-01T12:51:37Z</time>
      </trkpt>
      <trkpt lat="43.4757" lon="6.17632">
        <ele>135.2</ele>
        <time>2025-12-01T12:51:52Z</time>
      </trkpt>
      <trkpt lat="43.47572" lon="6.17644">
        <ele>135</ele>
        <time>2025-12-01T12:52:04Z</time>
      </trkpt>
      <trkpt lat="43.47575" lon="6.17657">
        <ele>135</ele>
        <time>2025-12-01T12:52:16Z</time>
      </trkpt>
      <trkpt lat="43.47577" lon="6.1767">
        <ele>135.1</ele>
        <time>2025-12-01T12:52:27Z</time>
      </trkpt>
      <trkpt lat="43.4758" lon="6.17682">
        <ele>135</ele>
        <time>2025-12-01T12:52:39Z</time>
      </trkpt>
      <trkpt lat="43.47583" lon="6.17694">
        <ele>135.1</ele>
        <time>2025-12-01T12:52:55Z</time>
      </trkpt>
      <trkpt lat="43.47586" lon="6.17706">
        <ele>135.3</ele>
        <time>2025-12-01T12:53:07Z</time>
      </trkpt>
      <trkpt lat="43.47586" lon="6.17719">
        <ele>135.3</ele>
        <time>2025-12-01T12:53:22Z</time>
      </trkpt>
      <trkpt lat="43.47588" lon="6.17732">
        <ele>135.3</ele>
        <time>2025-12-01T12:53:34Z</time>
      </trkpt>
      <trkpt lat="43.47592" lon="6.17744">
        <ele>135.2</ele>
        <time>2025-12-01T12:53:45Z</time>
      </trkpt>
      <trkpt lat="43.47595" lon="6.17756">
        <ele>135.1</ele>
        <time>2025-12-01T12:53:56Z</time>
      </trkpt>
      <trkpt lat="43.47597" lon="6.17769">
        <ele>135.2</ele>
        <time>2025-12-01T12:54:07Z</time>
      </trkpt>
      <trkpt lat="43.47601" lon="6.17781">
        <ele>135.2</ele>
        <time>2025-12-01T12:54:18Z</time>
      </trkpt>
      <trkpt lat="43.47604" lon="6.17793">
        <ele>135.2</ele>
        <time>2025-12-01T12:54:28Z</time>
      </trkpt>
      <trkpt lat="43.47608" lon="6.17804">
        <ele>135.2</ele>
        <time>2025-12-01T12:54:38Z</time>
      </trkpt>
      <trkpt lat="43.47611" lon="6.17816">
        <ele>135.4</ele>
        <time>2025-12-01T12:54:51Z</time>
      </trkpt>
      <trkpt lat="43.47614" lon="6.17829">
        <ele>135.3</ele>
        <time>2025-12-01T12:55:00Z</time>
      </trkpt>
      <trkpt lat="43.47615" lon="6.17842">
        <ele>135.2</ele>
        <time>2025-12-01T12:55:10Z</time>
      </trkpt>
      <trkpt lat="43.47618" lon="6.17855">
        <ele>135.1</ele>
        <time>2025-12-01T12:55:19Z</time>
      </trkpt>
      <trkpt lat="43.47621" lon="6.17867">
        <ele>135</ele>
        <time>2025-12-01T12:55:28Z</time>
      </trkpt>
      <trkpt lat="43.47625" lon="6.17878">
        <ele>134.8</ele>
        <time>2025-12-01T12:55:42Z</time>
      </trkpt>
      <trkpt lat="43.47629" lon="6.1789">
        <ele>134.8</ele>
        <time>2025-12-01T12:55:54Z</time>
      </trkpt>
      <trkpt lat="43.47632" lon="6.17903">
        <ele>134.9</ele>
        <time>2025-12-01T12:56:04Z</time>
      </trkpt>
      <trkpt lat="43.47635" lon="6.17916">
        <ele>135</ele>
        <time>2025-12-01T12:56:14Z</time>
      </trkpt>
      <trkpt lat="43.47639" lon="6.17928">
        <ele>135.3</ele>
        <time>2025-12-01T12:56:23Z</time>
      </trkpt>
      <trkpt lat="43.4764" lon="6.1794">
        <ele>135.7</ele>
        <time>2025-12-01T12:56:32Z</time>
      </trkpt>
      <trkpt lat="43.47646" lon="6.17951">
        <ele>136.7</ele>
        <time>2025-12-01T12:56:44Z</time>
      </trkpt>
      <trkpt lat="43.4765" lon="6.17963">
        <ele>138.1</ele>
        <time>2025-12-01T12:56:58Z</time>
      </trkpt>
      <trkpt lat="43.47655" lon="6.17973">
        <ele>139.7</ele>
        <time>2025-12-01T12:58:31Z</time>
      </trkpt>
      <trkpt lat="43.47661" lon="6.17983">
        <ele>140.2</ele>
        <time>2025-12-01T12:59:55Z</time>
      </trkpt>
      <trkpt lat="43.47663" lon="6.17995">
        <ele>140.9</ele>
        <time>2025-12-01T13:05:01Z</time>
      </trkpt>
      <trkpt lat="43.47668" lon="6.18005">
        <ele>141.3</ele>
        <time>2025-12-01T13:05:13Z</time>
      </trkpt>
      <trkpt lat="43.47676" lon="6.18013">
        <ele>140.9</ele>
        <time>2025-12-01T13:05:25Z</time>
      </trkpt>
      <trkpt lat="43.47683" lon="6.1802">
        <ele>139.8</ele>
        <time>2025-12-01T13:05:37Z</time>
      </trkpt>
      <trkpt lat="43.47689" lon="6.1803">
        <ele>139.3</ele>
        <time>2025-12-01T13:05:48Z</time>
      </trkpt>
      <trkpt lat="43.47695" lon="6.18041">
        <ele>138.9</ele>
        <time>2025-12-01T13:05:59Z</time>
      </trkpt>
      <trkpt lat="43.47699" lon="6.18053">
        <ele>137.9</ele>
        <time>2025-12-01T13:06:19Z</time>
      </trkpt>
      <trkpt lat="43.47708" lon="6.18058">
        <ele>138.1</ele>
        <time>2025-12-01T13:06:30Z</time>
      </trkpt>
      <trkpt lat="43.47717" lon="6.18067">
        <ele>138.2</ele>
        <time>2025-12-01T13:06:42Z</time>
      </trkpt>
      <trkpt lat="43.47725" lon="6.1807">
        <ele>138.3</ele>
        <time>2025-12-01T13:06:47Z</time>
      </trkpt>
      <trkpt lat="43.47731" lon="6.18082">
        <ele>138.2</ele>
        <time>2025-12-01T13:07:00Z</time>
      </trkpt>
      <trkpt lat="43.47733" lon="6.18094">
        <ele>137.3</ele>
        <time>2025-12-01T13:07:11Z</time>
      </trkpt>
      <trkpt lat="43.4773" lon="6.18107">
        <ele>137</ele>
        <time>2025-12-01T13:07:23Z</time>
      </trkpt>
      <trkpt lat="43.47723" lon="6.18115">
        <ele>137</ele>
        <time>2025-12-01T13:07:31Z</time>
      </trkpt>
      <trkpt lat="43.47722" lon="6.18128">
        <ele>137</ele>
        <time>2025-12-01T13:07:43Z</time>
      </trkpt>
      <trkpt lat="43.47729" lon="6.18138">
        <ele>136.7</ele>
        <time>2025-12-01T13:07:57Z</time>
      </trkpt>
      <trkpt lat="43.47736" lon="6.18147">
        <ele>136.3</ele>
        <time>2025-12-01T13:08:10Z</time>
      </trkpt>
      <trkpt lat="43.47738" lon="6.18159">
        <ele>135.9</ele>
        <time>2025-12-01T13:08:22Z</time>
      </trkpt>
      <trkpt lat="43.4774" lon="6.18173">
        <ele>135.5</ele>
        <time>2025-12-01T13:08:35Z</time>
      </trkpt>
      <trkpt lat="43.4774" lon="6.18185">
        <ele>135.2</ele>
        <time>2025-12-01T13:08:45Z</time>
      </trkpt>
      <trkpt lat="43.4774" lon="6.18198">
        <ele>134.5</ele>
        <time>2025-12-01T13:08:55Z</time>
      </trkpt>
      <trkpt lat="43.47742" lon="6.18211">
        <ele>134</ele>
        <time>2025-12-01T13:09:07Z</time>
      </trkpt>
      <trkpt lat="43.47749" lon="6.1822">
        <ele>133.7</ele>
        <time>2025-12-01T13:09:16Z</time>
      </trkpt>
      <trkpt lat="43.47753" lon="6.18231">
        <ele>133.3</ele>
        <time>2025-12-01T13:09:25Z</time>
      </trkpt>
      <trkpt lat="43.47758" lon="6.18242">
        <ele>133</ele>
        <time>2025-12-01T13:09:35Z</time>
      </trkpt>
      <trkpt lat="43.47762" lon="6.18254">
        <ele>132.8</ele>
        <time>2025-12-01T13:09:46Z</time>
      </trkpt>
      <trkpt lat="43.47762" lon="6.18266">
        <ele>132.4</ele>
        <time>2025-12-01T13:09:56Z</time>
      </trkpt>
      <trkpt lat="43.4776" lon="6.18278">
        <ele>132.3</ele>
        <time>2025-12-01T13:10:06Z</time>
      </trkpt>
      <trkpt lat="43.47758" lon="6.18291">
        <ele>132.3</ele>
        <time>2025-12-01T13:10:16Z</time>
      </trkpt>
      <trkpt lat="43.47757" lon="6.18304">
        <ele>132.1</ele>
        <time>2025-12-01T13:10:28Z</time>
      </trkpt>
      <trkpt lat="43.47755" lon="6.18317">
        <ele>132</ele>
        <time>2025-12-01T13:10:40Z</time>
      </trkpt>
      <trkpt lat="43.47761" lon="6.18327">
        <ele>131.4</ele>
        <time>2025-12-01T13:10:55Z</time>
      </trkpt>
      <trkpt lat="43.4777" lon="6.18331">
        <ele>131.1</ele>
        <time>2025-12-01T13:11:08Z</time>
      </trkpt>
      <trkpt lat="43.47775" lon="6.18342">
        <ele>130.9</ele>
        <time>2025-12-01T13:11:31Z</time>
      </trkpt>
      <trkpt lat="43.47765" lon="6.18344">
        <ele>130.6</ele>
        <time>2025-12-01T13:11:51Z</time>
      </trkpt>
      <trkpt lat="43.47757" lon="6.18349">
        <ele>131</ele>
        <time>2025-12-01T13:12:06Z</time>
      </trkpt>
      <trkpt lat="43.47758" lon="6.18336">
        <ele>131.4</ele>
        <time>2025-12-01T13:12:52Z</time>
      </trkpt>
      <trkpt lat="43.47761" lon="6.1833">
        <ele>131.3</ele>
        <time>2025-12-01T13:12:59Z</time>
      </trkpt>
    </trkseg>
  </trk>
</gpx>